CloseHelpProblem

Burley Spudman

07/29/06


PlBibNameRepresenting Age DivisionLapsFinal TimeTime BackPaceAdjustment
18Kelly WILLIAMSONBoise ID USAElite Men101:48:50.51+00:00:00.0000:14:48.04000:01:02.29000:55:16.14000:00:53.73000:36:50.310
29Michael NORDBERGSalt Lake City UT USAElite Men101:49:52.28+00:01:01.7700:12:46.22000:01:34.30000:59:35.69000:00:55.92000:35:00.150
3466Heath THURSTONUSAElite Men101:50:55.68+00:02:05.1700:12:35.57000:01:05.93000:58:41.69000:00:43.76000:37:48.730
417Greg TAYLERHeber City UT USAElite Men101:55:27.89+00:06:37.3800:13:06.88000:02:14.58001:00:26.20000:00:54.55000:38:45.680
515Guy PERRYOgden UT USAElite Men101:58:21.82+00:09:31.3100:15:29.15000:01:34.73000:59:40.70000:01:06.25000:40:30.990
6884Michael OLSENLas Vegas NV USA05 M 35 - 39101:59:02.46+00:10:11.9500:16:21.16000:00:58.50001:01:08.41000:00:51.44000:39:42.950
713Ladell MERRITTPowell WY USAElite Men101:59:54.20+00:11:03.6900:16:15.60000:01:36.35001:00:06.69000:00:57.46000:40:58.100
87Jake RUSHTONTaylorsville UT USA02 M 19 - 24102:00:32.58+00:11:42.0700:14:57.21000:01:07.50001:05:20.87000:39:07.000
964Gray AUGUSTUSSalt Lake City UT USA02 M 19 - 24102:00:34.86+00:11:44.3500:18:03.35000:01:16.91001:03:41.35000:00:57.66000:36:35.590
101082Mark HOLLANDPark City UT USA07 M 45 - 49102:01:06.36+00:12:15.8500:16:22.62000:01:32.06001:02:12.73000:01:23.13000:39:35.820
112B.j. CHRISTENSONSalt Lake City UT USAElite Men102:01:13.47+00:12:22.9600:13:44.83000:01:11.81001:07:55.31000:00:58.94000:37:22.580
1210Randall LEWISProvo UT USAElite Men102:01:46.34+00:12:55.8300:14:10.19000:01:04.09001:01:46.18000:00:47.72000:43:58.160
13187 BOISEStan Allen Miguel Rementeria Kaly Gillette Shippen32 Mixed 75 - 106102:02:24.01+00:13:33.5000:17:23.83000:00:51.47001:04:08.23000:00:37.63000:39:22.850
14247Erik VERNONSalt Lake City UT USA04 M 30 - 34102:02:32.18+00:13:41.6700:17:34.49000:01:33.25001:04:38.61000:01:05.79000:37:40.040
15248David WARDENLehi UT USA04 M 30 - 34102:02:55.82+00:14:05.3100:16:49.49000:01:50.80001:01:25.20000:01:20.30000:41:30.030
161000Michael MAMALESSalt Lake City UT USA06 M 40 - 44102:03:40.66+00:14:50.1500:15:41.22000:01:08.35001:02:54.35000:00:55.60000:43:01.140
17352Shawn HEALYBountiful UT USA04 M 30 - 34102:04:04.65+00:15:14.1400:17:10.86000:03:39.79001:07:06.01000:01:31.08000:34:36.910
18632Jake STEVENSslc UT USA03 M 25 - 29102:04:07.31+00:15:16.8000:14:24.97000:01:22.48001:03:22.86000:00:51.79000:44:05.210
19314Shaun CHRISTIANOrem UT USA04 M 30 - 34102:04:18.86+00:15:28.3500:15:56.03000:01:32.72001:04:49.97000:00:52.74000:41:07.400
20925Shane MORRISamerican fork UT USA05 M 35 - 39102:04:23.76+00:15:33.2500:16:11.88000:01:26.63001:03:13.20000:00:53.54000:42:38.510
211006Steve ORROCKAlpine UT USA06 M 40 - 44102:05:05.80+00:16:15.2900:16:31.86000:01:48.48001:02:30.50000:01:43.83000:42:31.130
22316James LAWRENCEprovo UT USA04 M 30 - 34102:05:33.20+00:16:42.6900:17:11.40000:01:33.63001:01:46.65000:00:50.65000:44:10.870
23189 PACKERSTRAVIS ANDERSON rock temple adrian hobson32 Mixed 75 - 106102:06:07.06+00:17:16.5500:16:02.05000:01:21.77001:01:07.39000:00:44.46000:46:51.390
24816Casey KLEINMANSalt Lake City UT USA05 M 35 - 39102:06:07.19+00:17:16.6800:17:55.36000:01:32.56001:00:48.07000:01:06.31000:44:44.890
25692Andrew ROBINSONOrem UT USA03 M 25 - 29102:07:11.94+00:18:21.4300:17:11.73000:01:49.13001:04:17.31000:01:12.53000:42:41.240
26737Brett BUNKALLSalt Lake City UT USA03 M 25 - 29102:07:37.33+00:18:46.8200:15:05.64000:02:37.79001:05:33.72000:01:06.09000:43:14.090
271010Alan SMILEYDraper UT USA06 M 40 - 44102:08:03.07+00:19:12.5600:16:19.21000:02:14.73001:05:29.21000:01:23.86000:42:36.060
281091John WOODSLC UT USA07 M 45 - 49102:08:32.39+00:19:41.8800:17:08.80000:01:45.30001:05:47.67000:01:42.86000:42:07.760
29221Ryan THIERBACHSandy UT USA04 M 30 - 34102:08:54.62+00:20:04.1100:14:42.29000:01:36.06001:06:59.61000:01:05.66000:44:31.000
30246Douglas COOKJACKSON WY USA04 M 30 - 34102:09:34.63+00:20:44.1200:15:58.02000:01:23.86001:03:15.32000:01:11.92000:47:45.510
311009Adam DEWAALSLC UT USA06 M 40 - 44102:09:34.87+00:20:44.3600:18:52.38000:01:48.85001:04:08.58000:44:45.060
321119Gary AZEVEDOIdaho Falls ID USA07 M 45 - 49102:09:35.05+00:20:44.5400:15:52.00000:01:57.79001:02:29.79000:01:22.14000:47:53.330
33200 WIN OR DIE!Robin Rowe Tiedji Brian33 Mixed 107 - 137102:09:53.24+00:21:02.7300:16:20.64000:00:55.82001:11:16.51000:41:20.270
34265Jason ASLESONDraper UT USA04 M 30 - 34102:09:58.97+00:21:08.4600:17:36.91000:02:25.53001:02:05.72000:01:26.20000:46:24.610
35658Michael KJARStansbury Park UT USA03 M 25 - 29102:10:09.81+00:21:19.3000:15:46.76000:02:15.19001:06:52.71000:00:52.86000:44:22.290
361081Michael CAHILLSalt Lake City UT USA07 M 45 - 49102:10:18.96+00:21:28.4500:18:04.33000:02:15.69001:08:15.53000:01:26.50000:40:16.910
37264Britt MANNINGOgden UT USA04 M 30 - 34102:10:55.11+00:22:04.6000:16:24.84000:02:36.30001:02:59.46000:01:37.93000:47:16.580
38267Michael BERGQUISTSalt Lake City UT USA04 M 30 - 34102:10:58.95+00:22:08.4400:15:46.49000:02:41.26001:07:32.29000:01:13.77000:43:45.140
39283Mark JOLLEYLayton UT USA04 M 30 - 34102:11:09.18+00:22:18.6700:20:35.95000:03:04.74001:09:34.48000:00:48.71000:37:05.300
40249Cameron KASTELERDraper UT USA04 M 30 - 34102:11:09.48+00:22:18.9700:17:33.59000:02:25.53001:03:01.31000:01:02.10000:47:06.950
41862Ross KLOBUCHARPleasant View UT USA05 M 35 - 39102:11:11.30+00:22:20.7900:16:41.39000:02:00.67001:03:56.00000:01:09.66000:47:23.580
42818Ben HARMANTwin Falls ID USA05 M 35 - 39102:11:11.99+00:22:21.4800:18:16.04000:01:49.04001:06:30.79000:01:21.41000:43:14.710
43820Ben WALDENsandyut UT USA05 M 35 - 39102:11:14.28+00:22:23.7700:14:48.75000:01:52.23001:05:52.67000:01:40.61000:47:00.020
441083Carl HORTONDraper UT USA07 M 45 - 49102:12:09.79+00:23:19.2800:17:13.72000:01:54.16001:03:32.34000:01:29.97000:47:59.600
45274Bret CAMPBELLBurley ID USA04 M 30 - 34102:12:20.16+00:23:29.6500:18:55.25000:02:00.03001:04:38.07000:01:21.40000:45:25.410
46183 RACIN MACESONmadison holt cees hofman mason carter31 Mixed Under 75102:12:25.72+00:23:35.2100:15:59.50000:00:54.77001:01:38.53000:00:44.23000:53:08.690
47869John ALLANSpanish Fork UT USA05 M 35 - 39102:12:33.63+00:23:43.1200:18:23.23000:01:34.83001:07:28.89000:01:21.61000:43:45.070
48736Duy BECKSalt Lake City UT USA03 M 25 - 29102:12:40.20+00:23:49.6900:17:46.51000:02:03.76001:05:31.23000:00:58.53000:46:20.170
49745David GUNDYUSA03 M 25 - 29102:12:40.58+00:23:50.0700:15:24.97000:01:54.68001:06:22.11000:01:35.61000:47:23.210
50814Brett WEHRLISouth Weber UT USA05 M 35 - 39102:12:41.11+00:23:50.6000:19:06.64000:02:17.88001:00:39.05000:02:06.04000:48:31.500
51817Travis HESSSouth Jordan UT USA05 M 35 - 39102:12:43.86+00:23:53.3500:18:28.83000:02:14.11001:01:23.99000:01:32.10000:49:04.830
5219John RAMSEYSalt Lake City UT USAElite Men102:12:54.76+00:24:04.2500:15:19.44000:01:36.36001:07:12.28000:01:11.38000:47:35.300
53113Charity VERNONSalt Lake City UT USA13 F 19 - 24102:12:56.14+00:24:05.6300:18:23.55000:01:53.21001:08:34.12000:01:04.72000:43:00.540
54169 C4Tim Bowman Ryan Carlson Jon Nelson29 M Team 107 - 137102:13:14.23+00:24:23.7200:16:39.81000:01:01.44001:06:48.23000:00:54.32000:47:50.430
55859Matt SCHERERAlpine UT USAElite Men102:13:21.52+00:24:31.0100:15:24.77000:02:07.47001:06:34.33000:01:04.33000:48:10.620
56344Paul SCHOENYHighlands Ranch CO USA04 M 30 - 34102:13:24.00+00:24:33.4900:17:48.40000:02:50.86001:07:43.06000:01:37.82000:43:23.860
57342Bradley WILLISPlain City UT USA04 M 30 - 34102:13:28.49+00:24:37.9800:18:41.33000:02:17.51001:02:10.52000:01:19.62000:48:59.510
58581Bri KLUGpark city UT USAElite Women102:13:39.41+00:24:48.9000:15:13.52000:01:43.83001:07:07.92000:00:59.38000:48:34.760
59835Jeff ROUNDYNorth Salt Lake UT USA05 M 35 - 39102:13:55.09+00:25:04.5800:16:10.41000:02:29.08001:07:25.07000:01:08.75000:46:41.780
60304Brandon BARLOWJackson WY USA04 M 30 - 34102:14:00.67+00:25:10.1600:18:05.33000:03:46.33001:05:39.29000:02:17.05000:44:12.670
61116Steven NYMANOrem UT USA02 M 19 - 24102:14:04.29+00:25:13.7800:18:14.90000:01:35.09001:03:46.22000:50:28.080
62724Samuel MEHRHenderson NV USA03 M 25 - 29102:14:24.39+00:25:33.8800:19:55.73000:02:48.89001:05:30.62000:01:43.71000:44:25.440
631101Scot SAFFORDholladay UT USA07 M 45 - 49102:14:31.85+00:25:41.3400:16:43.62000:03:03.18001:05:44.60000:02:16.55000:46:43.900
64826Sean JONESWest Jordan UT USA05 M 35 - 39102:14:46.13+00:25:55.6200:17:53.07000:02:30.72001:06:03.95000:01:24.18000:46:54.210
65175 TEAM CRAWFORDTerry Crawford Bill Gundy Derrick May30 M Team 138 and Over102:15:06.85+00:26:16.3400:15:56.83000:01:08.07001:16:21.74000:00:48.12000:40:52.090
66484Heather PENRODSpringville UT USA15 F 30 - 34102:15:21.40+00:26:30.8900:21:25.52000:02:46.30001:09:26.36000:01:24.66000:40:18.560
6711Daniel ERIKSSONLayton UT USA35 Clydesdale Under 40102:15:28.51+00:26:38.0000:17:34.07000:01:50.27001:07:24.56000:01:46.60000:46:53.010
6826Kevin KEMPProvo UT USA01 M 15 - 18102:15:33.71+00:26:43.2000:14:48.79000:01:55.51001:12:10.25000:01:27.83000:45:11.330
69174 THE TERRIFIC THREESJim Demet Mark Alvarez Grant Rotonda29 M Team 107 - 137102:15:39.54+00:26:49.0300:13:10.22000:00:55.01001:21:01.20000:00:46.19000:39:46.920
7075Joe ANDERSONOGDEN UT USA09 M 55 - 59102:15:41.75+00:26:51.2400:15:08.96000:02:58.16001:05:29.50000:01:12.14000:50:52.990
711311Scott KELLYSalt Lake City UT USA08 M 50 - 54102:15:50.88+00:27:00.3700:18:23.52000:01:31.56001:04:47.01000:01:34.55000:49:34.240
72260Robert GREENWELLFlroencce MT USA05 M 35 - 39102:16:01.50+00:27:10.9901:08:44.6800:01:51.230
731106Scott MEREDITHStansbury Park UT USA07 M 45 - 49102:16:08.38+00:27:17.8700:17:08.25000:02:23.11001:04:01.91000:01:34.57000:51:00.540
74240Eric JENSENLayton UT USA04 M 30 - 34102:16:12.18+00:27:21.6700:18:26.67000:03:14.55001:00:58.24000:01:58.00000:51:34.720
75732Matt WATKINSHOLLADAY UT USA03 M 25 - 29102:16:27.58+00:27:37.0700:21:12.02000:02:25.90001:04:35.60000:01:24.64000:46:49.420
76827Chad KROSSCHELLMeridian ID USA05 M 35 - 39102:16:31.66+00:27:41.1500:16:32.48000:02:42.35001:02:56.78000:02:00.32000:52:19.730
77218Rich BRUINwest jordan UT USA04 M 30 - 34102:16:36.25+00:27:45.7400:18:19.07000:01:57.81001:05:18.58000:01:20.69000:49:40.100
781150Rob LEISHMANSandy UT USA35 Clydesdale Under 40102:16:39.26+00:27:48.7500:16:17.74000:01:38.98001:07:47.85000:01:12.23000:49:42.460
7970Bradley RICHSalt Lake City UT USA09 M 55 - 59102:16:48.06+00:27:57.5500:19:21.20000:02:07.78001:05:51.32000:01:32.37000:47:55.390
80507Amie HALLSantaquin UT USA15 F 30 - 34102:16:48.71+00:27:58.2000:17:36.83000:01:54.04001:07:51.26000:01:44.72000:47:41.860
81360Alex MCKINLEYUSA04 M 30 - 34102:16:49.28+00:27:58.7700:17:51.82000:01:29.74001:07:02.59000:01:04.55000:49:20.580
82727Tom TELFORDClearfield UT USA03 M 25 - 29102:17:05.93+00:28:15.4200:18:10.76000:01:28.83001:05:58.74000:01:13.47000:50:14.130
83211Brad DAVISSalt Lake City UT USA04 M 30 - 34102:17:14.30+00:28:23.7900:18:58.14000:02:44.04001:05:54.24000:01:17.35000:48:20.530
84705Jonathan WHEELWRIGHTSalt Lake City UT USA03 M 25 - 29102:17:21.42+00:28:30.9100:18:46.06000:03:33.26001:09:16.09000:01:55.32000:43:50.690
851127Dean ROSEPocatello ID USA07 M 45 - 49102:17:22.15+00:28:31.6400:17:15.65000:02:19.23001:05:28.17000:01:54.57000:50:24.530
86253Chris CHRISTIANSENSalt Lake City UT USA04 M 30 - 34102:17:29.08+00:28:38.5700:24:39.92000:02:40.81001:05:49.21000:00:55.74000:43:23.400
87232Adam DUERSCHStansbury Park UT USA04 M 30 - 34102:17:29.33+00:28:38.8200:18:48.09000:02:47.44001:06:01.82000:00:58.73000:48:53.250
88293Dan MCMASTERSt. Paul MN USA04 M 30 - 34102:17:46.85+00:28:56.3400:15:43.63000:02:21.39001:06:46.80000:01:51.18000:51:03.850
89870Troy BARNESsalt lake city UT USA05 M 35 - 39102:17:54.93+00:29:04.4200:17:15.91000:03:15.30001:09:37.75000:01:04.22000:46:41.750
901205John KIMBALLSalt Lake City UT USA05 M 35 - 39102:17:55.02+00:29:04.5100:17:39.47000:01:47.53001:02:41.85000:02:04.09000:53:42.080
911110Brad FAIRCHILDProvo UT USA07 M 45 - 49102:17:55.39+00:29:04.8800:17:02.36000:01:50.68001:07:47.15000:01:14.77000:50:00.430
921305Michael SCHLIEROgden UT USA08 M 50 - 54102:18:08.66+00:29:18.1500:14:34.88000:02:50.92001:04:57.66000:02:28.71000:53:16.490
93233Ted WAGNERBoise ID USA04 M 30 - 34102:18:18.72+00:29:28.2100:17:23.92000:02:49.91001:07:16.16000:01:26.72000:49:22.010
94811Clark DILLONNSL UT USA05 M 35 - 39102:18:19.47+00:29:28.9600:21:01.47000:03:20.88001:04:00.62000:01:31.64000:48:24.860
951156Tom FREEMANAlpine UT USA35 Clydesdale Under 40102:18:31.90+00:29:41.3900:18:45.04000:02:02.38001:07:34.91000:01:30.21000:48:39.360
9688Stephanie JOHNSONBurley ID USA12 F 15 - 18102:18:44.08+00:29:53.5700:24:46.75000:03:58.30001:14:06.54000:02:21.40000:44:57.310
971159Ryan FISHSpringville TN USA35 Clydesdale Under 40102:18:55.42+00:30:04.9100:14:46.67000:03:13.67001:09:48.05000:03:11.43000:47:55.600
98685Britt HAWKESLC UT USA03 M 25 - 29102:19:00.18+00:30:09.6700:20:17.44000:03:00.96001:04:58.33000:01:25.05000:49:18.400
99743Kurt LAIRDWest Jordan UT USA03 M 25 - 29102:19:00.58+00:30:10.0700:20:16.44000:04:14.95001:08:51.65000:01:58.89000:43:38.650
1001214Alan RENCHERUSA35 Clydesdale Under 40102:19:01.37+00:30:10.8600:21:28.36000:03:55.92000:44:38.16000:02:48.87001:06:10.060
101310Charlie SHAWSalt Lake City UT USA01 M 15 - 18102:19:07.43+00:30:16.9200:19:59.79000:03:15.12001:08:59.79000:01:34.61000:45:18.120
102871Terence RICHINSAmerican Fork UT USA05 M 35 - 39102:19:08.86+00:30:18.3500:16:58.53000:02:57.95001:09:16.71000:01:53.05000:48:02.620
103206Dave MALOUFProvo UT USA04 M 30 - 34102:19:14.29+00:30:23.7800:19:18.25000:02:20.97001:09:59.24000:01:07.92000:46:27.910
104825Lee PETERSONBoise ID USA05 M 35 - 39102:19:17.68+00:30:27.1700:18:05.65000:02:55.66001:09:23.45000:01:39.04000:47:13.880
105722William WRIGHTOrem UT USA03 M 25 - 29102:19:26.98+00:30:36.4700:18:40.05000:03:22.83001:09:32.11000:02:05.53000:45:46.460
106358Christian JOHNSONSalt Lake City UT USA04 M 30 - 34102:19:32.27+00:30:41.7600:21:02.61000:05:55.98001:02:50.67000:04:15.46000:45:27.550
1071224Ron PYNESSalt Lake City UT USAElite Men102:19:37.91+00:30:47.4000:16:27.24000:02:45.35001:06:11.86000:01:35.52000:52:37.940
1081242John JEPPSENLas Vegas NV USA36 Clydesdale 40 and Over102:19:39.75+00:30:49.2400:18:48.43000:02:12.93001:11:11.28000:47:27.110
109380 TEAM ROPERFrancis Roper Phil Snow Clyde Goodrich34 Mixed 138 and Over102:19:52.57+00:31:02.0600:28:43.62000:00:59.01001:07:22.25000:00:51.69000:41:56.000
110173 CRANNEY FARMSTerry Helms Doug Cranney Mark Hobson30 M Team 138 and Over102:19:54.29+00:31:03.7800:15:54.28000:01:01.23001:08:20.88000:00:45.88000:53:52.020
111830Mark MCKINNONSandy UT USA05 M 35 - 39102:19:59.61+00:31:09.1000:16:30.49000:02:58.56001:09:02.80000:01:47.27000:49:40.490
112337Scott NICHOLSLayton UT USA04 M 30 - 34102:20:28.34+00:31:37.8300:17:27.66000:01:39.38001:10:46.20000:01:20.36000:49:14.740
113664Michael NYMANOrem UT USA03 M 25 - 29102:20:40.21+00:31:49.7000:15:26.39000:02:48.38001:07:35.66000:54:49.780
114491Heather RAMSDELLTwin Falls ID USA15 F 30 - 34102:20:42.23+00:31:51.7200:16:33.00000:02:00.64001:12:26.03000:01:09.70000:48:32.860
115617Natalie PETERSENLehi UT USA16 F 35 - 39102:20:44.24+00:31:53.7300:17:15.68000:01:29.74001:10:53.65000:01:13.02000:49:52.150
116622Christine BRIMLEYsalt lake city UT USA16 F 35 - 39102:20:44.32+00:31:53.8100:17:37.46000:02:10.67001:10:52.73000:01:23.93000:48:39.530
11736Christopher MABEYBountiful UT USA01 M 15 - 18102:20:58.45+00:32:07.9400:17:25.50000:01:23.85001:10:50.46000:00:53.07000:50:25.570
1181067Shawn WARDStansbury Park UT USA06 M 40 - 44102:21:03.74+00:32:13.2300:19:25.62000:02:18.32001:06:29.69000:01:16.12000:51:33.990
119734Paul CALLISTERBOUNTIFUL UT USA03 M 25 - 29102:21:05.19+00:32:14.6800:16:58.18000:02:37.69001:10:18.20000:01:45.24000:49:25.880
1201241Dave HUNTERIrmo SC USA36 Clydesdale 40 and Over102:21:11.46+00:32:20.9500:14:56.98000:01:57.70001:07:00.84000:01:42.62000:55:33.320
121844John MILLERDraper UT USA05 M 35 - 39102:21:11.81+00:32:21.3000:16:02.31000:02:14.77001:07:47.13000:02:03.62000:53:03.980
122315Michael BECHTOLOrem UT USA04 M 30 - 34102:21:14.25+00:32:23.7400:18:57.05000:01:36.76001:02:40.27000:00:52.60000:57:07.570
123926Sidney WINTERSSalt Lake City UT USA35 Clydesdale Under 40102:21:16.11+00:32:25.6000:19:23.36000:04:09.11001:12:51.75000:01:30.56000:43:21.330
12458Mark THACKERAYSandy UT USA02 M 19 - 24102:21:26.22+00:32:35.7100:17:02.52000:02:13.49001:12:01.31000:01:18.29000:48:50.610
125959Tammie GUNNSpringville UT USA15 F 30 - 34102:21:33.25+00:32:42.7400:17:02.74000:01:36.38001:14:35.00000:01:13.65000:47:05.480
126331Shane BAKERBrigham UT USA04 M 30 - 34102:21:40.14+00:32:49.6300:18:54.96000:02:20.06001:05:44.12000:01:54.15000:52:46.850
127895Chris ONUFERDriggs ID USA05 M 35 - 39102:22:07.69+00:33:17.1800:19:36.97000:01:46.89001:08:31.47000:01:37.88000:50:34.480
128269Duane NEWMANPleasant Grove UT USA04 M 30 - 34102:22:15.43+00:33:24.9200:18:16.14000:03:16.53001:11:06.38000:02:22.77000:47:13.610
129548Kris EDWARDSCenterville UT USA15 F 30 - 34102:22:25.64+00:33:35.1300:14:48.52000:02:04.86001:08:28.13000:01:12.81000:55:51.320
130495Colette RAYMONDAurora CO USA15 F 30 - 34102:22:26.02+00:33:35.5100:18:32.39000:02:06.21001:10:16.63000:01:15.78000:50:15.010
1311057Jay MEYERSyracuse UT USA06 M 40 - 44102:22:31.28+00:33:40.7700:14:38.49000:03:02.62001:08:18.04000:01:43.98000:54:48.150
132630Jesse WASHBURNSouth Ogden UT USA03 M 25 - 29102:22:35.85+00:33:45.3400:22:08.94000:08:00.93001:03:42.95000:02:13.62000:46:29.410
133166 TEAM BAKERStanley Baker Heath Woodbury Jason Baker28 M Team 75 - 106102:22:40.36+00:33:49.8500:21:08.70000:04:11.56001:07:50.42000:00:48.57000:48:41.110
134903Carl VAN GILSSt. George UT USA05 M 35 - 39102:23:02.44+00:34:11.9300:19:30.30000:02:40.41001:07:58.40000:02:21.00000:50:32.330
135367Bill ARTHURSalt Lake City UT USA10 M 60 - 64102:23:16.15+00:34:25.6400:16:07.08000:02:41.13001:05:48.91000:01:52.27000:56:46.760
13657 TEAM JENSENRyan Jensen Jamie Hawks Mercer Owens28 M Team 75 - 106102:23:19.53+00:34:29.0200:21:13.74000:00:50.27001:12:40.97000:00:44.53000:47:50.020
137132Janna BURNHAMHighland UT USA13 F 19 - 24102:23:19.81+00:34:29.3000:17:22.90000:02:38.89001:11:27.37000:01:46.29000:50:04.360
138107Annie MERRILLSyracuse UT USA13 F 19 - 24102:23:21.53+00:34:31.0200:17:32.52000:04:22.54001:09:59.48000:01:57.03000:49:29.960
1391299Gary HENDERSONLindon UT USA08 M 50 - 54102:23:23.41+00:34:32.9000:16:13.93000:01:57.19001:11:16.85000:01:17.49000:52:37.950
140836Mark VOSTIDraper UT USA05 M 35 - 39102:23:24.28+00:34:33.7700:19:31.19000:03:12.69001:09:09.71000:51:30.690
141848Gary OGDENDraper UT USA05 M 35 - 39102:23:35.40+00:34:44.8900:19:20.26000:02:36.44001:04:03.28000:02:27.66000:55:07.760
142746Travis SOPPEUSA03 M 25 - 29102:23:39.80+00:34:49.2900:16:00.61000:02:23.44001:10:21.50000:01:10.16000:53:44.090
143353Ryan DANFORTHSaratoga Springs UT USA04 M 30 - 34102:23:43.48+00:34:52.9700:16:14.20000:02:14.85001:07:46.01000:01:24.67000:56:03.750
144648Tom BURNHAMTremonton UT USA03 M 25 - 29102:23:51.11+00:35:00.6000:22:03.10000:02:31.89001:11:30.51000:02:02.68000:45:42.930
145672Sam CHRISTENSENProvo UT USA03 M 25 - 29102:23:53.16+00:35:02.6500:16:44.41000:03:31.81001:09:59.30000:00:52.95000:52:44.690
14673Brent MANNINGOgden UT USA09 M 55 - 59102:23:58.30+00:35:07.7900:20:20.21000:03:04.48001:06:39.68000:01:49.90000:52:04.030
147642Matt RIGBYCedar City UT USA03 M 25 - 29102:24:02.41+00:35:11.9000:20:15.18000:03:27.15001:12:01.72000:01:58.10000:46:20.260
148847Rich WAGNERSalt Lake City UT USA05 M 35 - 39102:24:03.70+00:35:13.1900:17:47.95000:03:27.68001:07:58.78000:01:21.13000:53:28.160
149505Camille THOMASProvo UT USA15 F 30 - 34102:24:03.83+00:35:13.3200:18:42.54000:01:37.15001:09:05.92000:01:47.16000:52:51.060
1501181Jeff WILCOXJackson WY USA35 Clydesdale Under 40102:24:13.25+00:35:22.7400:18:57.92000:02:40.28001:07:13.44000:01:40.25000:53:41.360
151659Bryce VELLINGAOrem UT USA03 M 25 - 29102:24:20.06+00:35:29.5500:20:12.68000:02:15.21001:10:56.10000:01:09.83000:49:46.240
15298Kimberly WASHBURNSouth Ogden UT USA13 F 19 - 24102:24:31.39+00:35:40.8800:21:30.51000:02:01.42001:08:49.57000:01:44.37000:50:25.520
1531047Temp PATTERSONBurley ID USA06 M 40 - 44102:24:44.35+00:35:53.8400:18:24.19000:02:25.18001:06:33.01000:01:26.48000:55:55.490
154655Brooks HARBERTSONSalt Lake City UT USA03 M 25 - 29102:24:47.97+00:35:57.4600:19:05.50000:02:44.53001:07:16.59000:01:11.23000:54:30.120
155996Chris KENNEYDraper UT USA06 M 40 - 44102:24:53.28+00:36:02.7700:17:42.73000:02:05.95001:07:34.52000:01:12.00000:56:18.080
156554Karin CLARDYSalt Lake City UT USA15 F 30 - 34102:24:59.88+00:36:09.3700:17:35.33000:01:42.60001:14:49.19000:00:59.02000:49:53.740
157197 SLEEPY SLOTHSMarc Penrod Doug Witney Heidi Murray33 Mixed 107 - 137102:25:02.26+00:36:11.7500:16:16.57000:01:03.96001:17:31.99000:00:55.15000:49:14.590
1581283Matt NELSONSandy UT USA08 M 50 - 54102:25:03.09+00:36:12.5800:19:51.73000:02:53.40001:09:14.78000:02:50.31000:50:12.870
159887Robert REEVESOrem UT USA05 M 35 - 39102:25:09.68+00:36:19.1700:17:49.12000:03:48.79001:07:05.07000:01:49.26000:54:37.440
160803Andy COMPASSpanish Fork UT USA05 M 35 - 39102:25:15.53+00:36:25.0200:16:43.67000:02:24.29001:10:59.77000:01:31.38000:53:36.420
161807Jeff LAMBERTLehi UT USA05 M 35 - 39102:25:24.00+00:36:33.4900:19:03.92000:02:41.66001:08:31.99000:02:04.64000:53:01.790
162308Jason GALLOWAYNorth Salt Lake UT USA04 M 30 - 34102:25:25.61+00:36:35.1000:21:09.07000:02:28.45001:11:27.13000:02:01.23000:48:19.730
163172Clinton MURRAYSALT LAKE CITY UT USA04 M 30 - 34102:25:25.81+00:36:35.3000:18:11.00000:02:40.94001:04:46.69000:02:06.95000:57:40.230
16439Tim JOHNSONBurley ID USA01 M 15 - 18102:25:32.07+00:36:41.5600:22:13.12000:02:39.38001:14:28.97000:01:44.16000:44:26.440
1651193Kevin ROBSONDraper UT USA35 Clydesdale Under 40102:25:38.09+00:36:47.5800:19:59.16000:01:43.17001:06:59.27000:01:39.82000:55:16.670
166230David HARTLEHeber UT USA04 M 30 - 34102:25:45.00+00:36:54.4900:19:06.42000:02:59.59001:14:23.35000:01:39.21000:47:36.430
167902Brad MERTZSpringville UT USA05 M 35 - 39102:25:45.72+00:36:55.2100:18:42.36000:04:15.25001:10:56.75000:02:15.92000:49:35.440
168842Blaine YATESOrem UT USA05 M 35 - 39102:25:54.76+00:37:04.2500:17:57.42000:04:09.86001:10:00.96000:01:24.09000:52:22.430
1691136Scott LAURITZENTaylorsville UT USA35 Clydesdale Under 40102:26:07.39+00:37:16.8800:15:46.34000:01:58.20001:05:04.87000:02:46.47001:00:31.510
17081Randy STONEBurley ID USA09 M 55 - 59102:26:08.07+00:37:17.5600:17:55.32000:02:05.74001:13:30.67000:01:17.54000:51:18.800
1711089Ken MURDOCKDraper UT USA07 M 45 - 49102:26:08.15+00:37:17.6400:16:19.97000:05:26.15001:12:02.97000:04:01.67000:48:17.390
172864Gregory RANDALLSalt Lake City UT USA05 M 35 - 39102:26:09.78+00:37:19.2700:19:29.29000:04:11.14001:08:43.28000:01:27.34000:52:18.730
173338Brian SMITHCenterville UT USA04 M 30 - 34102:26:13.07+00:37:22.5600:22:15.14000:04:45.39001:11:02.95000:02:27.43000:45:42.160
17433Ryan SCOTTWest Jordan UT USA01 M 15 - 18102:26:21.66+00:37:31.1500:21:00.23000:05:15.48001:17:28.63000:00:48.31000:41:49.010
175910Patrick TOWLEDuPont WA USA05 M 35 - 39102:26:21.98+00:37:31.4700:16:23.66000:05:24.71001:10:56.02000:02:24.91000:51:12.680
176706Dave STOKOESalt Lake UT USA03 M 25 - 29102:26:28.57+00:37:38.0600:20:51.71000:03:20.24001:11:49.35000:02:00.97000:48:26.300
177670Roland KIRTONBountiful UT USA03 M 25 - 29102:26:32.38+00:37:41.8700:17:33.23000:02:44.70001:12:44.60000:02:18.84000:51:11.010
178275 TEAM DAVISDan White Bret Davis29 M Team 107 - 137102:26:34.27+00:37:43.7600:19:10.38000:03:36.29001:09:05.05000:00:51.62000:53:50.930
179567Angela LAVERYDraper UT USA16 F 35 - 39102:26:35.74+00:37:45.2300:18:37.26000:01:29.72001:14:09.48000:02:58.26000:49:21.020
18042Garrett FRAMEEagle ID USA01 M 15 - 18102:26:39.27+00:37:48.7600:16:12.45000:05:18.72001:15:57.30000:02:18.72000:46:52.080
181511Daniel HARPERProvo UT USA06 M 40 - 44102:26:39.82+00:37:49.3100:17:33.55000:03:29.05001:10:58.76000:02:49.49000:51:48.970
182699Ryan DOWDLESherwood OR USA05 M 35 - 39102:26:40.71+00:37:50.2000:11:35.84000:05:14.24001:13:03.70000:02:49.85000:53:57.080
183995Tom STOCKHAMHolladay UT USA06 M 40 - 44102:26:41.15+00:37:50.6400:16:14.37000:02:45.78001:08:19.67000:01:36.33000:57:45.000
184322Jeff SHERRODSalt Lake City UT USA04 M 30 - 34102:26:43.34+00:37:52.8300:20:05.97000:02:13.34001:05:35.29000:01:33.60000:57:15.140
18599Paige AUSTINProvo UT USA13 F 19 - 24102:26:48.24+00:37:57.7300:18:52.22000:04:20.01001:12:35.65000:01:20.66000:49:39.700
1861132Lance MILLERAmerican Fork UT USA04 M 30 - 34102:26:57.17+00:38:06.6600:19:28.48000:02:24.54001:07:41.70000:01:58.01000:55:24.440
1871287Corey LAMBERTSanta Clara UT USA02 M 19 - 24102:26:57.60+00:38:07.0900:19:12.95000:02:35.99001:12:17.83000:01:33.20000:51:17.630
188208Jason JAUSSISaratoga Springs UT USA04 M 30 - 34102:26:57.75+00:38:07.2400:19:30.74000:02:23.35001:07:41.25000:01:57.30000:55:25.110
189645Mitch PEBLEYForest Grove OR USA03 M 25 - 29102:26:59.53+00:38:09.0200:20:18.08000:03:11.41001:12:24.82000:01:32.75000:49:32.470
190397Rebecca DAVIDSONOrem UT USA14 F 25 - 29102:26:59.66+00:38:09.1500:18:52.98000:02:06.70001:14:48.35000:01:28.64000:49:42.990
191680David PETERSONSalt Lake City UT USA03 M 25 - 29102:26:59.84+00:38:09.3300:17:59.69000:02:18.97001:13:30.13000:01:40.67000:51:30.380
192229Aaron HARTLEPleasant Grove UT USA04 M 30 - 34102:27:07.85+00:38:17.3400:19:06.25000:02:59.96001:14:23.81000:01:38.50000:48:59.330
1934Blair SEARLEKaysville UT USAElite Men102:27:08.90+00:38:18.3900:20:30.00000:04:13.89001:13:46.34000:01:53.16000:46:45.510
194796 TEAM EHLERSBeth Molina Denise Alexander Kathy Ehlers25 W Team 107 - 137102:27:08.97+00:38:18.4600:14:28.79000:01:10.89001:14:49.03000:00:55.01000:55:45.250
195711Justin WOFFINDENLogan UT USA03 M 25 - 29102:27:12.42+00:38:21.9100:02:33.82000:05:44.67001:15:07.96000:01:52.38001:01:53.590
196793Kathie COLOSIMOSandy UT USA17 F 40 - 44102:27:17.19+00:38:26.6800:20:31.38000:02:03.30001:13:04.99000:01:10.40000:50:27.120
197482Kristen MICKELSONBountiful UT USA15 F 30 - 34102:27:18.82+00:38:28.3100:18:38.38000:02:49.41001:12:11.82000:02:01.71000:51:37.500
198167 JACKMANCHRISTENSENNate Jackman Ryan Christensen Tom Jackman28 M Team 75 - 106102:27:20.19+00:38:29.6800:14:37.66000:01:05.77001:11:06.60001:00:30.160
199356Jared STORRSSmithfield UT USA04 M 30 - 34102:27:23.05+00:38:32.5400:18:38.16000:03:56.87001:08:13.83000:02:18.65000:54:15.540
2001064Gregg GREERDraper UT USA06 M 40 - 44102:27:23.82+00:38:33.3100:20:20.31000:02:34.03001:08:13.09000:02:11.08000:54:05.310
2011149Andy AVERYorem UT USA35 Clydesdale Under 40102:27:29.48+00:38:38.9700:17:34.71000:01:48.95001:13:03.32000:01:44.99000:53:17.510
20286Kelsey VALENTINEKaysville UT USA13 F 19 - 24102:27:34.06+00:38:43.5500:21:39.33000:03:13.81001:15:31.25000:02:15.17000:44:54.500
203823Dwaine ALLGIERSalt Lake City UT USA05 M 35 - 39102:27:38.53+00:38:48.0200:24:05.93000:03:08.52001:04:13.68000:02:26.51000:53:43.890
204894Craig KOSTERSandy UT USA05 M 35 - 39102:27:46.24+00:38:55.7300:20:50.37000:03:51.15001:15:51.76000:02:43.75000:44:29.210
2051038Brad MCKINNONAmerican Fork UT USA06 M 40 - 44102:27:46.30+00:38:55.7900:15:33.58000:02:59.73001:16:11.57000:02:08.15000:50:53.270
20669David MCILRATHSpokane WA USA09 M 55 - 59102:27:50.20+00:38:59.6900:20:10.51000:03:09.02001:10:33.32000:02:12.88000:51:44.470
207787Annette DUNSONCenterville UT USA17 F 40 - 44102:27:57.71+00:39:07.2000:15:46.73000:01:51.64001:11:37.89000:01:21.90000:57:19.550
208783Lynette BORUPOrem UT USA17 F 40 - 44102:28:00.56+00:39:10.0500:17:23.87000:03:20.73001:12:53.57000:01:14.82000:53:07.570
209242Jesse FIGLESPocatello ID USA04 M 30 - 34102:28:09.90+00:39:19.3900:20:04.63000:04:04.49001:12:05.31000:02:17.66000:49:37.810
2101134Jeff HAREProvo UT USA35 Clydesdale Under 40102:28:26.14+00:39:35.6300:20:16.41000:04:01.01001:06:19.28000:02:14.55000:55:34.890
211251Ryan MARLOWIdaho Falls ID USA04 M 30 - 34102:28:27.05+00:39:36.5400:20:48.77000:03:28.91001:10:29.92000:01:59.29000:51:40.160
212485Holly DOMANAlpine UT USA15 F 30 - 34102:28:32.13+00:39:41.6200:18:30.28000:03:52.77001:15:56.20000:01:47.75000:48:25.130
2131046Glen ALLENBurley ID USA06 M 40 - 44102:28:35.23+00:39:44.7200:19:28.43000:01:45.43001:08:27.97000:01:28.86000:57:24.540
214231Jared WALKERKimberly ID USA04 M 30 - 34102:28:36.55+00:39:46.0400:17:47.59000:03:56.82001:11:07.43000:01:20.91000:54:23.800
215334Chris WRIGHTDraper UT USA04 M 30 - 34102:28:37.42+00:39:46.9100:17:39.42000:03:13.63001:10:14.69000:01:41.03000:55:48.650
216254Cory HANKSBurley ID USA04 M 30 - 34102:28:47.75+00:39:57.2400:18:54.14000:03:13.76001:15:13.42000:01:02.20000:50:24.230
2171281Richard GIBSONRoy UT USA08 M 50 - 54102:28:48.28+00:39:57.7700:22:18.66000:03:09.48001:09:16.62000:02:08.32000:51:55.200
218170 HIENS 57 SPECIALJon Searle Randy Tolman Kent Jensen29 M Team 107 - 137102:29:00.73+00:40:10.2200:23:59.15000:01:19.70001:12:06.47000:00:48.92000:50:46.490
219258Brad WITTUSENPleasant Grove UT USA04 M 30 - 34102:29:09.85+00:40:19.3400:20:44.37000:03:05.20001:08:43.09000:02:46.60000:53:50.590
2201024 TEAM SPITZERJames Spitzer, Jeff Kochevar,. Shawn Ferrin29 M Team 107 - 137102:29:10.95+00:40:20.4400:21:37.77000:01:04.41001:14:11.05000:00:47.98000:51:29.740
221747Chase BARNESUSA03 M 25 - 29102:29:16.54+00:40:26.0300:17:21.18000:02:22.46001:13:29.85000:01:30.10000:54:32.950
222729Mike FRANCISSpanish Fork UT USA03 M 25 - 29102:29:16.58+00:40:26.0700:17:22.65000:02:26.26001:11:37.80000:01:03.40000:56:46.470
223168 ORM-DAYTadd Ormond Rick Dayley Errol Ormond29 M Team 107 - 137102:29:16.90+00:40:26.3900:22:47.37000:02:08.62001:10:02.25000:01:03.67000:53:14.990
2241314Pete SHOLTENUSA08 M 50 - 54102:29:18.59+00:40:28.0800:18:59.53000:02:24.64001:07:46.32000:01:50.74000:58:17.360
2251291Fred MABEYBountiful UT USA08 M 50 - 54102:29:19.29+00:40:28.7800:15:09.45000:02:02.17001:10:56.58000:01:54.26000:59:16.830
226323Dave JORDANBlackfoot ID USA04 M 30 - 34102:29:22.65+00:40:32.1400:20:28.82000:04:07.54001:15:56.42000:02:11.02000:46:38.850
227799Michael SMITHLayton UT USA05 M 35 - 39102:29:25.27+00:40:34.7600:16:50.89000:02:50.17001:16:43.16000:01:46.29000:51:14.760
228277Jared MADSENslc UT USA04 M 30 - 34102:29:28.62+00:40:38.1100:18:06.87000:01:47.12001:06:47.55000:01:02.82001:01:44.260
2291011Todd SMITHHeyburn ID USA06 M 40 - 44102:29:40.72+00:40:50.2100:22:08.36000:03:26.90001:09:00.18000:02:50.42000:52:14.860
2301194Neil ETHERINGTONLogan UT USA35 Clydesdale Under 40102:29:42.38+00:40:51.8700:18:21.12000:02:16.67001:12:48.35000:01:39.34000:54:36.900
231860Miles MCCRACKENAlpine UT USA05 M 35 - 39102:29:42.54+00:40:52.0300:18:00.34000:03:21.29001:08:55.10000:02:18.97000:57:06.840
2321031Matt TAYLORLOGAN UT USA04 M 30 - 34102:29:44.42+00:40:53.9100:18:38.90000:03:08.66001:12:02.72000:01:32.15000:54:21.990
2331015Phillip GOOLDDraper UT USA06 M 40 - 44102:29:50.31+00:40:59.8000:18:57.89000:04:13.27001:12:59.28000:01:53.60000:51:46.270
2341094David WINNIESandy UT USA07 M 45 - 49102:29:52.11+00:41:01.6000:18:44.08000:02:39.00001:13:21.27000:02:26.08000:52:41.680
235671Clint KNECHTSandy UT USA03 M 25 - 29102:29:56.64+00:41:06.1300:22:52.36000:03:07.19001:06:44.34000:01:38.20000:55:34.550
236890Jeff CRANEVallejo CA USA05 M 35 - 39102:30:01.82+00:41:11.3100:18:17.37000:03:28.84001:15:25.34000:02:12.70000:50:37.570
2371195Joseph AYERSChula Vista CA USA35 Clydesdale Under 40102:30:07.26+00:41:16.7500:15:54.32000:03:04.37001:15:14.13000:01:01.47000:54:52.970
238262Brandon FISHOrem UT USA04 M 30 - 34102:30:07.40+00:41:16.8900:21:11.07000:03:00.82001:10:48.58000:01:24.59000:53:42.340
239224Tom MABEYMurray UT USA04 M 30 - 34102:30:12.66+00:41:22.1500:22:08.47000:05:00.89001:13:47.18000:49:16.120
240944Mary ABSOLONLander WY USA18 F 45 -49102:30:17.12+00:41:26.6100:16:02.22000:02:32.59001:15:19.41000:02:07.86000:54:15.040
241786Merrilee MANWARINGSpringville UT USA17 F 40 - 44102:30:26.90+00:41:36.3900:20:58.19000:03:48.49001:14:24.96000:01:56.39000:49:18.870
242307Chad WADDOUPSFruit Heights UT USA04 M 30 - 34102:30:32.96+00:41:42.4500:19:21.24000:03:55.85001:10:58.14000:02:03.03000:54:14.700
243907Gordon GARRETTLayton UT USA05 M 35 - 39102:30:43.37+00:41:52.8600:21:15.94000:03:00.13001:12:05.76000:01:49.24000:52:32.300
244286Matthew THURLINGEvergreen CO USA04 M 30 - 34102:30:44.87+00:41:54.3600:15:20.83000:03:23.34001:12:47.63000:02:13.27000:56:59.800
245209Dave DRAPERcolorado springs CO USA04 M 30 - 34102:30:45.25+00:41:54.7400:20:06.36000:04:34.15001:11:10.69000:01:54.75000:52:59.300
246913James TAYLORSalt Lake City UT USA05 M 35 - 39102:30:51.21+00:42:00.7000:19:45.52000:03:40.09001:10:57.45000:02:26.95000:54:01.200
247882Francis DOLCESalt Lake City UT USA05 M 35 - 39102:31:00.27+00:42:09.7600:19:43.76000:03:47.83001:10:15.70000:02:06.86000:55:06.120
248292Timothy ELISONSouth Jordan UT USA04 M 30 - 34102:31:04.35+00:42:13.8400:17:37.57000:03:22.64001:11:22.57000:01:27.25000:57:14.320
249744Courtney JOHNSONHighland UT USA03 M 25 - 29102:31:17.31+00:42:26.8000:18:48.08000:03:39.49001:13:13.09000:01:57.80000:53:38.850
250572Sarah COMPASSpanish Fork UT USA16 F 35 - 39102:31:23.07+00:42:32.5600:18:52.08000:02:47.80001:16:18.40000:01:23.80000:52:00.990
251238Charlie KOOYMANMidvale UT USA04 M 30 - 34102:31:25.91+00:42:35.4000:24:12.02000:05:13.98001:07:38.95000:03:02.23000:51:18.730
25247Rob SCHARMANTaylorsville UT USA02 M 19 - 24102:31:29.21+00:42:38.7000:20:58.62000:02:59.45001:13:53.53000:00:43.65000:52:53.960
2531002Mark DUBOISSandy UT USA06 M 40 - 44102:31:32.24+00:42:41.7300:19:22.93000:05:07.77001:08:19.41000:03:29.22000:55:12.910
254321Chris CHRISTIANEAGLE MT UT USA04 M 30 - 34102:31:44.61+00:42:54.1000:19:45.22000:02:33.24001:11:20.96000:01:34.03000:56:31.160
255636Chad BROOKSShelley ID USA03 M 25 - 29102:31:48.05+00:42:57.5400:21:48.89000:02:39.66001:14:38.46000:00:51.82000:51:49.220
2561246Cory BORUPOrem UT USA36 Clydesdale 40 and Over102:31:53.90+00:43:03.3900:18:33.54000:04:30.00001:08:20.91000:02:11.81000:58:17.640
257756Shirley WILLIAMSONBoise ID USA17 F 40 - 44102:31:54.40+00:43:03.8900:17:20.72000:02:42.38001:10:11.61000:01:22.01001:00:17.680
258544Melanie KNOWLESDeclo ID USA15 F 30 - 34102:31:57.70+00:43:07.1900:19:54.96000:02:57.77001:12:14.51000:01:01.66000:55:48.800
259112Melissa KEMPProvo UT USA13 F 19 - 24102:31:59.44+00:43:08.9300:14:52.45000:02:45.98001:15:50.71000:01:25.82000:57:04.480
260741Mark CHAMBERLAINWest Bountiful UT USA03 M 25 - 29102:32:01.00+00:43:10.4900:20:12.00000:02:50.58001:12:45.99000:01:39.52000:54:32.910
2611269Michael DEWAALSalt Lake City UT USA08 M 50 - 54102:32:10.06+00:43:19.5500:19:51.01000:03:27.90001:12:49.64000:01:28.67000:54:32.840
262809Jon ANDRESEN JRThornton CO USA05 M 35 - 39102:32:12.41+00:43:21.9000:17:48.34000:02:39.99001:13:42.83000:01:35.07000:56:26.180
263291Chris BIDDULPHLayton UT USA04 M 30 - 34102:32:13.50+00:43:22.9900:16:46.15000:03:12.20001:12:06.06000:01:27.11000:58:41.980
264446Debbie BERGJackson WY USA14 F 25 - 29102:32:19.09+00:43:28.5800:20:09.72000:02:44.31001:15:31.92000:01:07.66000:52:45.480
265821Matt WALDENjackson hole WY USA05 M 35 - 39102:32:22.52+00:43:32.0100:16:54.57000:01:45.44001:09:45.25000:01:44.36001:02:12.900
2661308Guy REDDERburley ID USA08 M 50 - 54102:32:24.30+00:43:33.7900:21:44.85000:03:05.74001:14:23.07000:01:10.49000:52:00.150
267633Weston ARNELLfarmington UT USA03 M 25 - 29102:32:25.48+00:43:34.9700:18:57.54000:01:31.16001:12:08.49000:01:14.34000:58:33.950
268629Stephen HUNTFarmington UT USA03 M 25 - 29102:32:29.03+00:43:38.5200:17:19.02000:01:42.91001:10:44.03000:01:33.33001:01:09.740
2691251Russell LARSENNorth Salt Lake UT USA06 M 40 - 44102:32:29.48+00:43:38.9700:19:30.63000:02:16.08001:12:15.53000:01:26.01000:57:01.230
270899Tom FREDRICKSLC UT USA35 Clydesdale Under 40102:32:31.25+00:43:40.7400:21:47.84000:02:38.76001:09:48.85000:02:12.47000:56:03.330
271872Michael FOESSSaratoga Springs UT USA05 M 35 - 39102:32:38.86+00:43:48.3500:19:06.16000:02:55.74001:07:50.38000:02:05.75001:00:40.830
272305Daniel SHURTZSandy UT USA04 M 30 - 34102:32:40.08+00:43:49.5700:22:13.40000:04:31.44001:10:55.02000:03:10.19000:51:50.030
273336Gary WELLSLehi UT USA04 M 30 - 34102:32:40.48+00:43:49.9700:21:03.57000:04:43.42001:12:19.38000:01:27.26000:53:06.850
274522Shannon DRISCOLLSahuarita AZ USA15 F 30 - 34102:32:42.42+00:43:51.9100:16:31.30000:02:03.92001:12:16.83000:01:27.67001:00:22.700
2751221Chris ROMNEYSalt Lake City UT USA36 Clydesdale 40 and Over102:32:47.69+00:43:57.1800:20:39.31000:03:28.70001:05:22.62000:04:34.58000:58:42.480
276504Katie HAFENMidway UT USA15 F 30 - 34102:32:49.08+00:43:58.5700:19:50.87000:04:35.11001:18:43.12000:02:41.59000:46:58.390
277797Rob PODGORNEYIdaho Falls ID USA05 M 35 - 39102:32:51.81+00:44:01.3000:19:04.86000:03:36.61001:09:43.14000:02:00.55000:58:26.650
2781292Mark HOWARDSandy UT USA08 M 50 - 54102:32:57.00+00:44:06.4900:19:50.62000:03:03.73001:15:12.06000:01:44.45000:53:06.140
279289Jason SORENSENLayton UT USA04 M 30 - 34102:32:57.48+00:44:06.9700:20:22.80000:03:22.39001:10:14.05000:01:52.70000:57:05.540
280908Rob THOMASKaysville UT USA05 M 35 - 39102:32:58.39+00:44:07.8800:20:36.65000:04:19.91001:11:03.91000:02:33.75000:54:24.170
2811059Matthew CHENEYPetersboro UT USA06 M 40 - 44102:33:01.33+00:44:10.8200:20:35.70000:04:31.92001:15:59.08000:02:29.10000:49:25.530
282750Barbara SCHLICHTELayton UT USA17 F 40 - 44102:33:02.77+00:44:12.2600:19:59.92000:03:13.16001:15:08.76000:01:52.85000:52:48.080
283207John WIRTHLINHolladay UT USA04 M 30 - 34102:33:15.79+00:44:25.2800:18:30.51000:03:03.16001:13:07.60000:01:41.09000:56:53.430
284854Steven BAINSandy UT USA05 M 35 - 39102:33:16.31+00:44:25.8000:18:38.65000:03:46.89001:14:17.04000:01:58.99000:54:34.740
2851180Paul FREDRICKSalt Lake City UT USA35 Clydesdale Under 40102:33:23.24+00:44:32.7300:19:22.85000:05:21.20001:13:17.59000:02:22.80000:52:58.800
286888Scott STEINsalt lake city UT USA05 M 35 - 39102:33:23.51+00:44:33.0000:18:12.60000:03:32.02001:14:26.21000:02:27.68000:54:45.000
287563Jennica HIRRLINGERrexburg ID USA15 F 30 - 34102:33:26.12+00:44:35.6100:17:46.37000:03:16.85001:19:24.16000:01:23.42000:51:35.320
2881027 TEAM PINNOCKBlake Emmit Marcus Pinnock27 M Team Under 75102:33:45.33+00:44:54.8200:18:16.69000:01:02.05001:16:40.86000:00:50.98000:56:54.750
2891090Roy BAKKERStansbury park UT USA07 M 45 - 49102:33:50.35+00:44:59.8400:21:17.97000:02:08.71001:11:01.44000:00:54.93000:58:27.300
290460Melissa ZABELBoise ID USA14 F 25 - 29102:33:52.95+00:45:02.4400:18:10.94000:02:53.60001:15:44.38000:01:10.98000:55:53.050
291181 IDAHOANS AT HEARTSteve Petersen Kelsey Petersen Jena Turman31 Mixed Under 75102:33:53.49+00:45:02.9800:16:41.32000:01:03.89001:19:23.96000:00:59.41000:55:44.910
292533Liz ONUFERDriggs ID USA15 F 30 - 34102:33:53.83+00:45:03.3200:19:52.80000:02:02.53001:15:17.72000:01:24.79000:55:15.990
2931113Timothy HARRISBurley ID USA07 M 45 - 49102:33:55.73+00:45:05.2200:16:53.62000:03:40.99001:13:32.26000:01:46.06000:58:02.800
294693David TAYLORWoods Cross UT USA03 M 25 - 29102:33:56.90+00:45:06.3900:22:34.70000:03:30.23001:09:25.71000:03:15.53000:55:10.730
295889Greg PARKINSDraper UT USA05 M 35 - 39102:34:00.38+00:45:09.8700:22:10.84000:03:42.83001:12:53.69000:01:37.05000:53:35.970
296191 MOJO WORKINDebi Craner Gina Bosco Stan Siewert32 Mixed 75 - 106102:34:01.90+00:45:11.3900:20:26.72000:01:21.41001:10:21.01000:01:03.74001:00:49.020
2973Steve YOUNGTaylorsville UT USA07 M 45 - 49102:34:02.47+00:45:11.9600:18:14.79000:03:25.58001:12:54.03000:01:48.69000:57:39.380
298577Jeff NELSONKaysville UT USA02 M 19 - 24102:34:06.19+00:45:15.6800:19:35.29000:03:17.34001:16:43.57000:02:23.43000:52:06.560
299542Gina DARRINGTONDeclo ID USA15 F 30 - 34102:34:06.46+00:45:15.9500:16:13.79000:02:25.84001:14:36.82000:01:30.42000:59:19.590
300261Cris PAYNESouth Jordan UT USA04 M 30 - 34102:34:07.30+00:45:16.7900:22:09.59000:02:30.18001:08:28.93000:01:48.51000:59:10.090
3011179Jared FREDRICKSalt Lake City UT USA35 Clydesdale Under 40102:34:08.58+00:45:18.0700:20:26.53000:03:31.01001:08:45.67000:02:46.86000:58:38.510
302769Traci HEINERProvo UT USA17 F 40 - 44102:34:14.45+00:45:23.9400:18:37.29000:03:17.43001:13:16.93000:02:03.17000:56:59.630
30325Brian JOLLEYSalt Lake City UT USA01 M 15 - 18102:34:15.05+00:45:24.5400:24:34.17000:03:09.86001:13:20.61000:01:08.08000:52:02.330
304171 DIVERSIFIEDKelly Huddleston Chris Robbins Karl Rupredht29 M Team 107 - 137102:34:20.38+00:45:29.8700:21:08.33000:01:21.29001:13:26.80000:00:47.16000:57:36.800
3051060Brent THOMPSONLogandale NV USA06 M 40 - 44102:34:27.56+00:45:37.0500:27:05.90000:02:54.10001:07:12.60000:01:31.72000:55:43.240
306999Scott GLENNStansbury Park UT USA06 M 40 - 44102:34:40.94+00:45:50.4300:19:31.75000:02:46.03001:10:10.73000:02:17.72000:59:54.710
307453Kristin TREVINOPaul ID USA14 F 25 - 29102:34:41.37+00:45:50.8600:21:14.20000:02:09.04001:13:47.03000:01:59.23000:55:31.870
3081197Jacob ANDERSENSandy UT USA35 Clydesdale Under 40102:34:45.70+00:45:55.1900:22:34.68000:04:13.87001:04:14.70001:03:42.450
309213Tyler JENSENCenterville UT USA04 M 30 - 34102:34:48.14+00:45:57.6300:18:16.72000:03:17.81001:10:38.26000:02:11.90001:00:23.450
310806Ron HAHNKimberly ID USA05 M 35 - 39102:34:51.52+00:46:01.0100:19:43.66000:02:36.73001:18:30.19000:01:12.57000:52:48.370
311177 DADDY-DAUGHTER-DATESteve Huish Rinpoche Price-Huish31 Mixed Under 75102:34:58.68+00:46:08.1700:24:40.55000:03:43.58001:18:54.46000:01:00.32000:46:39.770
312880Samuel SMITHEagle ID USA05 M 35 - 39102:35:01.42+00:46:10.9100:18:42.68000:05:11.76001:17:48.23000:02:07.39000:51:11.360
313832Frank KELLYWOODSalt Lake City UT USA05 M 35 - 39102:35:04.65+00:46:14.1400:21:28.12000:06:34.31001:17:39.13000:01:54.96000:47:28.130
314922Mike RILEYSandy UT USA05 M 35 - 39102:35:07.22+00:46:16.7100:20:24.30000:03:00.90001:13:17.86000:02:07.05000:56:17.110
315119Meladee KIRTONBountiful UT USA13 F 19 - 24102:35:07.42+00:46:16.9100:17:12.92000:02:53.63001:19:30.04000:01:35.46000:53:55.370
316690Brandon WOODCenterville UT USA03 M 25 - 29102:35:07.88+00:46:17.3700:19:49.05000:04:39.99001:14:13.65000:01:53.82000:54:31.370
317147Liz BRICEBurley ID USA13 F 19 - 24102:35:07.95+00:46:17.4400:20:29.86000:02:34.60001:17:50.96000:00:55.57000:53:16.960
318981Jeri MABEYBountiful UT USA19 F 50 - 54102:35:13.93+00:46:23.4200:17:40.92000:02:33.42001:13:57.52000:01:35.15000:59:26.920
319458Bridget THACKERAYSandy UT USA14 F 25 - 29102:35:17.08+00:46:26.5700:18:59.46000:01:59.28001:13:23.92000:01:26.02000:59:28.400
3201213Marshall CLARKHolladay UT USA35 Clydesdale Under 40102:35:25.79+00:46:35.2800:18:36.35000:03:12.10001:11:47.91000:02:13.54000:59:35.890
3211237Kent GUNNELLBurley ID USA36 Clydesdale 40 and Over102:35:30.53+00:46:40.0200:22:18.29000:03:46.88001:06:26.25000:02:09.77001:00:49.340
3221190John NEBEKERSandy UT USA35 Clydesdale Under 40102:35:31.88+00:46:41.3700:19:23.47000:04:23.29001:05:41.82000:01:51.86001:04:11.440
3231028Michael SHELTONPleasant Grove UT USA06 M 40 - 44102:35:32.20+00:46:41.6900:22:45.83000:03:40.34001:14:18.03000:02:26.28000:52:21.720
324866Wayne NELSONSandy UT USA35 Clydesdale Under 40102:35:33.91+00:46:43.4000:17:32.12000:04:13.97001:07:51.38000:02:21.43001:03:35.010
325921Thomas TARBETDraper UT USA05 M 35 - 39102:35:51.66+00:47:01.1500:17:46.98000:02:58.79001:18:23.46000:01:55.06000:54:47.370
326219Jedd SMITHBoise ID USA04 M 30 - 34102:35:56.41+00:47:05.9000:19:34.11000:05:22.18001:12:13.97000:02:04.39000:56:41.760
327665John MANNINGOgden UT USA03 M 25 - 29102:35:57.64+00:47:07.1300:18:05.99000:03:16.38001:11:38.74000:01:41.48001:01:15.050
328613Melisa BROTHERSONSpringville UT USA16 F 35 - 39102:35:59.72+00:47:09.2100:20:44.07000:03:32.22001:18:59.27000:01:16.86000:51:27.300
329998Ian SPENCERRiverton UT USA06 M 40 - 44102:36:07.20+00:47:16.6900:19:02.38000:05:07.89001:18:35.16000:03:33.70000:49:48.070
330562Lisa SERIOBountiful UT USA15 F 30 - 34102:36:13.56+00:47:23.0500:18:50.39000:03:40.92001:18:48.45000:02:38.34000:52:15.460
3311169Brian GARLOCKkaysville UT USA35 Clydesdale Under 40102:36:20.18+00:47:29.6700:16:11.10000:01:35.71001:12:13.54000:02:05.42001:04:14.410
332500Erin JENSENHighlands Ranch CO USA15 F 30 - 34102:36:25.32+00:47:34.8100:21:11.22000:03:20.31001:17:11.20000:01:37.72000:53:04.870
3331240Douglas FARRERSalt lake City UT USA36 Clydesdale 40 and Over102:36:26.43+00:47:35.9200:19:57.69000:03:39.83001:12:12.37000:02:39.79000:57:56.750
334185 TEAM ROCKCody Rock Heidi Harward Jennifer Rock32 Mixed 75 - 106102:36:30.39+00:47:39.8800:19:01.46000:01:20.19001:24:13.74000:00:52.27000:51:02.730
335456Emily NEILSONkaysville UT USA14 F 25 - 29102:36:30.73+00:47:40.2200:19:49.54000:04:35.19001:19:34.26000:03:26.40000:49:05.340
336346Eric HODSONAmerican Fork UT USA04 M 30 - 34102:36:38.42+00:47:47.9100:17:09.61000:03:48.22001:14:46.68000:01:54.63000:58:59.280
337765Janet SMILEYDraper UT USA17 F 40 - 44102:36:40.22+00:47:49.7100:20:54.73000:04:19.33001:12:20.73000:02:52.24000:56:13.190
338829Nathan JOHNSONWest Jordan UT USA05 M 35 - 39102:36:40.72+00:47:50.2100:19:26.12000:02:32.96001:13:33.23000:02:05.05000:59:03.360
339318Matt COOKBountiful UT USA04 M 30 - 34102:36:44.72+00:47:54.2100:25:24.46000:04:57.10001:10:28.97000:01:45.44000:54:08.750
340290Joshua AIKENSSt. George UT USA04 M 30 - 34102:36:46.44+00:47:55.9300:18:58.99000:03:47.14001:10:00.37000:01:43.58001:02:16.360
3411041Mark ROYLANCEFruit Heights UT USA06 M 40 - 44102:36:50.89+00:48:00.3800:20:07.91000:04:53.14001:12:33.11000:02:45.07000:56:31.660
342257Samuel GARNERRupert ID USA04 M 30 - 34102:36:54.76+00:48:04.2500:21:38.84000:03:16.09001:14:16.38000:00:51.28000:56:52.170
343327Nathan BERGJackson WY USA04 M 30 - 34102:36:55.88+00:48:05.3700:20:22.06000:04:05.36001:12:30.29000:00:53.05000:59:05.120
344863David GARDNERChubbuck ID USA05 M 35 - 39102:36:56.81+00:48:06.3000:19:21.48000:03:49.95001:15:20.23000:03:18.87000:55:06.280
3451115Ronald LAUGHLINOregon City OR USA07 M 45 - 49102:37:01.16+00:48:10.6500:16:18.68000:02:41.90001:15:00.94001:02:59.640
346674Jeff CHENEYLehi UT USA03 M 25 - 29102:37:09.43+00:48:18.9200:22:27.81000:03:28.94001:09:30.91000:01:20.22001:00:21.550
3471294Alan HUNTERburley ID USA08 M 50 - 54102:37:12.42+00:48:21.9100:17:11.07000:02:48.55001:10:27.81000:03:04.50001:03:40.490
3481285Lee SPORLEDERNorth Salt Lake UT USA08 M 50 - 54102:37:12.94+00:48:22.4300:22:39.42000:04:08.55001:04:27.03000:02:39.71001:03:18.230
349623Heather RENCHERUSA16 F 35 - 39102:37:24.89+00:48:34.3800:18:32.69000:03:03.58001:14:33.37000:01:43.37000:59:31.880
3501096Marden PLANTBurley ID USA07 M 45 - 49102:37:24.91+00:48:34.4000:18:37.63000:02:34.07001:12:24.93000:01:53.06001:01:55.220
35166Tyler NICHOLSONdraper UT USA02 M 19 - 24102:37:27.73+00:48:37.2200:19:54.69000:04:15.46001:17:12.64000:04:02.16000:52:02.780
3521217Tracy BOUGHNWEST JORDAN UT USA36 Clydesdale 40 and Over102:37:29.73+00:48:39.2200:16:30.19000:03:04.22001:11:24.15000:03:23.32001:03:07.850
3531141Eric FILLMOREEagle ID USA35 Clydesdale Under 40102:37:39.30+00:48:48.7900:22:28.46000:03:19.47001:08:25.46000:01:53.57001:01:32.340
354256Lonnie AHLQUISTTwin Falls ID USA04 M 30 - 34102:37:41.11+00:48:50.6000:20:09.94000:02:39.91001:17:02.81000:01:59.84000:55:48.610
3551126Clayton CHENEYColumbia MO USA07 M 45 - 49102:37:44.66+00:48:54.1500:19:21.87000:04:50.70001:17:46.66000:03:08.54000:52:36.890
356808Nate ALDERSalt Lake City UT USA06 M 40 - 44102:37:45.55+00:48:55.0400:09:14.07000:04:05.39001:16:57.20000:03:17.34001:04:11.550
357312Will THACKERAYholladay UT USA04 M 30 - 34102:37:50.60+00:49:00.0900:18:22.03000:15:02.580
358138Linsey ABOBURLEY ID USA13 F 19 - 24102:38:10.49+00:49:19.9800:18:06.86000:03:02.13001:20:08.72000:01:42.28000:55:10.500
359268Roger BREWERfiler ID USAElite Men102:38:12.86+00:49:22.3500:18:11.14000:02:01.83001:16:20.62000:01:21.33001:00:17.940
360596Becky LEWISJackson WY USA16 F 35 - 39102:38:13.29+00:49:22.7800:21:42.67000:03:46.46001:18:38.97000:02:16.09000:51:49.100
361702David BONAMurray UT USA03 M 25 - 29102:38:13.57+00:49:23.0600:18:42.36000:01:51.21001:11:41.20000:01:48.31001:04:10.490
362513Nancy LOUTHANOmaha NE USA15 F 30 - 34102:38:18.09+00:49:27.5800:19:44.23000:02:37.11001:21:57.38000:01:01.59000:52:57.780
363764Carri LUSEPark City UT USA17 F 40 - 44102:38:20.63+00:49:30.1200:16:28.27000:03:00.92001:15:32.03000:02:17.65001:01:01.760
364712Justin MITCHELLRupert ID USA03 M 25 - 29102:38:23.57+00:49:33.0600:20:45.58000:03:34.31001:07:53.24000:02:04.02001:04:06.420
365148Ashley MAJOSKEYsalt lake city UT USA13 F 19 - 24102:38:23.96+00:49:33.4500:18:45.25000:03:59.23001:17:59.90000:01:26.81000:56:12.770
366822Bryce DOMANAlpine UT USA05 M 35 - 39102:38:24.76+00:49:34.2500:21:57.98000:04:13.80001:18:07.78000:01:23.20000:52:42.000
3671131Bob WRIGHT, JR.Draper UT USA07 M 45 - 49102:38:28.33+00:49:37.8200:17:55.78000:03:52.12001:16:23.32000:01:52.73000:58:24.380
368559Tiffany LUNDFoster City CA USA15 F 30 - 34102:38:30.79+00:49:40.2800:19:13.93000:03:42.55001:16:36.87000:02:58.31000:55:59.130
369916Brian TEWAuburn WA USA05 M 35 - 39102:38:33.25+00:49:42.7400:17:02.19000:03:49.38001:16:38.47000:01:48.14000:59:15.070
370853Scott DRIGGSSouth Jordan UT USA05 M 35 - 39102:38:37.89+00:49:47.3800:24:47.41000:03:55.51001:13:05.51000:02:12.82000:54:36.640
371893Jayson BAKERWest Point UT USA05 M 35 - 39102:38:38.18+00:49:47.6700:20:42.04000:05:20.94001:11:56.61000:03:42.38000:56:56.210
372250Will SCHWARZENBACHSalt Lake City UT USA04 M 30 - 34102:38:42.59+00:49:52.0800:17:52.97000:02:53.40001:12:19.18000:01:34.07001:04:02.970
3731313Merlin CORBINUSA08 M 50 - 54102:38:42.84+00:49:52.3300:22:27.58000:03:17.44001:15:35.90000:03:20.64000:54:01.280
374551Jenilyn HANSENProvo UT USA15 F 30 - 34102:38:47.47+00:49:56.9600:20:34.05000:03:31.64001:17:43.89000:01:42.90000:55:14.990
375486Anne TIMPANYRigby ID USA15 F 30 - 34102:38:47.50+00:49:56.9900:18:53.75000:02:30.48001:19:09.26000:02:09.30000:56:04.710
3761229Gary MCEWEN IIGrangeville ID USA36 Clydesdale 40 and Over102:38:50.15+00:49:59.6400:17:12.30000:02:43.99001:16:53.52000:02:14.15000:59:46.190
3771073Wayne STEWARTUSA36 Clydesdale 40 and Over102:38:51.66+00:50:01.1500:18:06.57000:03:00.45001:13:24.46001:04:20.180
378325Paul GEORGEBountiful UT USA04 M 30 - 34102:38:59.22+00:50:08.7100:25:00.69000:03:50.78001:14:49.18000:02:10.33000:53:08.240
3791172David BLACKBURNEagle Mtn UT USA35 Clydesdale Under 40102:38:59.90+00:50:09.3900:16:45.26000:03:25.53001:10:17.75000:02:23.98001:06:07.380
3801279James HAGGARTstansbury UT USA08 M 50 - 54102:39:07.40+00:50:16.8900:18:11.46000:03:05.48001:14:46.31000:02:07.17001:00:56.980
381361Ken STEPHENSRupert ID USA10 M 60 - 64102:39:11.51+00:50:21.0000:17:51.33000:02:20.21001:11:05.27000:01:31.66001:06:23.040
382873Eric DALLINGHerriman UT USA05 M 35 - 39102:39:11.57+00:50:21.0600:18:24.71000:03:33.84001:10:49.85000:02:52.04001:03:31.130
3831258Shawna RASMUSSENSalt Lake City UT USA37 Athena102:39:15.82+00:50:25.3100:20:40.80000:02:59.40001:15:18.43000:01:50.27000:58:26.920
384176 M&MMichelle Peterson Monte D Peterson31 Mixed Under 75102:39:22.00+00:50:31.4900:20:57.29000:05:05.70001:17:25.41000:00:54.12000:54:59.480
3851252Anna PODGORNEYIdaho Falls ID USA15 F 30 - 34102:39:22.92+00:50:32.4100:19:23.31000:03:04.44001:11:23.71000:01:54.30001:03:37.160
386970Marylyne WITNEYSpringville UT USA19 F 50 - 54102:39:26.19+00:50:35.6800:20:21.33000:02:41.64001:12:55.94000:02:09.68001:01:17.600
387717Ryan POLANDSLC UT USA03 M 25 - 29102:39:33.24+00:50:42.7300:18:44.22000:02:57.73001:17:55.23000:01:37.08000:58:18.980
388180 J.A.K.Jessica Cone Kira Gay Richards Arthur Morris31 Mixed Under 75102:39:33.73+00:50:43.2200:23:15.56000:01:04.68001:05:39.47000:00:52.57001:08:41.450
3891284Brad NORDGRENSalt Lake City UT USA08 M 50 - 54102:39:34.50+00:50:43.9900:20:25.07000:03:48.59001:15:58.21000:01:57.66000:57:24.970
390476Meri BRUINWest Jordan UT USA15 F 30 - 34102:39:38.61+00:50:48.1000:19:09.32000:02:01.85001:18:05.19000:02:21.98000:58:00.270
391646Jon SCHMALZwest jordan UT USA03 M 25 - 29102:39:42.81+00:50:52.3000:21:17.25000:04:14.99001:13:17.18000:01:41.57000:59:11.820
392413Kim EVANSChubbuck ID USA14 F 25 - 29102:39:45.54+00:50:55.0300:18:38.99000:03:45.72001:14:55.50000:01:20.75001:01:04.580
393927Trent WALKERIdaho Falls ID USA05 M 35 - 39102:39:47.79+00:50:57.2800:17:44.43000:05:06.97001:10:08.86000:02:03.35001:04:44.180
394223Romney BLACKSalt Lake City UT USA04 M 30 - 34102:39:48.19+00:50:57.6800:22:07.97000:06:06.42001:15:58.14000:02:24.51000:53:11.150
395204Matthew FLYGAREBurley ID USA04 M 30 - 34102:39:48.54+00:50:58.0300:21:22.09000:02:39.23001:08:48.89000:02:00.34001:04:57.990
396297Wayne GRAHAMSpanish Fork UT USA04 M 30 - 34102:39:48.70+00:50:58.1900:23:45.36000:03:09.70001:15:29.22000:01:52.75000:55:31.670
397800Landon COLEMANNorth Salt Lake UT USA05 M 35 - 39102:39:48.81+00:50:58.3000:18:18.32000:02:33.96001:18:44.76000:02:01.89000:58:09.880
398767Heather GOOLDDraper UT USA17 F 40 - 44102:39:50.29+00:50:59.7800:18:30.37000:04:04.57001:19:12.08000:02:16.23000:55:47.040
399608Kathleen MICHAELISLehi UT USA16 F 35 - 39102:39:56.99+00:51:06.4800:16:35.74000:03:06.44001:20:51.40000:01:56.45000:57:26.960
400549Karen MCDONALDAmerican Fork UT USA16 F 35 - 39102:39:57.27+00:51:06.7600:18:47.2000:02:47.85001:19:12.38000:01:32.53000:57:37.310
4011054Matthew NOORDASalt Lake CIty UT USA06 M 40 - 44102:39:58.20+00:51:07.6900:20:25.06000:03:00.14001:15:14.15000:02:25.68000:58:53.170
402989Susan GUNDYUSA19 F 50 - 54102:39:59.94+00:51:09.4300:19:35.45000:03:26.59001:15:41.33000:01:53.68000:59:22.890
40346Nathan STEVENSslc UT USA02 M 19 - 24102:40:06.26+00:51:15.7500:20:00.19000:05:05.31001:17:24.87000:02:02.58000:55:33.310
404403Jamie DENNINGMeridian ID USA14 F 25 - 29102:40:13.27+00:51:22.7600:21:16.58000:02:53.61001:18:21.18000:01:35.69000:56:06.210
405644Matt PEBLEYBountiful UT USA03 M 25 - 29102:40:13.37+00:51:22.8600:24:24.41000:04:04.74001:12:31.80000:02:19.14000:56:53.280
4061218Robert SUAREZWest Jordan UT USA36 Clydesdale 40 and Over102:40:13.67+00:51:23.1600:20:34.55000:04:43.92001:10:40.12000:02:55.83001:01:19.250
40763Andrew COATSProvo UT USA02 M 19 - 24102:40:14.12+00:51:23.6100:26:18.30000:02:46.47001:22:03.08000:49:06.270
408754Mary SUTHERLANDProvo UT USA17 F 40 - 44102:40:15.91+00:51:25.4000:20:35.28000:03:00.85001:15:48.73000:01:46.99000:59:04.060
409663Sam WOODSSalt Lake City UT USA03 M 25 - 29102:40:19.53+00:51:29.0200:21:05.19000:03:39.94001:17:43.33000:01:43.54000:56:07.530
4101185Ted DAWSONJackson WY USA35 Clydesdale Under 40102:40:20.37+00:51:29.8600:19:45.60000:02:36.65001:08:08.08000:02:10.75001:07:39.290
4111268Elliot MORRISStansbury Park UT USA08 M 50 - 54102:40:21.33+00:51:30.8200:21:07.50000:03:29.17001:12:37.14000:02:21.02001:00:46.500
412833Jeff THOMASDraper UT USA05 M 35 - 39102:40:25.78+00:51:35.2700:17:30.20000:02:45.09001:10:12.44000:01:57.35001:08:00.700
41387Madison FARRERSalt Lake City UT USA12 F 15 - 18102:40:26.10+00:51:35.5900:23:25.62000:02:57.36001:17:28.22000:01:44.73000:54:50.170
414317Matt HARRINGTONTWIN FALLS ID USA04 M 30 - 34102:40:29.15+00:51:38.6400:18:49.86000:02:56.46001:13:57.53000:01:41.20001:03:04.100
415640Rusty BENTLEYSalt Lake City UT USA03 M 25 - 29102:40:30.14+00:51:39.6300:19:34.94000:02:02.56001:17:49.36000:01:30.22000:59:33.060
4161023Maurice WATTSSandy UT USA06 M 40 - 44102:40:42.04+00:51:51.5300:24:44.25000:05:04.12001:17:13.05000:01:53.74000:51:46.880
417469Suzanne WIRTHLINHolladay UT USA15 F 30 - 34102:40:43.76+00:51:53.2500:19:59.73000:02:32.98001:20:28.89000:01:56.21000:55:45.950
4181273Paul HARMANPark City UT USA08 M 50 - 54102:40:48.53+00:51:58.0200:22:57.23000:04:20.92001:16:44.17000:02:45.88000:54:00.330
4191295Jack HARMANRUPERT ID USA08 M 50 - 54102:40:48.62+00:51:58.1100:22:31.57000:04:22.28001:19:12.07000:02:19.77000:52:22.930
420639Jake DENNISONTaylorsville UT USA03 M 25 - 29102:40:48.77+00:51:58.2600:23:11.87000:03:01.80001:14:47.74000:02:11.31000:57:36.050
421788Amy GREERDraper UT USA17 F 40 - 44102:40:55.69+00:52:05.1800:18:04.40000:02:36.68001:17:49.57000:01:40.30001:00:44.740
422938Sydney TERVORTSalt Lake City UT USA18 F 45 -49102:40:58.90+00:52:08.3900:20:30.07000:05:30.29001:15:08.12000:02:29.89000:57:20.530
4231085Neil HARPERDeclo ID USA07 M 45 - 49102:40:59.98+00:52:09.4700:23:25.08000:03:41.10001:14:17.06000:02:01.98000:57:34.760
424583Bonnie WETSELBurley ID USA16 F 35 - 39102:41:02.03+00:52:11.5200:18:41.38000:03:12.49001:16:41.83000:01:39.13001:00:47.200
425652Josh RAHLPocatello ID USA03 M 25 - 29102:41:14.53+00:52:24.0200:18:41.02000:03:35.19001:18:09.55000:02:00.20000:58:48.570
4261148Chad ROSKELLEYBoise ID USA35 Clydesdale Under 40102:41:15.48+00:52:24.9700:20:17.04000:04:38.65001:17:34.83000:58:44.960
427762Pauli KILLIANRiverton UT USA17 F 40 - 44102:41:18.28+00:52:27.7700:08:15.69000:05:16.54001:27:06.41000:02:57.46000:57:42.180
4281065Paul KORTHWest Jordan UT USA06 M 40 - 44102:41:20.00+00:52:29.4900:18:37.11000:04:06.69001:19:51.03000:02:16.76000:56:28.410
429897Chris BOWERBANKLehi UT USA05 M 35 - 39102:41:23.76+00:52:33.2500:19:57.30000:02:18.91001:15:38.05000:01:18.85001:02:10.650
430564Jodi CLARKHolladay UT USA15 F 30 - 34102:41:23.98+00:52:33.4700:16:31.76000:02:56.86001:22:16.69000:01:31.69000:58:06.980
431529Mary WARDSalt Lake City UT USA15 F 30 - 34102:41:40.75+00:52:50.2400:20:41.79000:03:25.12001:16:53.49000:01:45.25000:58:55.100
4321174Jory DALLINGRiverton, UT UT USA04 M 30 - 34102:41:45.82+00:52:55.3100:21:35.38000:06:43.64001:11:34.63000:03:09.44000:58:42.730
4331187Kelly NEADRigby ID USA37 Athena102:41:46.62+00:52:56.1100:20:22.13000:03:15.22001:19:19.55000:01:22.47000:57:27.250
434303Ryan HANKSKaysville UT USA04 M 30 - 34102:41:52.03+00:53:01.5200:21:16.58000:05:03.26001:11:01.72000:02:50.09001:01:40.380
435612Erinn THOMPSONLogandale NV USA16 F 35 - 39102:41:55.84+00:53:05.3300:20:47.11000:02:47.98001:29:25.16000:01:53.80000:47:01.790
436126Rachel CONEDraper UT USA13 F 19 - 24102:42:05.34+00:53:14.8300:20:24.07000:03:30.88001:20:45.09000:00:52.73000:56:32.570
437912Warner MURPHYSpringville UT USA05 M 35 - 39102:42:07.47+00:53:16.9600:21:59.52000:03:50.77001:17:51.47000:02:15.22000:56:10.490
438994Brent CHILDERSEagle ID USA06 M 40 - 44102:42:16.43+00:53:25.9200:20:45.62000:02:34.42001:10:43.56000:02:36.81001:05:36.020
4391315Lindsey DAVIS13 F 19 - 24102:42:21.28+00:53:30.7700:19:23.08000:02:29.27001:18:15.08000:01:41.54001:00:32.310
440212Rodney WASHBURNClearfield UT USA04 M 30 - 34102:42:21.31+00:53:30.8000:22:20.86000:03:10.97001:10:59.30000:01:57.41001:03:52.770
4411103Victor BENNETTPocatello ID USA07 M 45 - 49102:42:25.04+00:53:34.5300:21:04.91000:04:44.79001:17:42.38000:02:11.72000:56:41.240
442849Jefferson GLOECKNERLayton UT USA05 M 35 - 39102:42:30.59+00:53:40.0800:22:12.85000:03:32.74001:10:24.35000:03:17.14001:03:03.510
4431107Jerry ESTEPtremonton UT USA07 M 45 - 49102:42:32.80+00:53:42.2900:19:12.99000:02:55.81001:13:38.43000:02:19.18001:04:26.390
4441003Rob ANDRAHighland UT USA06 M 40 - 44102:42:38.06+00:53:47.5500:22:59.05000:03:30.15001:15:55.14000:01:51.90000:58:21.820
4451072Dale CRANNEYMidway UT USA06 M 40 - 44102:42:41.78+00:53:51.2700:19:09.75000:05:18.93001:14:06.10001:04:07.000
446284Aaron CAMPBELLkaysville UT USA04 M 30 - 34102:42:45.56+00:53:55.0500:22:00.76000:04:59.65001:21:16.49000:02:15.94000:52:12.720
447298Ryan HANSENLayton UT USA04 M 30 - 34102:42:45.57+00:53:55.0600:23:02.80000:03:56.92001:21:11.51000:02:17.25000:52:17.090
448720Brian ROMRELLSalt Lake City UT USA03 M 25 - 29102:42:58.30+00:54:07.7900:22:06.12000:04:36.74001:17:54.15000:06:09.08000:52:12.210
4491012Scott HARDYAlpine UT USA06 M 40 - 44102:42:59.49+00:54:08.9800:21:23.73000:04:09.19001:21:55.88000:01:32.46000:53:58.230
450341Justin FARRISSandy UT USA04 M 30 - 34102:43:07.32+00:54:16.8100:21:12.80000:03:43.92001:12:22.61000:02:10.83001:03:37.160
451802Jason STRICKLANDSyracuse UT USA05 M 35 - 39102:43:13.16+00:54:22.6500:20:13.99000:03:01.62001:15:12.97000:03:53.83001:00:50.750
452144Mckenzie BORUPOrem UT USA13 F 19 - 24102:43:13.23+00:54:22.7200:21:02.59000:02:47.69001:18:01.54000:01:30.63000:59:50.780
453152Heather HARPERDECLO ID USA13 F 19 - 24102:43:13.30+00:54:22.7900:20:07.12000:03:21.57001:19:08.22000:02:35.76000:58:00.630
4546David MICKELSONBountiful UT USAElite Men102:43:14.14+00:54:23.6300:20:02.62000:02:43.69001:09:37.30001:10:50.530
455179 BARLOW MADNESSJana Barlow Justin Rawlings Barlow31 Mixed Under 75102:43:15.33+00:54:24.8200:23:08.13000:04:53.47001:25:36.34000:00:51.95000:48:45.440
456216Craig VAN ALFENFarmington UT USA04 M 30 - 34102:43:16.18+00:54:25.6700:22:06.37000:04:36.43001:19:24.85000:02:21.16000:54:47.370
457215Ryan VAN ALFENEagle ID USA04 M 30 - 34102:43:16.21+00:54:25.7000:23:11.42000:02:56.44001:18:00.95000:02:01.81000:57:05.590
4581196Larry HANSENBurley ID USA35 Clydesdale Under 40102:43:16.54+00:54:26.0300:19:17.26000:02:54.26001:08:27.92000:02:01.14001:10:35.960
4591263Carly BROWNprovo UT USA14 F 25 - 29102:43:22.11+00:54:31.6000:21:44.91000:02:31.35001:17:46.76000:02:18.63000:59:00.460
460698Matt BATESWest Valley UT USA03 M 25 - 29102:43:24.37+00:54:33.8600:21:46.10000:03:40.97001:16:17.81000:02:05.36000:59:34.130
461695Eric BATESWest Jordan UT USA03 M 25 - 29102:43:24.51+00:54:34.0000:20:42.56000:04:37.48001:16:22.86000:02:08.54000:59:33.070
4621312Kent MISENERBountiful UT USA08 M 50 - 54102:43:25.43+00:54:34.9200:19:55.93000:04:43.71001:18:50.82000:01:50.58000:58:04.390
463100Tara HARDMANW Bountiful UT USA13 F 19 - 24102:43:26.04+00:54:35.5300:18:15.56000:04:31.14001:18:36.63000:02:07.65000:59:55.060
464885Doug MINORJerome ID USA05 M 35 - 39102:43:26.85+00:54:36.3400:18:40.29000:04:27.27001:15:41.96000:03:22.29001:01:15.040
465668Bryan FLAMMDraper UT USA03 M 25 - 29102:43:28.36+00:54:37.8500:21:00.65000:03:50.15001:08:55.84000:02:03.20001:07:38.520
466376Charley FRENCHKetchum ID USA11 M 65 and Over102:43:35.10+00:54:44.5900:18:52.73000:02:16.66001:17:04.70000:02:01.98001:03:19.030
467514Jill BRIMHALLPleasant Grove UT USA15 F 30 - 34102:43:38.35+00:54:47.8400:24:01.97000:04:08.44001:20:39.50000:00:53.81000:53:54.630
468288Curtis ROBERTSONSalt Lake City UT USA04 M 30 - 34102:43:43.94+00:54:53.4300:22:40.48000:06:01.41001:19:19.72000:02:43.12000:52:59.210
4691137Brad PAINTERSaratoga Springs UT USA35 Clydesdale Under 40102:43:45.95+00:54:55.4400:17:46.55000:03:09.36001:17:36.95000:02:23.39001:02:49.700
470666James MCMULLINBoise ID USA03 M 25 - 29102:43:47.50+00:54:56.9900:25:13.06000:05:40.09001:12:24.02000:02:39.87000:57:50.460
471878Bradley CHATLINEagle ID USA05 M 35 - 39102:43:48.14+00:54:57.6300:19:14.88000:04:11.45001:15:24.23000:02:57.56001:02:00.020
4721035Steve TAYLORdraper UT USA06 M 40 - 44102:43:54.75+00:55:04.2400:20:20.10000:03:16.77001:14:44.54001:05:33.340
4731036Jim ANDERSONSandy UT USA06 M 40 - 44102:43:55.12+00:55:04.6100:21:11.04000:03:27.49001:14:09.81000:03:06.86001:01:59.920
474923Alan ENCEFruit Heights UT USA05 M 35 - 39102:43:59.40+00:55:08.8900:22:56.32000:02:37.57001:12:56.08000:02:22.97001:03:06.460
475901Daniel AAMODTDraper UT USA05 M 35 - 39102:43:59.43+00:55:08.9200:16:06.66000:02:33.67001:15:59.64000:02:15.50001:07:03.960
476102Lauren NELSONSalt Lake City UT13 F 19 - 24102:43:59.52+00:55:09.0100:19:52.56000:04:31.33001:17:46.62000:02:26.28000:59:22.730
477896Jeff SORENSONDraper UT USA05 M 35 - 39102:44:01.16+00:55:10.6500:18:35.93000:04:48.21001:15:27.83000:01:46.92001:03:22.270
478675Rhet DALLINGSpokane Valley WA USA03 M 25 - 29102:44:01.65+00:55:11.1400:19:00.29000:05:20.11001:16:06.74000:03:04.46001:00:30.050
4791075Larry MAXFIELDSalt Lake City UT USA07 M 45 - 49102:44:03.98+00:55:13.4700:19:24.94000:02:07.58001:11:00.63000:01:45.56001:09:45.270
480886Scott REEVESOrem UT USA05 M 35 - 39102:44:13.63+00:55:23.1200:18:18.68000:04:50.77001:10:48.48000:02:37.37001:07:38.330
481160 ACE-IN-THE-HOLELisa Taylor Nicki Darrington Amy Brinkley25 W Team 107 - 137102:44:15.95+00:55:25.4400:25:13.61000:00:56.51001:25:20.38000:00:56.02000:51:49.430
482330Neal MALUGADESalt Lake City UT USA04 M 30 - 34102:44:22.20+00:55:31.6900:20:58.78000:04:38.50001:17:33.50000:03:22.31000:57:49.110
4831236David CLARKSalt Lake City UT USA36 Clydesdale 40 and Over102:44:24.98+00:55:34.4700:21:29.15000:05:28.09001:11:19.04000:03:47.17001:02:21.530
484457Jenny JACOBSSalt Lake City UT USA14 F 25 - 29102:44:33.51+00:55:43.0000:19:51.30000:04:16.13001:20:04.44000:02:02.92000:58:18.720
4851161Bradley CORDEROEagle Mountain UT USA35 Clydesdale Under 40102:44:35.36+00:55:44.8500:21:00.36000:04:14.47001:14:21.81000:04:14.03001:00:44.690
486436Sara SWAINBoise ID USA14 F 25 - 29102:44:36.75+00:55:46.2400:18:03.25000:04:16.17001:19:37.09000:03:39.14000:59:01.100
487576Misty SUAREZWest Jordan UT USA16 F 35 - 39102:44:37.77+00:55:47.2600:17:58.69000:03:35.48001:19:39.53000:02:14.25001:01:09.820
4881088Scott NYMANOrem UT USA07 M 45 - 49102:44:39.88+00:55:49.3700:20:54.45000:04:37.88001:13:51.11001:05:16.440
489335Brian MAUGHANIrvine CA USA04 M 30 - 34102:44:40.51+00:55:50.0000:19:29.76000:04:49.31001:18:43.37000:01:52.44000:59:45.630
4901053Mark KELLERSalt Lake City UT USA06 M 40 - 44102:44:47.06+00:55:56.5500:20:10.37000:04:01.69001:13:24.29000:02:14.56001:04:56.150
4911233Clark MABEYSouth Jordan UT USA36 Clydesdale 40 and Over102:44:50.87+00:56:00.3600:19:14.12000:04:49.36001:14:42.41000:02:32.16001:03:32.820
4921276Marshall BROWNDraper UT USA08 M 50 - 54102:44:57.12+00:56:06.6100:19:38.25000:05:19.91001:21:22.68000:01:53.07000:56:43.210
493266Nathan SMITHSaratoga Springs UT USA04 M 30 - 34102:45:04.12+00:56:13.6100:23:22.67000:03:23.30001:14:12.91000:01:53.65001:02:11.590
494911Shawn STEPHENSOgden UT USA05 M 35 - 39102:45:05.44+00:56:14.9300:21:55.27000:03:52.29001:15:21.03000:02:30.20001:01:26.650
4951265Lisa NOWASKEYTaylorsville UT USA37 Athena102:45:09.31+00:56:18.8000:17:39.01000:02:55.01001:16:47.81000:02:19.97001:05:27.510
496948Shannon JENSENpark city UT USA18 F 45 -49102:45:09.35+00:56:18.8400:21:54.14000:02:39.08001:20:47.66000:02:34.40000:57:14.070
4971093Ron ANDERSONpark city UT USA07 M 45 - 49102:45:11.46+00:56:20.9500:22:03.01000:05:37.18001:20:34.51000:56:56.760
498687Brett STEVENSCottonwood Heights UT USA03 M 25 - 29102:45:14.59+00:56:24.0800:22:32.14000:04:05.85001:12:49.87000:02:37.66001:03:09.070
49972Steve NEWTONSalt Lake City UT USA09 M 55 - 59102:45:16.27+00:56:25.7600:17:52.58000:04:40.77001:14:58.51000:05:32.10001:02:12.310
500935Alice SCHENKRupert ID USA18 F 45 -49102:45:26.09+00:56:35.5800:20:05.93000:02:24.48001:25:41.31000:01:40.16000:55:34.210
501683Hans HUBRICHSalt Lake City UT USA03 M 25 - 29102:45:28.10+00:56:37.5900:24:11.82000:04:03.09001:16:00.33000:01:49.56000:59:23.300
502237Ryan WESTSandy UT USA04 M 30 - 34102:45:29.13+00:56:38.6200:18:55.89000:04:34.74001:13:36.52000:01:17.80001:07:04.180
5031063Craig FRAMEEagle ID USA06 M 40 - 44102:45:34.02+00:56:43.5100:18:40.99000:04:20.83001:15:13.62000:03:01.14001:04:17.440
50462Taylor DUNCANRupert ID USA03 M 25 - 29102:45:41.14+00:56:50.6301:35:20.2100:01:38.250
50541Matthew BOWENRiverton UT USA01 M 15 - 18102:45:41.59+00:56:51.0800:21:19.85000:04:41.81001:13:40.26000:04:06.47001:01:53.200
50695Linnley SCOTTSalt Lake City UT USA12 F 15 - 18102:45:53.48+00:57:02.9700:17:15.50000:03:35.54001:22:27.95000:02:22.21001:00:12.280
5071164Kevin OLSENMilford NH USA35 Clydesdale Under 40102:46:02.25+00:57:11.7400:20:25.39000:02:30.21001:15:34.08000:01:56.64001:05:35.930
508877Scott ANDERSONWest Bountiful UT USA05 M 35 - 39102:46:02.30+00:57:11.7900:21:50.20000:04:10.27001:18:24.40000:01:42.87000:59:54.560
509858Justin MANNINGOgden UT USA05 M 35 - 39102:46:03.36+00:57:12.8500:19:22.85000:02:12.27001:20:17.07000:01:29.66001:02:41.510
510241Roger MORGANBURLEY ID USA04 M 30 - 34102:46:09.57+00:57:19.0600:22:06.43000:03:15.60001:14:09.86000:03:03.76001:03:33.920
511947Jan WOODSLC UT USA18 F 45 -49102:46:11.36+00:57:20.8500:20:44.45000:03:24.42001:20:14.21000:02:25.81000:59:22.470
512719Steven NELSONSalt Lake City UT USA03 M 25 - 29102:46:23.52+00:57:33.0100:18:54.37000:04:29.68001:21:50.39000:02:26.41000:58:42.670
5131232Cliff HOLTPark City UT USA36 Clydesdale 40 and Over102:46:32.52+00:57:42.0100:19:14.04000:03:51.98001:19:24.76000:02:27.27001:01:34.470
5141076Jim ALVEYLayton UT USA07 M 45 - 49102:46:34.72+00:57:44.2100:18:17.54000:02:23.61001:13:06.25000:02:29.87001:10:17.450
515130Keisha BROOKSCedar City UT USA13 F 19 - 24102:46:36.55+00:57:46.0400:19:17.44000:03:39.85001:25:10.13000:01:34.71000:56:54.420
516592Kimberly CHATLINEagle ID USA16 F 35 - 39102:46:41.49+00:57:50.9800:20:04.75000:03:27.01001:17:25.85000:01:54.00001:03:49.880
517532Melissa SOLTESZPark City UT USA15 F 30 - 34102:46:44.19+00:57:53.6800:17:12.57000:02:13.98001:17:44.61000:02:16.77001:07:16.260
518455Brenna BROOKSSandy UT USA14 F 25 - 29102:46:45.52+00:57:55.0100:17:08.90000:02:39.08001:22:56.15000:01:29.96001:02:31.430
519561Alicia ANDRUSSalt Lake City UT USA15 F 30 - 34102:46:46.34+00:57:55.8300:14:54.43000:03:03.48001:21:55.30000:01:36.02001:05:17.110
520831Jimmy STRICKERHerriman UT USA05 M 35 - 39102:46:48.50+00:57:57.9900:19:37.31000:04:37.11001:10:28.61000:02:33.06001:09:32.410
521409Elizabeth PIERCEMidvale UT USA14 F 25 - 29102:46:48.74+00:57:58.2300:16:48.61000:05:43.80001:17:05.83000:02:30.85001:04:39.650
52290Micall TOLBERTHeber UT USA12 F 15 - 18102:47:03.68+00:58:13.1700:18:36.72000:02:25.94001:17:55.44000:01:25.56001:06:40.020
523195 LIGHTNING BOLTSKristie Christensen Emily Peterson Scott Peterson32 Mixed 75 - 106102:47:05.62+00:58:15.1100:18:34.77000:01:40.60001:29:27.61000:01:08.33000:56:14.310
52461Aaron GREENSouth Jordan UT USA02 M 19 - 24102:47:08.19+00:58:17.6800:20:04.17000:03:32.50001:15:32.46000:02:24.56001:05:34.500
525841Stephen YATESOrem UT USA05 M 35 - 39102:47:10.63+00:58:20.1200:18:54.25000:05:26.40001:14:42.76000:02:57.07001:05:10.150
5261274Joe STRALEYsalt lake city UT USA08 M 50 - 54102:47:14.92+00:58:24.4100:22:49.72000:06:47.24001:19:22.46000:01:40.28000:56:35.220
527524Erica VAN DIJKSalt Lake City UT USA15 F 30 - 34102:47:15.57+00:58:25.0600:17:42.18000:03:49.25001:17:10.37000:02:08.08001:06:25.690
528301Matt ELISONSan Bernardino CA USA04 M 30 - 34102:47:16.55+00:58:26.0400:20:09.71000:02:57.86001:17:40.48000:01:51.00001:04:37.500
529939Sylvia SCHULTERLayton UT USA18 F 45 -49102:47:25.23+00:58:34.7200:23:21.64000:04:14.03001:18:33.70000:04:38.49000:56:37.370
530625Courtney WOODTremonton UT USA03 M 25 - 29102:47:27.00+00:58:36.4900:23:48.41000:05:51.59001:20:01.02000:01:45.66000:56:00.320
5311222Brent HALLIrvine CA USA36 Clydesdale 40 and Over102:47:27.70+00:58:37.1900:07:14.44000:04:52.14001:23:09.62000:03:05.29001:09:06.210
5321208Bret NELSONCedar City UT USA35 Clydesdale Under 40102:47:30.25+00:58:39.7400:19:17.88000:01:50.68001:14:37.86000:02:19.04001:09:24.790
5331005Brian ROBINSNorth Salt Lake UT USA06 M 40 - 44102:47:32.89+00:58:42.3800:24:47.62000:03:48.01001:24:45.78000:01:12.52000:52:58.960
534785Chrissy RILEYSandy UT USA17 F 40 - 44102:47:46.09+00:58:55.5800:12:26.66000:02:13.28001:20:40.22000:01:45.50001:10:40.430
5351235Steven SORENSENOrem UT USA36 Clydesdale 40 and Over102:47:47.86+00:58:57.3500:22:38.27000:04:10.10001:13:22.39000:03:02.19001:04:34.910
536134Ali THACKERAYSandy UT USA13 F 19 - 24102:47:48.69+00:58:58.1800:18:00.40000:02:42.23001:18:08.29000:01:49.15001:07:08.620
53797Brittney MAXFIELDSalt Lake City UT USA13 F 19 - 24102:47:50.19+00:58:59.6800:16:37.64000:03:19.46001:23:22.66000:01:16.04001:03:14.390
5381040Steve POLINGIdaho Falls ID USA06 M 40 - 44102:47:51.25+00:59:00.7400:21:06.65000:03:27.44001:14:58.38000:02:49.24001:05:29.540
539656Ryan OKELBERRYProvo UT USA03 M 25 - 29102:47:52.70+00:59:02.1900:22:41.50000:04:31.90001:17:35.71000:02:09.93001:00:53.660
540637Joe BAIRDProvo UT USA03 M 25 - 29102:47:52.95+00:59:02.4400:22:40.61000:04:32.55001:17:35.29000:02:10.35001:00:54.150
541272Bryce ANDERSONhillsboro OR USA04 M 30 - 34102:47:58.67+00:59:08.1600:23:03.23000:03:00.25001:21:39.25000:02:01.88000:58:14.060
542270Dave KOTTERRiverton UT USA04 M 30 - 34102:48:00.19+00:59:09.6800:20:04.72000:04:31.73001:14:57.64000:02:19.30001:06:06.800
5431163Todd STORRSSLC UT USA04 M 30 - 34102:48:00.52+00:59:10.0100:18:18.07000:06:19.28001:15:00.79000:02:16.47001:06:05.910
544624Nick EMBERTONWest Jordan UT USA03 M 25 - 29102:48:01.11+00:59:10.6000:17:49.30000:01:32.16001:22:14.74000:01:20.44001:05:04.470
545347Tyrone FARILLASHerriman UT USA04 M 30 - 34102:48:05.17+00:59:14.6600:20:17.60000:05:44.90001:18:01.15000:01:58.76001:02:02.760
546217Bryan WAINIOSalt Lake City UT USA04 M 30 - 34102:48:06.59+00:59:16.0800:17:42.07000:04:38.60001:15:18.12000:03:03.67001:07:24.130
547565Hailey BRAYSalt Lake City UT USA15 F 30 - 34102:48:07.50+00:59:16.9900:21:12.54000:08:21.26001:23:33.59000:01:06.81000:53:53.300
548638Ryan PACKERSandy UT USA03 M 25 - 29102:48:10.59+00:59:20.0800:18:13.69000:04:55.63001:16:22.82000:02:32.78001:06:05.670
5491301Jack ALTEMOSEKimberly ID USA08 M 50 - 54102:48:13.97+00:59:23.4600:22:16.88000:03:38.89001:19:31.78000:02:15.67001:00:30.750
5501302Roger MOORETwin Falls ID USA08 M 50 - 54102:48:16.77+00:59:26.2600:13:13.00000:05:00.74001:18:49.49000:03:04.11001:08:09.430
551282Frank EUBANKPleasant Grove UT USA04 M 30 - 34102:48:20.92+00:59:30.4100:18:48.07000:04:42.64001:19:32.84000:01:27.44001:03:49.930
552182 TRIATHLETE TRIOKramer Holt Hillary Bibb Taylor Christensen31 Mixed Under 75102:48:20.96+00:59:30.4500:15:47.60000:01:21.92001:26:52.61000:00:54.84001:03:23.990
553758Holly STEFFENSalt Lake City UT USA17 F 40 - 44102:48:21.80+00:59:31.2900:20:30.16000:02:22.38001:18:45.49000:02:06.54001:04:37.230
5541052Bradley WILLIAMSTwin Falls ID USA06 M 40 - 44102:48:21.87+00:59:31.3600:16:30.89000:04:22.16001:28:46.13000:02:53.09000:55:49.600
5551077Richard GROSSENSandy UT USA07 M 45 - 49102:48:29.44+00:59:38.9300:23:56.71000:05:09.44001:15:21.65000:03:13.52001:00:48.120
556962Shannon CLOWARDSandy UT USA18 F 45 -49102:48:29.49+00:59:38.9800:21:41.71000:05:19.12001:17:34.88000:03:05.79001:00:47.990
557614Kari SLADEMurray UT USA16 F 35 - 39102:48:37.52+00:59:47.0100:19:32.72000:02:30.87001:18:45.04000:01:45.64001:06:03.250
558494September SMITHSandy UT USA15 F 30 - 34102:48:41.43+00:59:50.9200:20:09.71000:05:27.79001:23:34.62000:03:18.34000:56:10.970
559591Stephanie JOHNSONDraper UT USA16 F 35 - 39102:48:44.08+00:59:53.5700:17:36.02000:03:17.41001:18:14.27000:02:32.63001:07:03.750
560647Rob JOLLEYOgden UT USA03 M 25 - 29102:48:45.40+00:59:54.8900:23:53.24000:03:04.03001:23:04.41000:00:58.24000:57:45.480
561588Terri PARKSouth Jordan UT USA16 F 35 - 39102:48:49.22+00:59:58.7100:22:48.19000:02:49.66001:18:28.59000:02:43.21001:01:59.570
562129Natalie FREDRICKMidvale UT USA02 M 19 - 24102:48:57.75+01:00:07.2400:19:25.36000:03:06.83001:24:13.21000:02:23.14000:59:49.210
5631128Joe BUTTERWORTHBuhl ID USA07 M 45 - 49102:48:59.50+01:00:08.9900:25:49.05000:03:30.11001:12:44.94000:02:49.60001:04:05.800
564340Troy DENNINGSalt Lake City UT USA04 M 30 - 34102:49:08.38+01:00:17.8700:20:01.80000:03:20.80001:22:49.57000:01:43.53001:01:12.680
5651019Charles WALKERPleasant Grove UT USA06 M 40 - 44102:49:12.46+01:00:21.9500:21:40.59000:03:14.30001:16:18.98000:02:19.22001:05:39.370
566302Justin GARNERRexburg ID USA04 M 30 - 34102:49:22.38+01:00:31.8700:21:06.11000:04:21.86001:19:04.36000:02:01.98001:02:48.070
567752Katie ABBYSalt Lake City UT USA17 F 40 - 44102:49:30.36+01:00:39.8500:18:19.57000:04:19.37001:20:53.02000:03:19.95001:02:38.450
568945Deborah HOFFLERDraper UT USA18 F 45 -49102:49:33.03+01:00:42.5200:20:26.98000:01:43.49001:18:57.24000:02:53.53001:05:31.790
5691039Dominic BRIALehi UT USA06 M 40 - 44102:49:34.33+01:00:43.8200:20:42.73000:04:59.39001:11:27.89000:01:52.50001:10:31.820
570879G. BRIMHALLPleasant Grove UT USA05 M 35 - 39102:49:36.00+01:00:45.4900:20:05.28000:03:28.12001:11:48.11000:06:16.85001:07:57.640
5711207Tate LYBBERTIdaho Falls ID USA35 Clydesdale Under 40102:49:41.18+01:00:50.6700:21:19.72000:04:07.91001:14:42.51000:02:52.08001:06:38.960
5721084Mark EHLERSTwin Falls ID USA07 M 45 - 49102:49:41.64+01:00:51.1300:22:20.61000:05:50.43001:18:02.65001:03:27.950
573417Pamela NELSONSalt Lake City UT USA14 F 25 - 29102:49:46.70+01:00:56.1900:18:44.67000:02:42.05001:16:34.58000:01:42.77001:10:02.630
574580Paula SPENCERRiverton UT USA16 F 35 - 39102:49:46.80+01:00:56.2900:20:36.65000:04:26.26001:30:09.70000:01:46.91000:52:47.280
5751074Clark PETERSENBountiful UT USA07 M 45 - 49102:49:49.19+01:00:58.6800:19:47.18000:03:57.83001:21:04.97000:02:30.43001:02:28.780
576547Amy POWELLSalt Lake City UT USA15 F 30 - 34102:49:52.57+01:01:02.0600:17:01.31000:04:12.87001:22:59.19000:02:05.75001:03:33.450
577125Jenilyn REEVESOrem UT USA13 F 19 - 24102:49:52.59+01:01:02.0800:22:06.69000:04:35.26001:18:09.63000:01:28.68001:03:32.330
578761Michelle HOLTeagle ID USA17 F 40 - 44102:49:55.54+01:01:05.0300:22:05.83000:03:45.97001:15:48.92000:05:09.52001:03:05.300
579918Darin EISENBARTHnampa ID USA05 M 35 - 39102:49:59.61+01:01:09.1000:21:04.97000:03:19.76001:18:27.17000:03:06.56001:04:01.150
580990Craig WARDSLC UT USA06 M 40 - 44102:50:04.43+01:01:13.9200:19:17.01000:04:45.73001:16:59.69000:02:52.95001:06:09.050
5811228Kurt HOLTeagle ID USA36 Clydesdale 40 and Over102:50:06.09+01:01:15.5800:22:33.21000:04:16.92001:16:43.98000:02:46.41001:03:45.570
582917David BETHERSDraper UT USA05 M 35 - 39102:50:09.52+01:01:19.0100:24:29.69000:04:25.87001:20:47.32000:01:29.84000:58:56.800
583954Rita ALLREDBurley ID USA18 F 45 -49102:50:11.33+01:01:20.8200:18:04.87000:04:13.13001:16:45.79000:03:30.74001:07:36.800
584263Matt HARDYHighland UT USA04 M 30 - 34102:50:11.62+01:01:21.1100:20:34.85000:03:15.10001:09:05.24000:02:22.26001:14:54.170
585739Devin JONESTaylorsville UT USA03 M 25 - 29102:50:21.70+01:01:31.1900:20:40.69000:10:51.89001:13:57.91000:02:26.88001:02:24.330
5861210Ben NICHOLSONdraper UT USA35 Clydesdale Under 40102:50:26.85+01:01:36.3400:22:55.61000:07:48.33001:22:23.37000:03:48.82000:53:30.720
587919Jeff LAVERYDraper UT USA05 M 35 - 39102:50:27.24+01:01:36.7300:17:50.50000:02:05.33001:17:21.69000:03:01.30001:10:08.420
588227Ben SCHMALZPhoenix AZ USA04 M 30 - 34102:50:27.47+01:01:36.9600:21:33.62000:04:52.86001:11:28.93000:02:20.93001:10:11.130
5891296Scott WHITEHOUSEStansbury Park UT USA08 M 50 - 54102:50:29.96+01:01:39.4500:24:29.64000:03:17.47001:16:21.33001:06:21.520
590676Mark REEVESOrem UT USA03 M 25 - 29102:50:35.87+01:01:45.3600:30:11.56000:04:43.08001:18:16.04000:01:15.83000:56:09.360
591488Shaundalee MORGANBURLEY ID USA15 F 30 - 34102:50:37.91+01:01:47.4000:22:04.39000:03:35.76001:21:07.20000:01:33.19001:02:17.370
592971Judy DESMONDStansbury Park UT USA19 F 50 - 54102:50:44.99+01:01:54.4800:21:30.24000:03:53.26001:27:20.24000:01:18.17000:56:43.080
593697Chad MILNEWoods Cross UT USA03 M 25 - 29102:50:47.84+01:01:57.3300:20:02.17000:03:43.52001:19:21.88001:07:40.270
594386Danette BROOKSShelley ID USA14 F 25 - 29102:50:50.34+01:01:59.8300:16:44.10000:02:27.86001:22:00.07000:01:41.79001:07:56.520
5951056Cory FROGLEYSouth Jordan UT USA06 M 40 - 44102:50:56.43+01:02:05.9200:18:39.76000:04:47.79001:15:12.39000:03:14.40001:09:02.090
5961055Kary BURNSDraper UT USA06 M 40 - 44102:50:56.78+01:02:06.2700:19:13.60000:04:10.46001:15:29.28000:03:31.32001:08:32.120
597757Tina ROMNEYSalt Lake City UT USA17 F 40 - 44102:51:01.88+01:02:11.3700:20:00.03000:02:27.13001:20:22.28000:02:38.15001:05:34.290
598997R THOMPSONSalt Lake City UT USA06 M 40 - 44102:51:10.76+01:02:20.2500:22:01.02000:03:51.73001:22:49.38000:02:56.95000:59:31.680
599586Camille BEHUNINSouth Jordan UT USA16 F 35 - 39102:51:18.18+01:02:27.6700:17:54.29000:05:34.18001:27:08.03000:02:59.29000:57:42.390
600946Becky NYMANOrem UT USA18 F 45 -49102:51:30.26+01:02:39.7500:21:13.97000:03:47.81001:17:34.60000:03:12.93001:05:40.950
601867R. Bret ADAMSMeridian ID USA05 M 35 - 39102:51:32.84+01:02:42.3300:23:35.50000:04:31.54001:15:51.49000:02:45.98001:04:48.330
60245Stuart MAXFIELDSalt Lake City UT USA02 M 19 - 24102:51:34.05+01:02:43.5400:17:26.80000:03:28.72001:19:49.20000:01:01.65001:09:47.680
6031182Grant FRYBig Sky MT USA35 Clydesdale Under 40102:51:36.94+01:02:46.4300:20:20.59000:04:22.63001:12:18.99000:03:08.54001:11:26.190
6041192Jeremy NEVILLEKaysville UT USA35 Clydesdale Under 40102:51:38.77+01:02:48.2600:20:57.19000:03:03.69001:18:30.45000:02:34.76001:06:32.680
605156 CITIUS, ALTIUS, FORTTiffany Smith McKell Blake Sidney Christy24 W Team 75 - 106102:51:45.98+01:02:55.4700:23:23.63000:01:01.84001:28:53.83000:00:57.58000:57:29.100
606480Ele NANCESYRACUSE UT USA15 F 30 - 34102:51:48.48+01:02:57.9700:25:46.17000:05:16.63001:20:48.65000:02:36.28000:57:20.750
606477Mandee ORTONSYRACUSE UT USA15 F 30 - 34102:51:48.48+01:02:57.9700:25:46.12000:05:16.24001:20:48.91000:02:36.52000:57:20.690
608781Barbara LINCOLNSandy UT USA17 F 40 - 44102:51:49.25+01:02:58.7400:16:57.66000:04:01.76001:21:48.23000:02:22.84001:06:38.760
609541Nicole WHITEOregon City OR USA15 F 30 - 34102:51:49.81+01:02:59.3000:20:04.06000:03:42.76001:22:16.90000:02:41.07001:03:05.020
610915Ernest HARKERDraper UT USA05 M 35 - 39102:51:49.84+01:02:59.3300:27:57.94000:04:39.35001:19:08.44000:02:19.41000:57:44.700
611914Peter BARLOWDraper UT USA05 M 35 - 39102:51:49.95+01:02:59.4400:17:07.76000:05:14.28001:17:13.04000:02:17.52001:09:57.350
612407Charise MCMULLINBoise ID USA14 F 25 - 29102:51:55.25+01:03:04.7400:22:05.62000:04:19.92001:16:33.78000:02:19.75001:06:36.180
613771Linda MATHESONLindon UT USA17 F 40 - 44102:51:59.08+01:03:08.5700:19:11.38000:04:16.84001:23:55.25000:01:32.69001:03:02.920
614857Sean BATESSalt Lake City UT USA05 M 35 - 39102:52:05.45+01:03:14.9400:19:51.96000:03:00.73001:20:58.52000:01:27.85001:06:46.390
615535Jessica BARLOWJackson WY USA15 F 30 - 34102:52:06.11+01:03:15.6000:20:11.33000:04:04.35001:16:15.91000:02:36.66001:08:57.860
616427Jenny MERRILLBountiful UT USA14 F 25 - 29102:52:09.53+01:03:19.0200:23:39.8900:02:58.99001:15:07.67000:01:40.05001:08:42.930
6171282Kirk DOUGLASSClearfield UT USA08 M 50 - 54102:52:21.31+01:03:30.8000:19:36.90000:04:24.72001:19:59.61000:03:05.65001:05:14.430
618819Hartzell PHILLIPSRupert ID USA05 M 35 - 39102:52:24.37+01:03:33.8600:24:36.64000:04:56.39001:17:18.24000:01:36.69001:03:56.410
61938Casey TAYLORSalt Lake City UT USA01 M 15 - 18102:52:35.49+01:03:44.9800:24:31.56000:04:17.85001:19:27.09000:01:00.76001:03:18.230
620363Thomas MILLERTaylosville UT USA10 M 60 - 64102:52:43.91+01:03:53.4000:20:46.74000:04:20.38001:19:41.88000:02:50.87001:05:04.040
621790Marie WHITESalt Lake City UT USA17 F 40 - 44102:52:45.72+01:03:55.2100:22:25.27000:04:23.76001:19:02.31000:02:08.77001:04:45.610
622395Joanna DAVISTwin Falls ID USA14 F 25 - 29102:52:46.02+01:03:55.5100:22:53.80000:04:51.35001:26:16.93000:02:19.99000:56:23.950
623536Marcee CHRISTIANOrem UT USA15 F 30 - 34102:52:47.58+01:03:57.0700:24:00.03000:04:30.13001:24:59.19000:03:00.28000:56:17.950
624585Kelly PASSEYSalt Lake City UT USA35 Clydesdale Under 40102:52:49.49+01:03:58.9800:18:47.34000:02:11.10001:16:00.55000:01:51.94001:13:58.560
6251138Mark PAINTERWest Jordan UT USA35 Clydesdale Under 40102:52:52.23+01:04:01.7200:21:35.70000:02:24.21001:21:20.85000:02:15.11001:05:16.360
626423Kristina PETERSONFarmington MN USA14 F 25 - 29102:52:52.27+01:04:01.7600:22:39.88000:03:02.43001:18:10.24000:02:15.88001:06:43.840
6271270Mark BILLMIREPark City UT USA08 M 50 - 54102:52:57.64+01:04:07.1300:24:21.21000:02:55.99001:14:59.45000:01:24.86001:09:16.130
628157 ACCESS ANGELSMelinda Lowry Emily Chavez Kathryn Davidson24 W Team 75 - 106102:53:05.57+01:04:15.0600:23:19.15000:00:53.72001:29:54.34000:00:56.77000:58:01.590
6291155Ryan WILSONLayton UT USA35 Clydesdale Under 40102:53:09.14+01:04:18.6300:24:05.51000:03:51.89001:15:00.87000:02:15.96001:07:54.910
630468Teralee MALOUFProvo UT USA15 F 30 - 34102:53:13.50+01:04:22.9900:19:20.32000:03:31.48001:22:05.14000:01:21.02001:06:55.540
631420Allison BRINKERHOFFMeridian ID USA14 F 25 - 29102:53:14.55+01:04:24.0400:21:44.01000:05:13.71001:19:31.66000:02:52.37001:03:52.800
632537Tamarah BARROWSalt Lake City UT USA15 F 30 - 34102:53:20.83+01:04:30.3200:16:24.82000:04:23.81001:21:40.39000:03:28.67001:07:23.140
633627Chad FUNKcolorado springs CO USA03 M 25 - 29102:53:20.87+01:04:30.3600:22:30.49000:04:16.07001:26:49.27000:02:00.68000:57:44.360
634329Casey RADFORDSmithfield UT USA04 M 30 - 34102:53:21.06+01:04:30.5500:25:02.38000:04:14.93001:20:18.75000:01:36.56001:02:08.440
635285Ethan RIDDLESandy UT USA04 M 30 - 34102:53:24.73+01:04:34.2200:22:24.18000:04:54.38001:13:35.43000:02:17.49001:10:13.250
636953Jan ALLENHeyburn ID USA18 F 45 -49102:53:27.07+01:04:36.5600:19:32.61000:02:38.58001:14:46.77000:04:06.30001:12:22.810
637234Daniel ADAMSONRiverton UT USA04 M 30 - 34102:53:41.15+01:04:50.6400:23:06.55000:05:18.38001:23:43.47000:02:04.38000:59:28.370
6381145Tyler LARSENTwin Falls ID USA35 Clydesdale Under 40102:53:42.50+01:04:51.9900:21:43.99000:03:52.28001:15:33.00000:02:02.26001:10:30.970
639295Stephen VAN DIJKSalt Lake City UT USA04 M 30 - 34102:53:43.06+01:04:52.5500:19:15.09000:04:30.67001:37:18.92000:02:19.33000:50:19.050
640186 THE JORDAN TERRIERSKami Smith Craig Richards Eron Evans32 Mixed 75 - 106102:53:49.88+01:04:59.3700:20:47.15000:01:40.12001:24:55.25000:01:10.95001:05:16.410
641681Brian ROSANDERSalt Lake City UT USA03 M 25 - 29102:53:50.01+01:04:59.5000:19:55.88000:06:18.30001:18:53.88001:08:41.950
642276Shad BOWERSMeridian ID USA04 M 30 - 34102:53:56.12+01:05:05.6100:19:55.56000:04:10.18001:18:31.56000:01:40.87001:09:37.950
643657Joseph SHAWCROFTSalt Lake City UT USA03 M 25 - 29102:54:02.24+01:05:11.7300:18:27.60000:04:22.38001:22:46.81000:02:04.49001:06:20.960
644309Eric MORGANSalt Lake City UT USA04 M 30 - 34102:54:06.45+01:05:15.9400:22:53.30000:08:15.48001:23:37.73000:04:41.04000:54:38.900
645396Jenny MORROWSalt Lake City UT USA14 F 25 - 29102:54:08.21+01:05:17.7000:22:18.27000:05:55.90001:22:52.85000:03:41.41000:59:19.780
646271Andrew WATERSKaysville UT USA04 M 30 - 34102:54:19.51+01:05:29.0000:19:43.80000:05:16.24001:19:40.96000:02:16.35001:07:22.160
647813Rick STRATFORDCenterville UT USA05 M 35 - 39102:54:23.63+01:05:33.1200:20:39.77000:04:19.79001:19:31.10000:01:55.38001:07:57.590
648934Ann STRALEYHolladay UT USA18 F 45 -49102:54:28.17+01:05:37.6600:21:08.03000:04:18.84001:22:57.47000:01:20.90001:04:42.930
649966Sandy STRALEYsalt lake city UT USA19 F 50 - 54102:54:31.09+01:05:40.5800:23:37.71000:04:40.90001:26:06.68000:03:01.99000:57:03.810
650845Sandy UT USA05 M 35 - 39102:54:32.02+01:05:41.5100:21:10.00000:05:26.91001:19:47.02000:04:09.76001:03:58.330
651782Kim TROPDraper UT USA17 F 40 - 44102:54:37.70+01:05:47.1900:19:32.84000:04:11.09001:16:55.87000:02:58.03001:10:59.870
652467Chrystel DESPAINSalt Lake CIty UT USA15 F 30 - 34102:54:40.22+01:05:49.7100:23:48.49000:02:56.36001:24:12.71000:02:06.43001:01:36.230
653362Michael WASHBURNLayton UT USA10 M 60 - 64102:54:43.24+01:05:52.7300:23:42.80000:05:45.79001:17:27.87000:03:18.39001:04:28.390
6541095Michael FORBESDraper UT USA07 M 45 - 49102:54:46.70+01:05:56.1900:18:42.91000:03:15.67001:18:03.28000:02:48.29001:11:56.550
655422Chelsy MCFADYENProvo UT USA14 F 25 - 29102:54:48.30+01:05:57.7900:21:36.91000:05:33.75001:21:41.15000:01:52.66001:04:03.830
6561104Ron VALENTINEKaysville UT USA07 M 45 - 49102:54:49.60+01:05:59.0900:21:47.62000:03:31.00001:23:57.54000:02:03.04001:03:30.400
657936Susan FINCHsalt lake city UT USA18 F 45 -49102:54:51.90+01:06:01.3900:24:16.31000:03:45.25001:21:08.33000:02:38.03001:03:03.980
6581157Steve AYERSSalt Lake City UT USA35 Clydesdale Under 40102:54:55.61+01:06:05.1000:18:42.83000:04:38.29001:15:09.50000:02:42.39001:13:42.600
6591062Buddy ZARBOCKDraper UT USA05 M 35 - 39102:54:57.42+01:06:06.9100:30:08.85000:03:00.30001:15:50.05000:02:55.75001:03:02.470
6601109Doug BURNHAMHighland UT USA07 M 45 - 49102:55:02.64+01:06:12.1300:19:51.43000:04:33.75001:25:48.73000:01:46.82001:03:01.910
661349Kyle DEMORDAUNTAlpine UT USA04 M 30 - 34102:55:05.48+01:06:14.9700:19:46.75000:04:10.27001:21:56.77000:02:39.52001:06:32.170
662708Jon HUNTERBountiful UT USA03 M 25 - 29102:55:06.34+01:06:15.8300:22:21.74000:03:29.27001:17:11.36000:02:29.52001:09:34.450
66374Clark JOLLEYSalt Lake City UT USA09 M 55 - 59102:55:12.25+01:06:21.7400:25:09.98000:04:40.11001:28:14.69000:00:59.83000:56:07.640
664905Kyle WILLIAMSClinton UT USA05 M 35 - 39102:55:20.55+01:06:30.0400:17:39.15000:04:10.98001:18:19.47000:02:54.55001:12:16.400
6651007Bryan PARKSouth Jordan UT USA06 M 40 - 44102:55:21.34+01:06:30.8300:20:49.93000:04:57.83001:13:56.41000:04:27.53001:11:09.640
666239Greg CALLPocatello ID USA04 M 30 - 34102:55:23.13+01:06:32.6200:24:17.32000:04:11.12001:23:34.91000:01:30.18001:01:49.600
667840Cody LASLEYSyracuse UT USA05 M 35 - 39102:55:31.41+01:06:40.9000:19:27.37000:02:33.19001:20:23.90000:01:55.87001:11:11.080
668259Bryan KEMPTucson AZ USA04 M 30 - 34102:55:38.73+01:06:48.2200:16:48.43000:03:11.20001:31:05.33000:01:47.72001:02:46.050
669194 DOVER/HATCHPatrick Dover Shannon Hatch32 Mixed 75 - 106102:55:45.01+01:06:54.5000:22:30.38000:01:33.83001:24:59.30000:01:53.08001:04:48.420
67077Rohn MCKEEVictor ID USA09 M 55 - 59102:55:48.38+01:06:57.8700:18:57.44000:04:00.57001:17:40.92000:02:21.41001:12:48.040
671379Sherrie VIRGINrexburg ID USA20 F 55 - 59102:55:49.71+01:06:59.2000:21:49.48000:02:26.86001:19:09.10000:02:11.13001:10:13.140
6721151Alex SCHMALZSaratoga Springs UT USA35 Clydesdale Under 40102:55:55.56+01:07:05.0500:21:48.05000:05:38.83001:16:07.63000:02:58.99001:09:22.060
6731206Brian ARMSTRONGLehi UT USA35 Clydesdale Under 40102:55:56.48+01:07:05.9700:22:45.43000:04:55.08001:14:10.44000:02:44.51001:11:21.020
674228Rich MADSENClearfield UT USA04 M 30 - 34102:55:58.43+01:07:07.9200:20:19.18000:03:09.48001:19:39.05000:01:07.68001:11:43.040
675738Paul LOTTSalt Lake City UT USA03 M 25 - 29102:55:59.91+01:07:09.4000:21:27.18000:04:36.01001:23:44.84000:02:01.39001:04:10.490
676374Larry PETERSENSalt Lake City UT USA11 M 65 and Over102:56:15.50+01:07:24.9900:17:42.32000:03:44.56001:20:40.77000:02:55.18001:11:12.670
6771248Tim FELMANCENTERVILLE UT USA07 M 45 - 49102:56:15.63+01:07:25.1200:19:56.29000:05:03.61001:23:53.65000:02:12.73001:05:09.350
678703Rockwell SCHUTJERSalt Lake City UT USA03 M 25 - 29102:56:17.73+01:07:27.2200:21:02.75000:05:35.79001:18:27.78000:02:44.34001:08:27.070
679753Sherri JENSENPocatello ID USA17 F 40 - 44102:56:21.02+01:07:30.5100:24:05.08000:04:03.86001:12:47.10000:03:24.55001:12:00.430
680929Steve NIELSONMeridian ID USA05 M 35 - 39102:56:26.04+01:07:35.5300:22:43.79000:05:39.94001:23:25.60000:03:24.22001:01:12.490
681155 THELMA & LOUISEKristin Baker Jeanine Reeves23 W Team Under 75102:56:29.60+01:07:39.0900:23:06.42000:01:02.59001:20:49.50000:01:01.93001:10:29.160
6821042Dennis STONEMANBurley ID USA06 M 40 - 44102:56:34.86+01:07:44.3500:22:20.20000:03:44.64001:25:30.47000:02:00.82001:02:58.730
6831079Benny YIHPark City UT USA07 M 45 - 49102:56:35.18+01:07:44.6700:32:07.19000:03:50.95001:20:04.45000:02:39.97000:57:52.620
684972Leeann CHRISTENSENLayton UT USA19 F 50 - 54102:56:35.42+01:07:44.9100:22:35.62000:06:21.98001:23:31.05000:04:04.27001:00:02.500
685557Kindee NIELSENDenver CO USA15 F 30 - 34102:56:40.30+01:07:49.7900:22:00.34000:08:34.80001:26:07.10000:02:58.15000:56:59.910
686447Jessica JONESKaysville UT USA14 F 25 - 29102:56:40.95+01:07:50.4400:19:30.72000:03:39.70001:23:30.31000:02:28.65001:07:31.570
687597Allison LUDLOWNorth Ogden UT USA16 F 35 - 39102:56:42.73+01:07:52.2200:21:54.67000:03:39.12001:20:43.90000:02:14.21001:08:10.830
688389Alissa PACKERSandy UT USA14 F 25 - 29102:56:54.18+01:08:03.6700:21:16.10000:04:36.37001:29:03.07000:02:53.94000:59:04.700
689123Kara BLEAZARDSalt Lake City UT USA13 F 19 - 24102:57:01.34+01:08:10.8300:19:50.02000:04:16.84001:21:39.77000:02:21.46001:08:53.250
690384Stacie STEVENSSalt Lake City UT USA14 F 25 - 29102:57:01.41+01:08:10.9000:19:36.19000:04:27.10001:23:02.17000:02:37.95001:07:18.000
691387Kristie NATIONDraper UT USA14 F 25 - 29102:57:11.30+01:08:20.7900:18:32.88000:02:18.90001:21:46.64000:02:12.70001:12:20.180
69243Nathan JACKSONProvo UT USA01 M 15 - 18102:57:17.71+01:08:27.2000:20:29.09000:05:47.10001:27:03.17000:01:00.57001:02:57.780
693780Stephanie VINCENTPleasant Grove UT USA17 F 40 - 44102:57:18.36+01:08:27.8500:19:08.20000:03:33.00001:19:29.78000:02:07.44001:12:59.940
694607Lori BRAINARDSaratoga Springs UT USA16 F 35 - 39102:57:21.57+01:08:31.0600:18:15.81000:05:07.74001:30:28.45000:02:03.61001:01:25.960
695930Barry BOWENSalt Lake City UT USA05 M 35 - 39102:57:24.53+01:08:34.0200:22:16.97000:03:47.73001:19:41.65000:01:04.15001:10:34.030
6961166Matt NEWTONWest Jordan UT USA35 Clydesdale Under 40102:57:30.28+01:08:39.7700:21:38.20000:03:34.40001:15:09.22001:17:08.460
6971171Stephen TATECenterville UT USA35 Clydesdale Under 40102:57:31.16+01:08:40.6500:22:08.34000:03:41.58001:14:56.96000:03:39.80001:13:04.480
698619Charlyn BLUEMELLyman WY USA16 F 35 - 39102:57:33.65+01:08:43.1400:20:30.93000:06:41.83001:26:32.50000:02:11.36001:01:37.030
699528Kelly MCPHERSONSouth Jordan UT USA15 F 30 - 34102:57:52.19+01:09:01.6800:20:40.93000:02:50.15001:24:52.82000:02:03.97001:07:24.320
700143Amber ASTLESt.Greorge UT USA13 F 19 - 24102:58:00.96+01:09:10.4500:19:41.70000:04:11.76001:19:38.45000:01:42.61001:12:46.440
701603Shauna MERTZSpringville UT USA16 F 35 - 39102:58:05.36+01:09:14.8500:20:15.00000:03:42.49001:21:30.33000:02:11.31001:10:26.230
702933Mary Ann DEWAALSalt Lake City UT USA18 F 45 -49102:58:07.53+01:09:17.0200:20:04.50000:03:01.73001:26:34.83000:02:01.89001:06:24.580
703601Angie STILESMeridian ID USA16 F 35 - 39102:58:10.11+01:09:19.6000:24:11.20000:05:05.36001:25:46.72000:04:42.60000:58:24.230
704600Alison GUYMONMeridian ID USA16 F 35 - 39102:58:10.12+01:09:19.6100:24:09.02000:05:09.04001:25:45.50000:04:35.51000:58:31.050
705515Shauna CARTERlindon UT USA15 F 30 - 34102:58:11.00+01:09:20.4900:21:04.54000:03:57.98001:23:06.06000:02:26.72001:07:35.700
706255Jon BAYTONburley ID USA04 M 30 - 34102:58:15.73+01:09:25.2200:21:07.57000:03:39.58001:28:13.99000:00:56.89001:04:17.700
707433Joanna CHRISMANSpringville UT USA14 F 25 - 29102:58:19.69+01:09:29.1800:22:40.58000:02:51.37001:29:17.04000:02:03.28001:01:27.420
708377Penny WEISSPleasant Grove UT USA20 F 55 - 59102:58:20.07+01:09:29.5600:19:46.44000:03:42.14001:19:52.72000:02:04.16001:12:54.610
709145Amberlin BODILYOrem UT USA13 F 19 - 24102:58:35.27+01:09:44.7600:23:36.84000:03:05.24001:22:40.23000:02:03.35001:07:09.610
710776Sherrel MCKINNONAmerican Fork UT USA17 F 40 - 44102:58:35.56+01:09:45.0500:20:20.38000:03:35.55001:24:53.17000:01:45.70001:08:00.760
711193 TEAM 77Jennifer Boettcher Greg Boettcher32 Mixed 75 - 106102:58:36.30+01:09:45.7900:20:35.07000:02:00.07001:32:39.39000:01:12.35001:02:09.420
712686Nathan FREDRICKMidvale UT USA35 Clydesdale Under 40102:58:38.20+01:09:47.6900:23:20.92000:03:50.64001:19:56.68000:02:59.56001:08:30.400
713332Brandon TAYLORBoise ID USA04 M 30 - 34102:58:39.62+01:09:49.1100:21:27.14000:06:30.92001:19:23.13000:02:36.08001:08:42.350
7141099Lyle WHITESalt Lake City UT USA07 M 45 - 49102:58:43.64+01:09:53.1300:26:52.51000:05:46.08001:15:54.90000:02:30.98001:07:39.170
715593Trisha BOWERBANKLehi UT USA16 F 35 - 39102:58:45.09+01:09:54.5800:22:53.67000:04:32.92001:27:40.77000:02:37.77001:00:59.960
716851Jason NICHOLSCenterville UT USA05 M 35 - 39102:58:46.98+01:09:56.4700:18:27.16000:05:09.60001:21:40.17000:01:57.93001:11:32.120
717502Aimee FAUCHEUXSandy UT USA15 F 30 - 34102:58:48.66+01:09:58.1500:20:17.92000:03:00.55001:25:16.65000:02:13.85001:07:59.690
7181114Dean TRACYIdaho Falls ID USA07 M 45 - 49102:58:52.84+01:10:02.3300:24:23.96000:04:47.43001:22:15.64000:01:13.08001:06:12.730
7191008Kevin HALVERSONRupert ID USA06 M 40 - 44102:58:55.30+01:10:04.7900:25:56.04000:03:07.89001:12:26.23000:02:42.12001:14:43.020
7201020Reed DEMORDAUNTEagle ID USA06 M 40 - 44102:59:14.49+01:10:23.9800:20:51.45000:04:12.18001:20:22.67000:03:36.19001:10:12.000
721475Sandra MANIONOmaha NE USA15 F 30 - 34102:59:20.29+01:10:29.7800:24:36.33000:03:50.11001:20:30.31000:02:24.91001:07:58.630
72237Devin CLARKSalt Lake City UT USA01 M 15 - 18102:59:22.36+01:10:31.8500:20:11.23000:05:32.92001:18:09.17000:01:46.78001:13:42.260
723440Amanda SHERRODSALT LAKE CITY UT USA14 F 25 - 29102:59:23.26+01:10:32.7500:20:25.30000:03:34.41001:17:52.81000:02:28.78001:15:01.960
724512Kimberly CASPERPleasant Grove UT USA15 F 30 - 34102:59:24.19+01:10:33.6800:21:02.91000:02:47.95001:18:44.27000:01:46.23001:15:02.830
7251230Steven DEWEYWoodland Hills UT USA36 Clydesdale 40 and Over102:59:29.95+01:10:39.4400:23:11.88000:05:04.32001:22:30.59000:02:00.68001:06:42.480
726426Amie COOKOrem UT USA14 F 25 - 29102:59:30.97+01:10:40.4600:18:17.17000:03:53.01001:21:34.24000:01:12.20001:14:34.350
7271225Steven WIESTLindon UT USA36 Clydesdale 40 and Over102:59:34.33+01:10:43.8200:22:10.58000:02:46.14001:17:35.78000:02:03.98001:14:57.850
728964Margaret STEVENSslc UT USA19 F 50 - 54102:59:37.26+01:10:46.7500:20:57.77000:03:11.23001:22:58.11000:03:14.24001:09:15.910
729184 D AND Dsteve searle Heather Dunn32 Mixed 75 - 106102:59:45.92+01:10:55.4100:28:12.00000:02:13.68001:29:06.49000:01:43.82000:58:29.930
7301092Craig BRUINsalt lake city UT USA07 M 45 - 49102:59:52.92+01:11:02.4100:20:22.75000:04:04.76001:15:16.38000:03:33.84001:16:35.190
731582Staci SAINSBURYslc UT USA16 F 35 - 39102:59:53.98+01:11:03.4700:23:01.03000:03:51.01001:21:12.06000:04:52.24001:06:57.640
7321271William HANSENSalt Lake City UT USA08 M 50 - 54102:59:58.62+01:11:08.1100:20:57.62000:04:41.37001:26:19.72000:02:13.57001:05:46.340
733991Michael HUNTERProvo UT USA06 M 40 - 44102:59:58.79+01:11:08.2800:22:40.79000:07:50.99001:25:24.41000:02:11.02001:01:51.580
734594Ruth AGLAOrem UT USA16 F 35 - 39102:59:59.87+01:11:09.3600:22:00.42000:03:50.24001:19:02.24000:02:55.05001:12:11.920
735733Cody EVANSKuna ID USA03 M 25 - 29103:00:11.62+01:11:21.1100:22:25.32000:03:22.92001:18:47.77000:02:28.41001:13:07.200
7361043Glade GENTRYDeclo ID USA06 M 40 - 44103:00:14.09+01:11:23.5800:21:51.55000:02:50.97001:15:39.71000:01:58.68001:17:53.180
7371135Garth QUIGLEYKuna ID USA35 Clydesdale Under 40103:00:15.24+01:11:24.7300:20:52.94000:05:20.03001:21:57.45001:12:04.820
738419Angela REEVESOrem UT USA14 F 25 - 29103:00:43.28+01:11:52.7700:04:06.26000:01:50.67001:36:46.09000:07:33.60001:10:26.660
739391Misty JOLLEYSalt Lake UT USA14 F 25 - 29103:00:45.21+01:11:54.7000:20:33.00000:04:04.08001:24:13.61000:02:06.86001:09:47.660
740965Rebecca YIHPark City UT USA19 F 50 - 54103:00:48.28+01:11:57.7700:18:39.07000:03:37.92001:21:05.48000:02:37.84001:14:47.970
741435Kate ROBINSONOrem UT USA14 F 25 - 29103:00:48.77+01:11:58.2600:22:03.45000:05:07.65001:19:27.17000:04:09.48001:10:01.020
742700Kyler REDDERBurley ID USA03 M 25 - 29103:00:50.35+01:11:59.8400:20:57.47000:02:41.66001:25:03.90000:01:15.28001:10:52.040
743566Amy ASAYUSA15 F 30 - 34103:00:51.22+01:12:00.7100:19:33.48000:03:46.79001:26:44.79000:02:16.86001:08:29.300
7441245Jared JOHNSONBurley ID USA36 Clydesdale 40 and Over103:00:56.64+01:12:06.1300:25:05.75000:03:48.88001:23:46.57000:02:30.67001:05:44.770
745454Nicole POLANDSLC UT USA14 F 25 - 29103:01:23.04+01:12:32.5300:20:29.83000:03:42.59001:21:42.50000:02:18.10001:13:10.020
7461049Andy BIBBEagle ID USA06 M 40 - 44103:01:24.36+01:12:33.8500:24:07.32000:05:05.66001:19:30.03000:03:30.37001:09:10.980
7471186Travis ARRINGTONTwin Falls ID USA35 Clydesdale Under 40103:01:25.11+01:12:34.6000:24:31.73000:04:27.76001:28:44.48000:01:13.94001:02:27.200
748299Randy VAWDREYPocatello ID USA04 M 30 - 34103:01:25.31+01:12:34.8000:27:30.85000:04:19.55001:23:43.47000:02:59.92001:02:51.520
749472Nadine WASHBURNClearfield UT USA15 F 30 - 34103:01:27.09+01:12:36.5800:19:37.68000:03:46.72001:26:25.62000:01:52.41001:09:44.660
750798Robert BAKERLindon UT USA05 M 35 - 39103:01:30.73+01:12:40.2200:21:38.64000:04:24.26001:22:45.92000:01:41.78001:11:00.130
7511231Kent HANSENSandy UT USA36 Clydesdale 40 and Over103:01:37.56+01:12:47.0500:21:35.88000:04:20.66001:12:10.44000:04:39.76001:18:50.820
7521267Gary STEVENSslc UT USA08 M 50 - 54103:01:38.03+01:12:47.5200:16:23.37000:04:41.07001:20:21.13000:03:22.30001:16:50.160
7531293Reid ROBINSONOrem UT USA08 M 50 - 54103:01:46.54+01:12:56.0300:22:20.67000:04:58.34001:19:26.16000:04:02.35001:10:59.020
754673Sam SCHRADERNampa ID USA35 Clydesdale Under 40103:01:46.63+01:12:56.1200:22:41.52000:02:29.39001:19:46.21000:01:40.09001:15:09.420
7551254Endi FILLMOREEagle ID USA37 Athena103:01:54.50+01:13:03.9900:19:30.11000:02:30.80001:20:13.54000:02:38.15001:17:01.900
756628Andrew MAXFIELDSalt Lake City UT USA03 M 25 - 29103:01:54.80+01:13:04.2900:18:38.67000:03:47.40001:24:01.58000:03:03.19001:12:23.960
7571215George RENCHERUSA35 Clydesdale Under 40103:02:02.86+01:13:12.3500:20:21.39000:05:01.63001:27:57.28000:07:01.77001:01:40.790
758587Kimberly SCHWARZEPocatello ID USA16 F 35 - 39103:02:06.48+01:13:15.9700:23:33.62000:03:22.78001:28:18.42000:03:25.01001:03:26.650
759973Marie NEWTONSalt Lake City UT USA19 F 50 - 54103:02:08.36+01:13:17.8500:17:30.72000:03:54.10001:20:57.29000:03:15.45001:16:30.800
7601226Wayne SOWERSMidvale UT USA36 Clydesdale 40 and Over103:02:15.03+01:13:24.5200:18:37.66000:03:49.75001:18:36.45000:03:21.09001:17:50.080
761774Tami CROMARSalt Lake City UT USA17 F 40 - 44103:02:18.74+01:13:28.2300:22:09.24000:04:53.97001:14:57.25000:04:36.58001:15:41.700
7621014Stephen TANNERHolladay UT USA36 Clydesdale 40 and Over103:02:19.99+01:13:29.4800:21:43.20000:05:00.27001:15:25.47000:03:32.18001:16:38.870
7631178Matt HORTONHighland UT USA35 Clydesdale Under 40103:02:21.00+01:13:30.4900:18:22.17000:03:52.34001:13:51.08000:02:29.57001:23:45.840
764398Cali KELLYWOODBountiful UT USA14 F 25 - 29103:02:24.14+01:13:33.6300:20:29.95000:06:46.09001:25:11.29000:02:34.15001:07:22.660
765497Tricia NICHOLSCenterville UT USA15 F 30 - 34103:02:28.28+01:13:37.7700:26:53.20000:05:41.21001:17:16.40000:04:58.64001:07:38.830
7661045Joe HUSTONBentonville AR USA06 M 40 - 44103:02:30.55+01:13:40.0400:18:15.88000:06:41.17001:20:23.07000:03:28.18001:13:42.250
767163 K2SKeri Perrigot Karen Konrad Sharon Bennett25 W Team 107 - 137103:02:31.22+01:13:40.7100:18:46.46000:01:07.23001:26:59.85000:01:11.88001:14:25.800
768620Leanne WILTSEHolladay UT USA16 F 35 - 39103:02:40.36+01:13:49.8500:25:41.61000:05:07.76001:30:22.19000:01:58.70000:59:30.100
769431Jessica STEVENSCottonwood Heights UT USA14 F 25 - 29103:02:43.82+01:13:53.3100:22:13.19000:04:26.95001:27:03.26000:03:58.53001:05:01.890
770428Julia CHUDLEIGHArlington VA USA14 F 25 - 29103:02:43.88+01:13:53.3700:17:11.98000:09:28.08001:25:57.84000:05:03.95001:05:02.030
771366Robert BLOOMERPayson UT USA10 M 60 - 64103:02:49.19+01:13:58.6800:19:53.48000:04:14.74001:20:59.55000:02:43.90001:14:57.520
772794 TEAM JENSENKathleen Jensen Charlie Redmond Trudy Petersen33 Mixed 107 - 137103:03:03.66+01:14:13.1500:24:16.24000:01:47.86001:24:00.76000:01:05.91001:11:52.890
773483Betsy JOHNSONSalt Lake City UT USA15 F 30 - 34103:03:13.38+01:14:22.8700:20:33.84000:03:39.38001:23:43.42000:02:22.09001:12:54.650
774770Suzy DAWSONJackson WY USA17 F 40 - 44103:03:14.75+01:14:24.2400:19:27.36000:04:35.43001:24:47.04000:03:14.09001:11:10.830
775789Lukie WRIGHTSpringville UT USA17 F 40 - 44103:03:21.15+01:14:30.6400:19:01.48000:04:13.46001:29:02.53000:02:43.46001:08:20.220
7761034Richard MATHESONLindon UT USA06 M 40 - 44103:03:28.00+01:14:37.4900:21:49.77000:06:04.95001:18:45.48000:03:11.01001:13:36.790
777763Kim ROBINSNorth Salt Lake UT USA17 F 40 - 44103:03:31.03+01:14:40.5200:21:53.14000:03:55.18001:26:44.73000:02:04.52001:08:53.460
77853Michael FOULGERProvo UT USA02 M 19 - 24103:03:38.35+01:14:47.8400:21:59.88000:05:26.28001:33:15.63000:01:38.98001:01:17.580
7791256Tessa SANTIAGOProvo UT USA37 Athena103:03:47.96+01:14:57.4500:19:06.82000:04:23.94001:19:53.49000:03:14.26001:17:09.450
7801278Brent THOMPSONSouth Jordan UT USA08 M 50 - 54103:03:48.11+01:14:57.6000:23:00.95000:04:12.62001:22:24.40000:02:54.30001:11:15.840
781375Dick ARNERSLC UT USA11 M 65 and Over103:03:58.90+01:15:08.3900:21:01.63000:04:00.69001:20:35.34000:02:44.12001:15:37.120
7821022Scott FROGLEYDraper UT USA06 M 40 - 44103:03:59.28+01:15:08.7700:19:39.24000:03:47.49001:15:15.11000:03:10.93001:22:06.510
783487Natalie JACKMANSalt Lake City UT USA15 F 30 - 34103:04:00.91+01:15:10.4000:18:40.46000:03:03.09001:18:14.58000:02:10.72001:21:52.060
784556Andrea FREDRICKSalt Lake City UT USA14 F 25 - 29103:04:08.56+01:15:18.0500:21:58.86000:04:37.13001:26:47.08000:03:37.25001:07:08.240
785955Charlotte LAUGHLINOregon City OR USA18 F 45 -49103:04:16.85+01:15:26.3400:23:46.38000:04:20.10001:22:00.33000:03:10.24001:10:59.800
786560Lana GROVERRexburg ID USA15 F 30 - 34103:04:29.77+01:15:39.2600:20:29.41000:03:40.98001:21:58.18000:03:30.20001:14:51.000
787531Kim BAKERWest Point UT USA15 F 30 - 34103:04:43.26+01:15:52.7500:21:58.03000:07:39.98001:26:32.47000:05:48.34001:02:44.440
7881013Frank ROSBACHsouth jordan UT USA06 M 40 - 44103:04:43.49+01:15:52.9800:17:05.73000:06:26.60001:20:08.94000:02:09.08001:18:53.140
789615Pattie COURTNEYKimberly ID USA16 F 35 - 39103:05:00.44+01:16:09.9300:20:00.87000:03:48.06001:35:56.19000:02:52.33001:02:22.990
790974Fay WATCHORNDraper UT USA19 F 50 - 54103:05:03.97+01:16:13.4600:20:17.11000:02:19.52001:26:28.11000:02:27.12001:13:32.110
791411Mandi HACKETTSLC UT USA14 F 25 - 29103:05:07.65+01:16:17.1400:21:27.64000:06:25.10001:21:46.57000:01:49.72001:13:38.620
792188 DAYLEYHayley Dayley Jaime Buckley Adam Dayley32 Mixed 75 - 106103:05:11.17+01:16:20.6600:24:55.0901:24:28.56000:01:03.84001:14:43.680
793661Dan ROSSProvo UT USA03 M 25 - 29103:05:13.73+01:16:23.2200:20:28.44000:02:53.72001:16:43.93000:02:28.46001:22:39.180
79492Hilary WRIGHTSpringville UT USA12 F 15 - 18103:05:23.16+01:16:32.6500:22:11.35000:04:55.90001:27:59.36000:02:25.92001:07:50.630
7951112Hiram ALBACenterville UT USA07 M 45 - 49103:05:32.74+01:16:42.2300:24:00.92000:05:20.69001:19:43.97000:02:57.01001:13:30.150
796696Nolan ANDELINsalt lake city UT USA03 M 25 - 29103:05:38.09+01:16:47.5800:23:40.29000:03:04.96001:26:15.93000:01:54.14001:10:42.770
797210Corey CHRISTENSENEagle ID USA04 M 30 - 34103:05:39.39+01:16:48.8800:24:22.53000:06:22.91001:23:11.18000:03:46.37001:07:56.400
7981209Jeff GOOCHSalt Lake City UT USA35 Clydesdale Under 40103:05:42.52+01:16:52.0100:17:38.39000:03:30.41001:12:14.67000:04:46.10001:27:32.950
79935Benjamin HARMANSalt Lake City UT USA01 M 15 - 18103:05:42.54+01:16:52.0300:22:28.68000:04:47.53001:23:07.78000:01:43.80001:13:34.750
8001264Holly HORNEBountiful UT USA37 Athena103:06:06.00+01:17:15.4900:29:55.4600:10:53.61000:35:18.58000:02:37.06001:47:21.290
801573Tamara MOBLEYrigby ID USA16 F 35 - 39103:06:09.45+01:17:18.9400:19:12.44000:03:22.36001:35:44.53000:02:01.94001:05:48.180
802421Kirstin BYBEEOrem UT USA14 F 25 - 29103:06:09.98+01:17:19.4700:20:36.26000:02:48.50001:27:53.41000:02:30.36001:12:21.450
80365Derek HARPERDECLO ID USA02 M 19 - 24103:06:12.18+01:17:21.6700:23:21.05000:04:28.40001:25:31.99000:01:05.42001:11:45.320
804611Becky TAYLORSalt Lake City UT USA16 F 35 - 39103:06:15.66+01:17:25.1500:22:42.98000:04:59.80001:34:09.79000:05:34.39000:58:48.700
80518Rockwell SCHUTJERHolladay UT USAElite Men103:06:16.65+01:17:26.1400:25:10.22000:05:00.63001:23:43.65000:03:58.53001:08:23.620
806243Brent DAVIDSONOrem UT USA04 M 30 - 34103:06:26.29+01:17:35.7800:21:32.81000:02:30.84001:35:58.87000:01:59.62001:04:24.150
8071068Alan NIELSONIndependence MO USA06 M 40 - 44103:06:27.61+01:17:37.1000:24:25.05000:04:44.48001:21:34.71000:03:19.88001:12:23.490
808162 TEACHERS ROCKRonda Searle Ranae Chandler Britt Haueter25 W Team 107 - 137103:06:31.48+01:17:40.9700:19:15.65000:02:03.46001:22:39.07000:01:01.69001:21:31.610
8091153Chris DENNISHerriman UT USA35 Clydesdale Under 40103:06:39.08+01:17:48.5700:23:48.96000:04:00.66001:20:53.12000:03:52.28001:14:04.060
810450Camille PINCOCKCarey ID USA14 F 25 - 29103:06:41.66+01:17:51.1500:21:40.64000:06:19.02001:24:46.02000:02:26.88001:11:29.100
811942Suzette CANNONSandy UT USA18 F 45 -49103:06:47.82+01:17:57.3100:23:02.62000:03:44.87001:26:45.92000:02:06.90001:11:07.510
812590Heather HANSENSandy UT USA16 F 35 - 39103:06:49.24+01:17:58.7300:21:39.94000:04:27.29001:25:46.87000:02:56.52001:11:58.620
813960Ann OSTLERSalt Lake City UT USA18 F 45 -49103:06:53.14+01:18:02.6300:22:51.78000:07:01.61001:34:50.76000:02:16.80000:59:52.190
814164 THE THREE DUDESeric johnston Tanner Johnston Hunter Johnston27 M Team Under 75103:06:56.84+01:18:06.3300:16:51.26000:06:32.74001:32:17.92000:01:53.81001:09:21.110
815300Corey CHRISTENSENIdaho Falls CRI04 M 30 - 34103:06:59.09+01:18:08.5800:25:20.04000:04:27.80001:30:23.22000:01:55.47001:04:52.560
816694Chad COXSalt Lake City UT USA03 M 25 - 29103:06:59.27+01:18:08.7600:27:39.19000:08:31.43001:28:11.07000:06:17.36000:56:20.220
817135Carly WALTONProvo UT USA37 Athena103:07:01.30+01:18:10.7900:19:47.84000:03:05.71001:30:31.17000:01:49.26001:11:47.320
8181122John MANWARINGSpringville UT USA07 M 45 - 49103:07:02.84+01:18:12.3300:28:27.60000:06:19.76001:23:40.64000:02:53.62001:05:41.220
8191139Eric HALESPark City UT USA35 Clydesdale Under 40103:07:18.03+01:18:27.5200:20:45.75000:03:07.59001:18:27.08000:01:53.37001:23:04.240
820103Heidi FOSTERSalt Lake City UT USA13 F 19 - 24103:07:26.80+01:18:36.2900:20:14.86000:03:26.20001:36:48.86000:01:17.33001:05:39.550
821441Gena FLETCHERSalt Lake City UT USA14 F 25 - 29103:07:28.31+01:18:37.8000:17:49.59000:07:49.53001:33:44.83000:04:14.54001:03:49.820
82234Cameron FREEMANprovo UT USA01 M 15 - 18103:07:38.68+01:18:48.1700:20:40.07000:02:19.69001:39:27.61000:01:38.65001:03:32.660
823481Amy STOWESLC UT USA15 F 30 - 34103:07:43.00+01:18:52.4900:19:48.0001:33:00.000
824473Tami JENSENCenterville UT USA15 F 30 - 34103:07:47.24+01:18:56.7300:23:32.12000:06:41.09001:24:51.91000:05:21.31001:07:20.810
825751Kimberley COHEESandy UT USA17 F 40 - 44103:07:59.63+01:19:09.1200:19:18.91000:04:53.40001:26:47.38000:03:00.11001:13:59.830
826904David COVENSalt Lake City UT USA05 M 35 - 39103:08:05.61+01:19:15.1000:20:26.64000:03:35.16001:20:31.31000:02:12.90001:21:19.600
827641Sterling JACKSouth Jordan UT USA03 M 25 - 29103:08:17.86+01:19:27.3500:22:23.77000:05:24.36001:28:13.54000:03:59.11001:08:17.080
828313Derek ALLENHenderson NV USA04 M 30 - 34103:08:20.20+01:19:29.6900:22:31.03000:04:24.97001:26:02.46000:02:58.26001:12:23.480
8291078Dennis STRALEYSalt Lake City UT USA07 M 45 - 49103:08:25.60+01:19:35.0900:28:01.05000:06:02.57001:31:51.76000:02:08.98001:00:21.240
830226Cord SCHRADERMeridian ID USA04 M 30 - 34103:08:35.36+01:19:44.8500:20:47.47000:04:36.97001:31:45.03000:01:24.89001:10:01.000
8311176Paul CARTERlindon UT USA35 Clydesdale Under 40103:08:50.87+01:20:00.3600:21:31.63000:03:39.47001:23:21.81000:03:00.46001:17:17.500
8321071Doug JACKSONProvo UT USA06 M 40 - 44103:09:00.88+01:20:10.3700:20:28.76000:05:00.20001:31:35.57000:02:22.86001:09:33.490
83379Jerry VIRGINrexburg ID USA09 M 55 - 59103:09:04.13+01:20:13.6200:22:27.74000:04:02.53001:24:13.97000:01:33.27001:16:46.620
8341167Derek SCOVILLEPleasant Grove UT USA35 Clydesdale Under 40103:09:04.49+01:20:13.9800:18:28.12000:04:29.34001:29:46.23000:01:51.65001:14:29.150
83555Trenton ANDERSONRupert ID USA02 M 19 - 24103:09:26.37+01:20:35.8600:24:27.86000:08:53.52001:29:39.02000:01:08.86001:05:17.110
836280Richard VERNONLehi UT USA04 M 30 - 34103:09:43.76+01:20:53.2500:23:03.48000:07:07.39001:25:48.17000:02:11.01001:11:33.710
837390Stephanie ASTONSalt Lake UT USA14 F 25 - 29103:09:45.35+01:20:54.8400:20:43.60000:03:51.79001:24:12.86000:02:09.67001:18:47.430
838839Gary JOHNSONbountiful UT USA05 M 35 - 39103:09:47.95+01:20:57.4400:21:16.63000:03:19.31001:23:50.55000:02:08.25001:19:13.210
8391203Jeff BOONECenterville UT USA35 Clydesdale Under 40103:09:49.86+01:20:59.3500:21:29.89000:04:48.73001:20:20.76000:03:01.11001:20:09.370
840570Michele BANZSyracuse UT USA16 F 35 - 39103:10:08.98+01:21:18.4700:25:36.99000:06:13.03001:20:41.73000:03:33.68001:14:03.550
8411191Dan RAMOSSalt Lake City UT USA06 M 40 - 44103:10:12.15+01:21:21.6400:35:21.76000:04:38.99001:15:14.42000:03:00.03001:11:56.950
84224Mickey TAYLORSLC UT USA01 M 15 - 18103:10:26.12+01:21:35.6100:22:38.84000:02:32.05001:31:38.17000:00:56.45001:12:40.610
8431142Bryant QUIGLEYKuna ID USA35 Clydesdale Under 40103:10:32.36+01:21:41.8500:20:29.21000:05:11.33001:20:14.34000:02:04.87001:22:32.610
8441275Dan CARLSRUHLayton UT USA08 M 50 - 54103:11:00.10+01:22:09.5900:19:48.76000:05:27.94001:26:12.31000:02:38.31001:16:52.780
845122Erica FRIDENOgden UT USA13 F 19 - 24103:11:13.43+01:22:22.9200:22:48.73000:06:19.89001:32:06.06000:02:23.66001:07:35.090
84648Josh EHLERStwin falls ID USA02 M 19 - 24103:11:15.81+01:22:25.3000:26:34.94000:04:41.81001:32:15.54000:01:27.90001:06:15.620
847383Kelly WOODtremonton UT USA14 F 25 - 29103:11:16.15+01:22:25.6400:21:38.13000:06:49.45001:37:15.28000:02:20.66001:03:12.630
848320Tom SCHMITTBurley ID USA04 M 30 - 34103:11:16.75+01:22:26.2400:21:28.32000:05:01.80001:25:15.34000:03:10.24001:16:21.050
849131Julie STRATFORDOgden UT USA13 F 19 - 24103:11:16.87+01:22:26.3600:22:48.32000:06:10.31001:32:19.05000:02:20.75001:07:38.440
8501223Kevin SANTIAGOProvo UT USA36 Clydesdale 40 and Over103:11:26.36+01:22:35.8500:23:09.51000:05:38.98001:20:07.94000:03:31.82001:18:58.110
851635Adam THOMPSONClinton UT USA03 M 25 - 29103:11:27.16+01:22:36.6500:27:35.32000:04:41.49001:26:13.06001:12:57.290
852728Scott BRADYSouth Jordan UT USA03 M 25 - 29103:11:28.76+01:22:38.2500:22:19.62000:05:38.89001:28:04.98000:04:26.33001:10:58.940
853121Tamara CHRISTENSENOrem UT USA13 F 19 - 24103:11:35.05+01:22:44.5400:20:41.47000:09:53.34001:33:36.62000:02:07.55001:05:16.070
854451Melissa TARBETDraper UT USA14 F 25 - 29103:11:35.28+01:22:44.7700:23:53.09000:05:39.02001:23:27.09000:03:07.95001:15:28.130
855748Sue ALVEYLayton UT USA17 F 40 - 44103:11:50.96+01:23:00.4500:20:46.37000:03:43.24001:37:36.46000:01:49.36001:07:55.530
85650Joey VAILBurley ID USA02 M 19 - 24103:11:56.55+01:23:06.0400:24:00.03000:03:51.49001:27:42.87000:01:03.76001:15:18.400
857778Jean PATTERSONBurley ID USA17 F 40 - 44103:12:04.17+01:23:13.6600:21:11.88000:05:44.32001:34:52.52000:02:26.37001:07:49.080
858501Janae WHEELERBrighton CO USA15 F 30 - 34103:12:06.84+01:23:16.3300:23:29.29000:04:39.24001:29:10.96000:03:19.31001:11:28.040
859602Anna DANCEHeber UT USA16 F 35 - 39103:12:17.32+01:23:26.8100:23:58.46000:04:40.38001:23:24.05000:04:33.50001:15:40.930
860759Melissa YAZHESandy UT USA17 F 40 - 44103:12:44.68+01:23:54.1700:24:34.29000:05:16.19001:32:10.50000:02:42.94001:08:00.760
861149Leah WATKINSLehi UT USA13 F 19 - 24103:12:46.91+01:23:56.4000:24:05.62000:07:15.89001:34:02.19000:02:38.96001:04:44.250
862154 ACCESS DEVILSMarianne Rose Meg Hall Erin Johnson23 W Team Under 75103:12:54.83+01:24:04.3200:22:43.58000:01:09.01001:49:50.92000:01:04.67000:58:06.650
863520Cristy REEVESOrem UT USA15 F 30 - 34103:13:01.68+01:24:11.1700:21:02.57000:06:54.56001:24:20.70000:02:00.54001:18:43.310
864534Jennifer MITCHELLFarmington UT USA15 F 30 - 34103:13:04.13+01:24:13.6200:21:23.99000:07:55.72001:20:21.77000:02:21.64001:21:01.010
865464Esther SWASEYColumbia MO USA14 F 25 - 29103:13:07.99+01:24:17.4800:19:25.64000:05:17.95001:32:05.34000:02:28.25001:13:50.810
866178 TEAM Ojohn okiishi Alana Okiishi32 Mixed 75 - 106103:13:22.25+01:24:31.7401:11:10.44000:01:23.12001:08:55.98000:02:57.49000:48:55.220
867969Rhonda ALIAHIDAHO FALLS ID USA19 F 50 - 54103:13:25.50+01:24:34.9900:22:00.00000:05:07.18001:25:26.08000:04:19.74001:16:32.500
868445Diana GEORGEBountiful UT USA15 F 30 - 34103:13:32.16+01:24:41.6500:28:42.09000:03:32.92001:27:04.20000:02:56.90001:11:16.050
870474Lori PASSEYSalt Lake City UT USA15 F 30 - 34103:13:39.03+01:24:48.5200:25:03.27000:05:25.50001:29:26.18000:02:20.10001:11:23.980
871795Vanisha GRIGGSSandy UT USA17 F 40 - 44103:13:40.78+01:24:50.2700:20:23.16000:04:29.21001:26:27.25000:02:46.02001:19:35.140
8721188David NEBEKERSandy UT USA35 Clydesdale Under 40103:13:54.04+01:25:03.5300:19:29.54000:04:38.72001:23:04.30001:26:41.480
873855Jim CONNELLKaysville UT USA05 M 35 - 39103:14:09.68+01:25:19.1700:25:25.58000:05:09.07001:21:02.89000:05:13.37001:17:18.770
874519Amelia MARLERTualatin OR USA15 F 30 - 34103:14:12.40+01:25:21.8900:21:43.24000:03:26.23001:25:49.86000:02:10.05001:21:03.020
875510Jenni CAMPBELLBurley ID USA15 F 30 - 34103:14:19.29+01:25:28.7800:24:23.91000:03:54.14001:26:17.15000:01:52.29001:17:51.800
876394Joy KARTCHNERFarmington UT USA14 F 25 - 29103:14:19.51+01:25:29.0000:18:59.33000:04:27.11001:26:56.67000:02:09.69001:21:46.710
877979Marilyn RIZLEYScottsdale AZ USA19 F 50 - 54103:14:55.54+01:26:05.0300:23:23.94000:05:29.89001:36:03.32000:03:51.99001:06:06.400
878978Jeanatte PALMERScottsdale AZ USA19 F 50 - 54103:14:55.70+01:26:05.1900:23:23.34000:05:28.97001:36:04.51000:03:52.21001:06:06.670
879709Matt HUFFNorth Logan UT USA03 M 25 - 29103:14:55.75+01:26:05.2400:19:40.75000:03:12.06001:26:54.08000:02:42.89001:22:25.970
880462Kellie JEPPSONSandy UT USA15 F 30 - 34103:15:00.13+01:26:09.6200:24:46.70000:08:47.28001:32:40.51000:01:03.85001:07:41.790
881378Jann RICHScottsdale AZ USA20 F 55 - 59103:15:06.42+01:26:15.9100:23:23.26000:05:30.52001:38:58.09000:03:56.24001:03:18.310
882128Jamie HARMANNew York NY USA13 F 19 - 24103:15:14.65+01:26:24.1400:39:53.71000:05:58.36001:29:00.51000:02:57.06000:57:25.010
883159 THE YOUNG, BOLD & OLEileen Christensen Mindee Merrill Abril Curatolo25 W Team 107 - 137103:15:16.86+01:26:26.3500:23:08.28000:02:09.38001:34:45.51000:04:17.11001:10:56.580
884150 TEAM REDDERMarrisa Redder Garrett Harper31 Mixed Under 75103:15:22.86+01:26:32.3500:24:44.03000:01:50.42001:30:56.53000:01:03.41001:16:48.470
8851152Alex GLOECKNERsalt lake city UT USA35 Clydesdale Under 40103:15:30.86+01:26:40.3500:19:45.19000:05:16.45001:19:39.90000:04:11.39001:26:37.930
886493Kerol PRATTOmaha NE USA15 F 30 - 34103:15:35.73+01:26:45.2200:24:35.28000:06:38.01001:28:25.02000:01:18.68001:14:38.740
887146Julie NELSONSalt Lake City UT USA13 F 19 - 24103:15:58.99+01:27:08.4800:21:13.50000:07:00.89001:34:14.51000:03:32.39001:09:57.700
888412Cassi KNECHTSandy UT USA14 F 25 - 29103:15:59.02+01:27:08.5100:24:13.74000:05:16.74001:29:17.81000:03:48.63001:13:22.100
889351Josh JEPPSONSandy UT USA04 M 30 - 34103:16:01.27+01:27:10.7600:34:50.96000:08:53.63001:21:38.28000:01:37.16001:09:01.240
890354Jesse JOHNSONrexburg ID USA04 M 30 - 34103:16:03.16+01:27:12.6500:22:02.37000:03:37.31001:34:34.94000:01:49.91001:13:58.630
891773Jan MCCOSH-HILDERPark City UT USA17 F 40 - 44103:16:05.90+01:27:15.3900:28:59.63000:11:46.68000:42:11.47000:01:56.24001:51:11.880
892538Alicia COOKBountiful UT USA15 F 30 - 34103:16:50.15+01:27:59.6400:24:58.49000:07:15.49001:29:16.76000:04:51.35001:10:28.060
893165 PETE, PETE & PETEJeff Peterson Justin Peterson Tracen Peterson27 M Team Under 75103:16:58.30+01:28:07.7900:20:56.06000:01:40.79001:49:32.60000:01:11.33001:03:37.520
894545Norma JORDANBlackfoot ID USA15 F 30 - 34103:17:01.44+01:28:10.9300:21:52.48000:06:31.54001:31:05.93000:02:17.36001:15:14.130
895846Joel LEITHEADMurray UT USA05 M 35 - 39103:17:09.50+01:28:18.9900:24:04.97000:06:30.67001:24:45.88000:02:23.96001:19:24.020
89678Wayne WAGNERPark City UT USA09 M 55 - 59103:17:36.95+01:28:46.4400:20:08.57000:06:37.37001:24:32.78000:03:09.55001:23:08.680
897606Cherise GENTRYDeclo ID USA16 F 35 - 39103:17:38.52+01:28:48.0100:21:57.32000:03:07.13001:22:00.25000:02:10.40001:28:23.420
898402Keri HOLYOAKMidvale UT USA14 F 25 - 29103:18:15.46+01:29:24.9500:24:43.77000:06:57.56001:39:00.32000:02:09.86001:05:23.950
899418Katy MOLESGermantown MD USA14 F 25 - 29103:18:15.64+01:29:25.1300:21:48.23000:09:46.43001:39:08.51000:02:08.58001:05:23.890
9001220Mickey TAYLORSLC UT USA36 Clydesdale 40 and Over103:18:24.70+01:29:34.1900:20:13.25000:02:16.66001:26:55.51000:02:25.25001:26:34.030
9011257Christina HARAMIJASalt Lake City UT USA37 Athena103:18:35.51+01:29:45.0000:23:25.69000:05:49.60001:23:35.48000:03:36.13001:22:08.610
9021168John PATTERSONFARMINGTON UT USA35 Clydesdale Under 40103:18:56.51+01:30:06.0000:23:15.66000:04:07.16001:21:02.24000:03:17.96001:27:13.490
903393Jana POHLMANSalt Lake City UT USA14 F 25 - 29103:19:18.10+01:30:27.5900:21:21.80000:04:09.09001:31:19.42000:02:32.88001:19:54.910
904153Lauren CREERSalt Lake City UT USA14 F 25 - 29103:19:20.83+01:30:30.3200:22:14.21000:05:58.44001:33:44.00000:04:04.69001:13:19.490
905949Elna HAMPSandy UT USA18 F 45 -49103:19:33.18+01:30:42.6700:24:22.16000:05:59.88001:36:31.07000:04:29.84001:08:10.230
906768Gayann DEMORDAUNTEagle ID USA17 F 40 - 44103:19:37.56+01:30:47.0500:24:32.01000:05:30.01001:27:02.95000:03:01.76001:19:30.830
90785Hannah KINNEBREWPark City UT USA12 F 15 - 18103:20:09.36+01:31:18.8500:17:56.84000:05:37.28001:47:08.64000:03:57.13001:05:29.470
908400Janae BRIGANTESandy UT USA14 F 25 - 29103:20:25.76+01:31:35.2500:17:07.45000:03:15.47001:27:13.38000:00:58.54001:31:50.920
909713Adam HAWKESKaysville UT USA03 M 25 - 29103:20:40.50+01:31:49.9900:23:29.67000:06:16.34001:30:49.29000:04:52.78001:15:12.420
910540Briettney DAVISSpokane WA USA15 F 30 - 34103:21:02.94+01:32:12.4300:23:18.91000:07:22.03001:31:48.96000:02:23.21001:16:09.830
911392Brittney RAYBOULDSt. Anthony ID USA14 F 25 - 29103:21:08.58+01:32:18.0700:22:11.57000:02:12.53001:37:52.57000:01:42.81001:17:09.100
9121250Gregg MORROWSalt Lake City UT USA36 Clydesdale 40 and Over103:21:36.62+01:32:46.1100:22:31.21000:05:24.94001:28:15.63000:04:03.68001:21:21.160
9131144Kaly HARWARDEugene OR USA35 Clydesdale Under 40103:21:38.73+01:32:48.2200:25:53.33000:03:55.15001:31:01.69000:03:29.01001:17:19.550
9141100Nathan CHENEYLayton UT USA07 M 45 - 49103:22:11.08+01:33:20.5700:23:17.72000:05:58.23001:24:02.68000:03:13.99001:25:38.460
915463Jeanine JEPPSONWest Jordan UT USA14 F 25 - 29103:22:18.40+01:33:27.8900:20:51.43000:05:54.96001:35:36.17000:02:08.24001:17:47.600
916555Dana BROSNAHANHeber City UT USA15 F 30 - 34103:22:20.89+01:33:30.3800:18:25.18000:04:50.37001:32:32.11000:03:40.67001:22:52.560
917527Kathy MILLERTrinity TX USA15 F 30 - 34103:23:14.90+01:34:24.3900:20:34.25000:11:01.37001:39:08.56000:02:08.13001:10:22.590
918161 MILO GIRLSNatalie Jenkins Coleen Lundquist Suzanne Waters25 W Team 107 - 137103:23:19.26+01:34:28.7500:24:41.05000:01:29.16001:44:40.21000:01:20.11001:11:08.730
9191259Jodi PATTERSONFARMINGTON UT USA37 Athena103:24:10.32+01:35:19.8100:23:16.56000:04:08.37001:31:05.54000:02:19.08001:23:20.770
920371John CAHILLSalt Lake City UT USA11 M 65 and Over103:24:16.88+01:35:26.3700:28:13.50000:08:26.61001:35:40.10000:06:16.44001:05:40.230
921980Marcia PHILLIPSKamas UT USA19 F 50 - 54103:24:25.43+01:35:34.9200:26:00.68000:06:19.52001:32:12.60000:04:45.53001:15:07.100
9221289Gary KARPOWITZSaint George UT USA08 M 50 - 54103:24:41.79+01:35:51.2800:21:27.39000:06:09.74001:27:45.56000:03:04.82001:26:14.280
923868Warren DAWDLEMeridian ID USA05 M 35 - 39103:25:10.01+01:36:19.5000:23:37.38000:06:06.53001:29:10.59000:04:06.18001:22:09.330
923852Ben SLAUGHDraper UT USA05 M 35 - 39103:25:10.01+01:36:19.5000:27:15.52000:11:35.20001:39:00.41000:03:55.65001:03:23.230
9251249Robert BOWENRiverton UT USA36 Clydesdale 40 and Over103:25:16.05+01:36:25.5400:24:54.88000:04:55.74001:29:26.84000:04:11.21001:21:47.380
9261286Donald PRICEBoise ID USA36 Clydesdale 40 and Over103:25:16.12+01:36:25.6100:20:14.26000:06:28.44001:26:30.40000:04:22.97001:27:40.050
927943Laura MATHESONSandy UT USA18 F 45 -49103:25:54.40+01:37:03.8900:22:13.99000:06:15.34001:30:06.18000:03:49.40001:23:29.490
9281037Kevin ZOLLINGERdraper UT USA06 M 40 - 44103:26:52.84+01:38:02.3300:26:06.13000:06:22.51001:22:25.04000:03:55.43001:28:03.730
929108Melissa MUMFORDSalt Lake City UT USA13 F 19 - 24103:26:55.78+01:38:05.2700:24:22.82000:06:20.61001:40:04.92000:04:11.85001:11:55.580
930569Leslie SMITHLayton UT USA16 F 35 - 39103:27:23.09+01:38:32.5800:22:46.68000:05:21.82001:31:43.25000:03:07.34001:24:24.000
9311234Brent GIBSONProvo UT USA36 Clydesdale 40 and Over103:27:40.60+01:38:50.0900:25:51.94000:05:33.99001:19:31.05000:04:23.18001:32:20.440
932120Julie JEPPSONSalt Lake City UT USA13 F 19 - 24103:28:09.72+01:39:19.2100:44:42.34000:08:52.07001:32:32.22000:03:01.98000:59:01.110
93314John WINCHESTERNampa ID USA35 Clydesdale Under 40103:28:15.51+01:39:25.0000:15:55.44000:10:45.72001:23:19.70000:03:13.26001:35:01.390
934369Robert HOLMESMarysville CA USA10 M 60 - 64103:28:45.82+01:39:55.3100:23:28.01000:06:15.11001:34:02.82000:04:29.17001:20:30.710
9351238Dale BROWNFarr West UT USA36 Clydesdale 40 and Over103:29:11.52+01:40:21.0100:23:59.55000:05:17.87001:27:50.16000:04:41.65001:27:22.290
936465Sarah MONSONSalt Lake City UT USA14 F 25 - 29103:29:39.05+01:40:48.5400:24:24.38000:05:09.46001:47:07.37000:03:24.58001:09:33.260
937196 FIRST-TRIBette Hubrich Katelyn Hubrich Sean Hubrich32 Mixed 75 - 106103:30:10.32+01:41:19.8100:26:32.68000:05:28.28001:29:29.36000:04:10.51001:24:29.490
938370Wynn HUBRICHFruit Heights UT USA10 M 60 - 64103:30:11.35+01:41:20.8400:26:31.91000:05:29.48001:29:37.12000:04:02.28001:24:30.560
9391102Stephen BROOKSBluffdale UT USA07 M 45 - 49103:30:51.49+01:42:00.9800:25:14.09000:06:16.12001:40:25.65000:02:01.76001:16:53.870
940610Michelle MARKSmoscow ID USA16 F 35 - 39103:31:01.43+01:42:10.9200:24:05.69000:05:15.20001:27:21.72000:03:39.88001:30:38.940
94191Aleisha ROBINSNorth Salt Lake UT USA12 F 15 - 18103:31:34.32+01:42:43.8100:22:25.28000:06:40.14001:45:12.86000:02:23.61001:14:52.430
942142Shauna WOFFINDENlogan UT USA13 F 19 - 24103:32:23.74+01:43:33.2300:25:17.32000:06:32.92001:35:23.72000:03:00.12001:22:09.660
943539 PETERSEN FAMILYLinda Petersen Kim Seely Marci Nebeker25 W Team 107 - 137103:32:27.75+01:43:37.2400:30:53.78000:01:40.06001:39:39.22000:01:15.96001:18:58.730
944892Jeffrey SMITHLayton UT USA05 M 35 - 39103:32:42.44+01:43:51.9300:24:48.57000:03:45.94001:24:13.36000:04:59.54001:34:55.030
945199 3 GENERATIONSMike Reeves Becky Reeves Irene Reeves33 Mixed 107 - 137103:32:59.62+01:44:09.1100:39:32.26000:02:09.15001:31:27.20000:01:09.64001:18:41.370
946139Becky HANSENRupert ID USA13 F 19 - 24103:33:04.76+01:44:14.2500:29:00.0501:32:32.03000:01:01.73001:30:30.950
947137Jamie HANSENProvo UT USA13 F 19 - 24103:33:11.58+01:44:21.0700:23:53.53000:05:06.76001:32:32.90000:01:00.05001:30:38.340
948355Barry POMEROYAmerican Fork UT USA04 M 30 - 34103:33:33.00+01:44:42.4900:23:14.58000:07:15.38001:36:25.69000:02:39.66001:23:57.690
949595Tracy TURNERHeber City UT USA16 F 35 - 39103:33:39.52+01:44:49.0100:23:37.41000:07:43.47001:42:16.25000:01:48.23001:18:14.160
950490Lydia STUCKIMoscow ID USA15 F 30 - 34103:34:12.88+01:45:22.3700:24:45.17000:04:30.47001:33:10.71000:02:28.23001:29:18.300
951957Terri HILLBurley ID USA18 F 45 -49103:34:48.43+01:45:57.9200:24:48.43000:04:58.48001:35:49.16000:01:54.72001:27:17.640
952438Mackenzie PURLESDraper UT USA14 F 25 - 29103:34:55.83+01:46:05.3200:25:30.65000:05:46.55001:48:17.78000:04:29.31001:10:51.540
953449Susan HALLLindon UT USA14 F 25 - 29103:34:58.59+01:46:08.0800:21:49.64000:09:27.72001:51:08.96000:01:37.95001:10:54.320
9541216Rick WILDINGTaylorsville UT USA36 Clydesdale 40 and Over103:35:19.63+01:46:29.1200:21:48.74000:04:16.64001:38:11.14000:04:07.14001:26:55.970
955415Kristy MATZArlington VA USA14 F 25 - 29103:35:44.21+01:46:53.7000:21:47.60000:09:47.73001:39:06.66000:02:11.28001:22:50.940
956118Collyn DEWEYProvo UT USA13 F 19 - 24103:36:39.25+01:47:48.7400:42:28.66000:02:05.14001:26:21.23000:01:52.22001:23:52.000
957516Natalie MAGLEBYClearfield UT USA15 F 30 - 34103:36:54.40+01:48:03.8900:26:25.07000:07:31.32001:33:12.33000:03:50.43001:25:55.250
95859Jon COXArlington VA USA02 M 19 - 24103:36:59.32+01:48:08.8100:57:43.30000:08:25.85001:28:07.05000:06:22.81000:56:20.310
959988Barbara CUNNINGHAMPocatello ID USA19 F 50 - 54103:37:02.76+01:48:12.2500:24:20.12000:03:10.67001:18:41.86000:03:53.03001:46:57.080
960281Matthew CARTERSLC UT USA04 M 30 - 34103:37:47.93+01:48:57.4200:26:42.95000:07:53.41001:31:39.35000:04:35.81001:26:56.410
961749Pamela WIERSANDY UT USA17 F 40 - 44103:37:49.70+01:48:59.1900:24:31.95000:07:32.62001:35:20.43000:05:22.89001:25:01.810
9621219Eric SCHRADERMeridian ID USA36 Clydesdale 40 and Over103:38:11.48+01:49:20.9700:19:03.96000:07:02.51001:37:56.56000:02:53.88001:31:14.570
96316Caleb WILDINGIdaho Falls ID USAElite Men103:38:35.39+01:49:44.8800:26:13.66000:06:07.26001:38:43.27000:07:04.54001:20:26.660
964950Larene WYSSSalt Lake City UT USA18 F 45 -49103:38:35.79+01:49:45.2800:24:49.58000:04:44.68001:33:01.63000:02:49.11001:33:10.790
965898David WILDINGidaho falls ID USA05 M 35 - 39103:38:36.19+01:49:45.6800:26:13.73000:06:05.97001:38:44.18000:07:04.37001:20:27.940
9661227Tom KITCHENPleasant Grove UT USA09 M 55 - 59103:39:19.64+01:50:29.1300:29:27.75000:04:58.95001:29:59.76000:03:35.92001:31:17.260
967506Nicole NICHOLASSLC UT USA15 F 30 - 34103:39:30.26+01:50:39.7500:21:42.08000:04:42.31001:41:32.92000:02:22.73001:29:10.220
968434Brienne BROWNPark City UT USA14 F 25 - 29103:39:44.36+01:50:53.8500:24:10.78000:05:31.24001:36:51.37000:03:25.00001:29:45.970
969660Lariet DARBOUSHerriman UT USA03 M 25 - 29103:40:33.81+01:51:43.3000:27:36.28000:07:14.74001:50:04.45000:02:17.95001:13:20.390
9701173Darrion BOWERSSherwood OR USA35 Clydesdale Under 40103:40:34.69+01:51:44.1800:18:50.89000:07:53.90001:41:18.60000:01:46.47001:30:44.830
971470Jodi STOSICHomaha NE USA15 F 30 - 34103:40:59.29+01:52:08.7800:21:30.18000:06:56.71001:43:37.93000:02:55.98001:25:58.490
97230Matt REEVESOrem UT USA01 M 15 - 18103:41:02.21+01:52:11.7001:01:40.34000:04:56.52001:15:57.20000:01:14.24001:17:13.910
973203Casey ANDERSONWest Jordan UT USA04 M 30 - 34103:41:51.77+01:53:01.2600:26:13.20000:11:54.70001:26:07.85000:04:43.75001:32:52.270
974385Heidi MURDOCKClinton UT USA14 F 25 - 29103:41:53.75+01:53:03.2400:24:20.24000:05:39.94001:41:55.62000:04:00.78001:25:57.170
975976Rita KINNEBREWPark City UT USA19 F 50 - 54103:43:22.57+01:54:32.0600:28:20.52000:05:24.59001:53:14.82000:03:48.27001:12:34.370
976940Cynthia WILLIAMSProvo UT USA18 F 45 -49103:43:41.54+01:54:51.0300:27:19.40000:07:38.88001:37:06.27000:05:10.93001:26:26.060
977684Greg HOUGHGarden City ID USA03 M 25 - 29103:44:16.30+01:55:25.7900:25:02.10000:04:58.08001:39:55.97000:03:46.46001:30:33.690
9781306James NOWASKEYTaylorsville UT USA08 M 50 - 54103:45:10.63+01:56:20.1200:25:02.11000:05:54.02001:33:51.28000:07:21.40001:33:01.820
979425Tara ROSANDERSalt Lake City UT USA14 F 25 - 29103:45:13.34+01:56:22.8300:24:45.95000:10:07.65001:44:52.48000:04:10.55001:21:16.710
9801262Gayle BURNHAMHighland UT USA37 Athena103:46:47.69+01:57:57.1800:21:31.03000:05:18.33001:43:03.72000:01:53.24001:35:01.370
981382Cynthia HAYESAnthem AZ USA21 F 60 - 64103:47:30.71+01:58:40.2000:20:49.46000:04:26.03001:39:48.83000:03:33.69001:38:52.700
982631Tyson MURDOCKClinton UT USA03 M 25 - 29103:47:30.94+01:58:40.4300:25:57.80000:06:05.94001:50:01.16000:01:44.07001:23:41.970
983273Chad LONGSONEagle ID USA04 M 30 - 34103:47:31.20+01:58:40.6901:11:56.51000:03:55.88001:23:45.69000:02:51.21001:05:01.910
984992David WARDSpokane WA USA06 M 40 - 44103:47:43.11+01:58:52.6000:27:40.29000:08:23.56001:31:24.89000:06:04.52001:34:09.850
985941Sheila FARNSWORTHToquerville UT USA18 F 45 -49103:47:50.47+01:58:59.9600:22:11.98000:05:16.65001:35:49.95000:03:41.10001:40:50.790
986117Brieanna DAVISSpokane WA USA13 F 19 - 24103:48:09.29+01:59:18.7800:24:25.86000:26:14.08001:32:00.17000:02:13.22001:23:15.960
987439Amber PULLEYSalt Lake City UT USA14 F 25 - 29103:53:36.58+02:04:46.0700:21:03.92000:04:04.39001:44:23.97000:01:19.52001:42:44.780
988201 THENNOWTHENGlade Peterson Beverly Peterson Alexis Peterson34 Mixed 138 and Over103:54:14.47+02:05:23.9600:23:11.04000:01:40.10001:54:35.96000:01:30.84001:33:16.530
9891244Dave SUNDSTROMKaysville UT USA36 Clydesdale 40 and Over104:00:24.50+02:11:33.9900:21:47.06000:09:20.69001:49:18.23000:02:24.96001:37:33.560
9901140Michael WARDspanish fork UT USA35 Clydesdale Under 40104:00:50.00+02:11:59.4900:25:00.17000:07:33.09001:58:46.16000:02:19.41001:27:11.170
991372Dennis JOHNSONSandy UT USA11 M 65 and Over104:06:20.52+02:17:30.0100:29:12.13000:08:49.76001:49:59.58000:03:53.79001:34:25.260
992963Leesa WASHBURNLayton UT USA19 F 50 - 54104:07:31.08+02:18:40.5700:38:33.86000:05:52.83001:35:54.66000:03:45.99001:43:23.740
99393Mckinley KENDALLSpringville UT USA12 F 15 - 18104:08:54.57+02:20:04.0600:27:08.58000:10:27.29001:50:55.64000:02:10.24001:38:12.820
994961Kathy KENDALLSpringville UT USA18 F 45 -49104:19:01.12+02:30:10.6100:37:07.67000:10:26.68001:51:03.18000:02:06.10001:38:17.490
995452Lisa HORNEProvo UT USA14 F 25 - 29104:20:34.30+02:31:43.7900:27:15.10000:08:53.57002:05:42.65000:02:08.01001:36:34.970
9961162Brandon DENNISMapleton UT USA35 Clydesdale Under 40104:33:54.44+02:45:03.9300:23:50.36000:04:01.72002:21:03.41000:00:00.000
997414Emily ARNELLFarmington UT USASee Timers110:30:00.83+08:41:10.3207:50:37.02000:44:5338.902:13:45.05000:03:47.15001:06:50.520
1016Dan FORBESDraper UT USA06 M 40 - 440DNF00:20:18.96000:03:11.50001:18:25.30000:06:55.29000:09:43.920
432Rebecca NEADRigby ID USA14 F 25 - 290DNF00:21:14.040
1255Sidni TAYLORAnn Arbor MI USA37 Athena0DNF00:20:07.740
812Eric ADAMSDraper UT USA05 M 35 - 390DNS
479Melinda ADAMSDraper UT USA15 F 30 - 340DNS
1061Dale AGUIRREDraper UT USA06 M 40 - 440DNS
136Jayme ALLENHeyburn ID USA13 F 19 - 240DNS
678Ryan ANDERSENSalt Lake City UT USA03 M 25 - 290DNS
1032Doug ANDERSONDraper UT USA06 M 40 - 440DNS
598Kim ANDERSONDraper UT USA16 F 35 - 390DNS
252Bryce ANDREWMeridian ID USA04 M 30 - 340DNS
677Richard ANDRUSBoise ID USA03 M 25 - 290DNS
471Lisa ARANGOOgden UT USA15 F 30 - 340DNS
815Rick ARNOLDAlpine UT USA05 M 35 - 390DNS
1160Kevin BALFEDraper UT USA35 Clydesdale Under 400DNS
214Brian BANZSyracuse UT USA04 M 30 - 340DNS
104Frances BARRETOorem UT USA13 F 19 - 240DNS
359Vance BARRETTUSA04 M 30 - 340DNS
1261Jennifer BATESorem UT USA37 Athena0DNS
444Tara BAWDENSalt Lake City UT USA14 F 25 - 290DNS
967Rochelle BAXLEYByron CA USA19 F 50 - 540DNS
1201Jonathon BERGERCedar Valley UT USA35 Clydesdale Under 400DNS
1239Jim BERNINISandy UT USA36 Clydesdale 40 and Over0DNS
616Teresa BERRYTwin Falls ID USA16 F 35 - 390DNS
1204Brook BINGHAMSalt Lake City UT USA35 Clydesdale Under 400DNS
76G. Marsden BLANCHSalt Lake City UT USA09 M 55 - 590DNS
714Danny BLANKENSHIPSalt Lake City UT USA03 M 25 - 290DNS
430Lacey BLODGETTSalt Lake City UT USA14 F 25 - 290DNS
110Katy BLOMMERSalt Lake City UT USA13 F 19 - 240DNS
1130Kent BORENSpanish Fork UT USA07 M 45 - 490DNS
1080Tim BOWMANSalt Lake City UT USA07 M 45 - 490DNS
604Amy BRIDANSLC UT USA16 F 35 - 390DNS
319Michael BRIDANSLC UT USA04 M 30 - 340DNS
429Jessica BRIERSalt Lake City UT USA14 F 25 - 290DNS
1124Tai BRIGHTBountiful UT USA07 M 45 - 490DNS
951Lori BROOKSBluffdale UT USA18 F 45 -490DNS
401Kristin BURNETTSalt Lake City UT USA14 F 25 - 290DNS
1189Matt BURNHAMHighland UT USA35 Clydesdale Under 400DNS
294Bryce BURTENSHAWIdaho Falls ID USA04 M 30 - 340DNS
1184Roger BUTTERSLincoln NE USA35 Clydesdale Under 400DNS
1290Larry BYBEEPocatello ID USA08 M 50 - 540DNS
550Candice CALDERSt. George UT USA15 F 30 - 340DNS
987Sallie CALDERsandy UT USA19 F 50 - 540DNS
364Michael CALLAHANAmerican Fork UT USA10 M 60 - 640DNS
731Spencer CANNONSalt Lake City UT USA03 M 25 - 290DNS
704Jared CARLSONWest Valley City UT USA03 M 25 - 290DNS
968Eve CARLSRUHLayton UT USA19 F 50 - 540DNS
1211Eddy CHRISTENSENEagle ID USA35 Clydesdale Under 400DNS
225Joe CHRISTENSENSandy UT USA04 M 30 - 340DNS
71John CHRISTENSENLayton UT USA09 M 55 - 590DNS
599Nicole CHRISTENSENFarmington UT USA16 F 35 - 390DNS
621Staci CHRISTENSENEagle ID USA16 F 35 - 390DNS
1170Matt CLARKwoods cross UT USA35 Clydesdale Under 400DNS
924Matthew CLARKSouth Jordan UT USA05 M 35 - 390DNS
328Michael CLARKIdaho Falls ID USA04 M 30 - 340DNS
1147Thor CONLEYChubbuck ID USA35 Clydesdale Under 400DNS
1202Fred CONLONSalt Lake City UT USA35 Clydesdale Under 400DNS
1029Jerry COOKLehi UT USA06 M 40 - 440DNS
883Kevin COPELANDAlpine UT USA05 M 35 - 390DNS
1280Wayne CORBRIDGELindon UT USA08 M 50 - 540DNS
478Amy COURSENmidvale UT USA15 F 30 - 340DNS
296Douglas COXhuntington UT USA04 M 30 - 340DNS
932Debi CRANERBurley ID USA18 F 45 -490DNS
792Kristin CRANNEYMidway UT USA17 F 40 - 440DNS
1198Lex CURTISSalt Lake City UT USA35 Clydesdale Under 400DNS
311Marvin CURTISSalt Lake City UT USA04 M 30 - 340DNS
766Julie DARNELLBrentwood CA USA17 F 40 - 440DNS
105Jana DENNISONTaylorsville UT USA13 F 19 - 240DNS
1277Steve DESMONDStansbury Park UT USA08 M 50 - 540DNS
688Sanjiv DEVNANISalt Lake City UT USA03 M 25 - 290DNS
952Cydnee DIAMONDHeber City UT USA18 F 45 -490DNS
609Heidi DICKMANSalt lake City UT USA16 F 35 - 390DNS
492Melanie DRAKEReno NV USA15 F 30 - 340DNS
244Robert DRAKEReno NV USA04 M 30 - 340DNS
49Lyndsey DRANSFIELDDraper UT USA13 F 19 - 240DNS
643Chris DUNCANProvo UT USA03 M 25 - 290DNS
874Jeff EASTMANDraper UT USA05 M 35 - 390DNS
1108Denny ECKERTSalt Lake City UT USA07 M 45 - 490DNS
1070Bob ELLEFSENSalt Lake City UT USA06 M 40 - 440DNS
682Blake EMETTSalt Lake City UT USA03 M 25 - 290DNS
900Michael ENGBERSONAlpine UT USA05 M 35 - 390DNS
381Deborah EPPSTEINSalt Lake City UT USA20 F 55 - 590DNS
1303Alan ERICKSONSoda Springs ID USA08 M 50 - 540DNS
40Drew ERICKSONSoda Springs ID USA01 M 15 - 180DNS
101Lacey ERICKSONPleasant Grove UT USA13 F 19 - 240DNS
357David ETHINGTONCenterville UT USA04 M 30 - 340DNS
701Alan FAGERGRENSalt Lake City UT USA03 M 25 - 290DNS
662Sammy FANSalt Lake City UT USA03 M 25 - 290DNS
459Lacey FARRISSandy UT USA14 F 25 - 290DNS00:28:00.33000:07:00.57001:30:09.04000:02:47.830
1260Kelesi FELTPocatello ID USA37 Athena0DNS
31Peter FERRINSalt Lake City UT USA01 M 15 - 180DNS
1098Shawn FERRINSalt Lake City UT USA07 M 45 - 490DNS
984Nola FILLINKaysville UT USA19 F 50 - 540DNS
22Kevin FINCHSalt Lake City UT USA01 M 15 - 180DNS
23Peter FINCHsalt lake city UT USA01 M 15 - 180DNS
1058Kurt FLYGAREAlpine UT USA06 M 40 - 440DNS
60Dallas FORSYTHSpokane WA USA02 M 19 - 240DNS
408Camille FOXKerman CA USA14 F 25 - 290DNS00:19:12.31000:06:50.03001:23:49.590
1154Brent GALLUPChubbuck ID USA35 Clydesdale Under 400DNS
442Emily GAPPMAYERorem UT USA14 F 25 - 290DNS
805Tim GARDNERLayton UT USA05 M 35 - 390DNS
503Tara GARLOCKkaysville UT USA15 F 30 - 340DNS
574Melissa GARNERSandy UT USA16 F 35 - 390DNS
523Ann GATESSalt Lake City UT USA15 F 30 - 340DNS
416Michelle GEIGEROgden UT USA14 F 25 - 290DNS
518Racie GIFFENWest Jordan UT USA15 F 30 - 340DNS
975Patricia GOODINOgden UT USA19 F 50 - 540DNS
11251Roger GOURLEYProvo UT USA36 Clydesdale 40 and Over0DNS
1087Michael GREENSalt Lake City UT USA07 M 45 - 490DNS
977Sara GREENSalt Lake City UT USA20 F 55 - 590DNS
32Dax GREENERBurley ID USA01 M 15 - 180DNS
521Sheri GREENERBurley ID USA15 F 30 - 340DNS
127Andrea GREERTaylorsville UT USA13 F 19 - 240DNS
1309Gary GRUBBSalt Lake City UT USA08 M 50 - 540DNS
1004David GUETIGHighlands Ranch CO USA06 M 40 - 440DNS
906Greg GUYMONMeridian ID USA05 M 35 - 390DNS
558Kristen HACKETTSLC UT USA15 F 30 - 340DNS00:29:39.63000:08:01.40002:58:55.130
584Elena HALLSouth Jordan UT USA16 F 35 - 390DNS
718Lorien HALLOrem UT USA14 F 25 - 290DNS
89Kennan HAMBLINAlpine UT USA12 F 15 - 180DNS
958Linda HAMBLINAlpine UT USA18 F 45 -490DNS
1118Scott HAMBLINAlpine UT USA07 M 45 - 490DNS
28Austin HAMPSandy UT USA01 M 15 - 180DNS
67Lucas HANDYBurley ID USA02 M 19 - 240DNS
1026Cliff HANKSBurley ID USA06 M 40 - 440DNS
710Thomas HANKSSalt Lake City UT USA03 M 25 - 290DNS
730Kimball HANNANSalt Lake City UT USA03 M 25 - 290DNS
1021Seamus HANNIGANProvo UT USA06 M 40 - 440DNS
721Christopher HANSENLayton UT USA03 M 25 - 290DNS
986Joan HANSENPocatello ID USA19 F 50 - 540DNS
1017Keith HANSENCedar Hills UT USA06 M 40 - 440DNS
306Kory HANSENSalt Lake City UT USA04 M 30 - 340DNS
141Kimmy HARMANProvo UT USA13 F 19 - 240DNS
689Jonathan HARRISTaylorsville UT USA03 M 25 - 290DNS
84Ted HARRISLayton UT USA09 M 55 - 590DNS
151Valerie HARTIvins UT USA13 F 19 - 240DNS
124Jamie HAWKSLehi UT USA13 F 19 - 240DNS
1298Kim HAYESsalt lake city UT USA08 M 50 - 540DNS
937Pamela HELLEROmaha NE USA18 F 45 -490DNS
777Lori HENRICKSONBurley ID USA17 F 40 - 440DNS
653Jakob HODSONDraper UT USA03 M 25 - 290DNS
982Gaye HOGGEEden UT USA19 F 50 - 540DNS
530Sheri HOHMANNSalt Lake City UT USA15 F 30 - 340DNS
838Kelly HUBBARDLogan UT USA05 M 35 - 390DNS
198 HUNT MADDNESSIvanna Hunt Sundays Hunt Ivan Hunt33 Mixed 107 - 1370DNS
424Cameron HYERDraper UT USA14 F 25 - 290DNS
1116Kirk JACOBSONLas Vegas NV USA07 M 45 - 490DNS
437Kimberlee JAMESSalt Lake City UT USA14 F 25 - 290DNS
920Dwight JENKINSDeclo ID USA05 M 35 - 390DNS
508Megan JEPSENSalt Lake City UT USA15 F 30 - 340DNS
133Lindsie JOHNSONSouth Jordan UT USA13 F 19 - 240DNS
725Cody JOLLEYProvo UT USA03 M 25 - 290DNS
287Michael JONESWEST JORDAN UT USA04 M 30 - 340DNS
843Nathan JONESOrem UT USA05 M 35 - 390DNS
1177Roman JONESWest Jordan UT USA35 Clydesdale Under 400DNS
928Todd KENERDraper UT USA05 M 35 - 390DNS
29Taylor KINNEBREWPark City UT USA01 M 15 - 180DNS
828Ryan KIRKHAMSalt Lake City UT USA05 M 35 - 390DNS00:26:56.63000:06:18.05001:40:11.690
1125Vincent KITUKUBoise ID USA07 M 45 - 490DNS
1304Jeff KJARSandy UT USA08 M 50 - 540DNS
44Cory KNIEPShoshone ID USA02 M 19 - 240DNS
115Mccall KNOWLTONSalt Lake City UT USA13 F 19 - 240DNS
856Jeff KOCHEVARCastle Rock CO USA05 M 35 - 390DNS
343Brian KUNZELehi UT USA04 M 30 - 340DNS
1066David KURZSalt Lake City UT USA06 M 40 - 440DNS
222Nicholas LAFEBERSalt Lake City UT USA04 M 30 - 340DNS
804Brig LAMBERTHighland UT USA05 M 35 - 390DNS
679Shane LARSENSalt Lake City UT USA03 M 25 - 290DNS
333Scott LEAVERLas Vegas NV USA04 M 30 - 340DNS
279Jeff LEAVITTGahanna OH USA04 M 30 - 340DNS
80Brent LEEburley ID USA08 M 50 - 540DNS
496Lana LEISHMANSandy UT USA15 F 30 - 340DNS
650Nathan LEWISProvo UT USA03 M 25 - 290DNS
553Katie LILJESTRANDSandy UT USA15 F 30 - 340DNS
1044Steve LINDSLEYAlpine UT USA06 M 40 - 440DNS
1272Jeffrey LINTONPowell WY USA08 M 50 - 540DNS
509Becca LONGSONEagle ID USA15 F 30 - 340DNS
1266Shellie LOTTSalt Lake City UT USA37 Athena0DNS
220Mark LOUTENSOCKEagle ID USA04 M 30 - 340DNS
810Wade LYONSPayson UT USA05 M 35 - 390DNS
405Nicole MADSENProvo UT USA14 F 25 - 290DNS
1050Steve MADSENRedding CA USA06 M 40 - 440DNS
716Juan MAESTASTrabuco Canyon CA USA03 M 25 - 290DNS
404Erica MALOUFPocatello ID USA14 F 25 - 290DNS00:25:18.92000:06:29.01001:39:47.440
715Jamison MANWARINGScottsdale AZ USA03 M 25 - 290DNS
543Joni MANWARINGEagle ID USA15 F 30 - 340DNS
909Josh MANWARINGEagle ID USA05 M 35 - 390DNS
1121Kevin MARCUMSalt Lake City UT USA07 M 45 - 490DNS
499Jamie MARKOSIANSalt Lake City UT USA15 F 30 - 340DNS
1129Vince MAYOIdaho Falls ID USA07 M 45 - 490DNS
1253Karen MCCANDLESSOrem UT USA37 Athena0DNS
983Kathy MCDANIELSalt Lake City UT USA19 F 50 - 540DNS
575Michelle MCFARLANDRexburg ID USA16 F 35 - 390DNS
742Jeff MEIBOSSyracuse UT USA03 M 25 - 290DNS
634Eric MEMMOTTfarmington UT USA03 M 25 - 290DNS
114Rachel MILESTooele UT USA13 F 19 - 240DNS
406Katherine MILLERProvo UT USA14 F 25 - 290DNS
68Larry MILLERPleasant Grove UT USA09 M 55 - 590DNS
278Todd MONSRiverton UT USA04 M 30 - 340DNS
669Bryce MORGANBurley ID USA03 M 25 - 290DNS
1183Robert MORRISWest Jordan UT USA35 Clydesdale Under 400DNS
589Krissy MOSSEagle ID USA16 F 35 - 390DNS
1297Ron MOSSKAYSVILLE UT USA08 M 50 - 540DNS
618Tanya MOYESBurley ID USA16 F 35 - 390DNS
891Adam NALLYSurprise AZ USA05 M 35 - 390DNS
525Tiffini NALLYSurprise AZ USA15 F 30 - 340DNS
568Melinda NEBEKERSalt Lake City UT USA16 F 35 - 390DNS
779Barbara NELSONIdaho Falls ID USA17 F 40 - 440DNS
881Bradley NELSONEagle ID USA05 M 35 - 390DNS
27Samson NELSONSandy TX USA01 M 15 - 180DNS
517Sarah NELSONEagle ID USA15 F 30 - 340DNS
1111Bryan NICHOLSSalt Lake City UT USA07 M 45 - 490DNS
1105Jim NICHOLSSalt Lake City UT USA07 M 45 - 490DNS
1133Earl NORMANOrem UT USA35 Clydesdale Under 400DNS
1117Garry OTTOSENDraper UT USA07 M 45 - 490DNS
388Brooke PAINTERSaratoga Springs UT USA14 F 25 - 290DNS
578Tracy PARKINSONSandy UT USA16 F 35 - 390DNS
707Rex PATRICKSalt Lake City UT USA03 M 25 - 290DNS
1048Ted PAULSENDraper UT USA06 M 40 - 440DNS
111Cristina PEBLEYBoutniful UT USA14 F 25 - 290DNS
1200Clint PECKEagle Mountain UT USA35 Clydesdale Under 400DNS
326Chad PEDERSENSouth Jordan UT USA04 M 30 - 340DNS
54Derek PEDERSENSpringville UT USA02 M 19 - 240DNS
1069Anthony PERKINSRexburg ID USA06 M 40 - 440DNS
1300Brent PETERSENTuckahoe NY USA08 M 50 - 540DNS
571Kerri PETERSENBrigham City UT USA16 F 35 - 390DNS
52Spencer PETERSENPingree ID USA03 M 25 - 290DNS
1243Nolan PETERSONBurley ID USA36 Clydesdale 40 and Over0DNS
723Steven PHILLIPSSalt Lake City UT USA03 M 25 - 290DNS
83Curtis POPEBurley ID USA09 M 55 - 590DNS
546Shanna PORTERProvo UT USA15 F 30 - 340DNS
1001David PRUETZRiverton UT USA06 M 40 - 440DNS
190 PURE INSANITYNoah Hunt Warrior Hunt Michalene Morgan32 Mixed 75 - 1060DNS
667Chase PURLESCedar Hills UT USA03 M 25 - 290DNS
245Donald RALPHSyracuse UT USA04 M 30 - 340DNS
1123George RALPHSLas Vegas NV USA07 M 45 - 490DNS
824Taylor RANDALLSalt Lake City UT USA05 M 35 - 390DNS
875Aaron RENNERTDraper UT USA05 M 35 - 390DNS
109Jenifer RIGBYCedar City UT USA13 F 19 - 240DNS
1247Bruce ROCKTucson AZ USA36 Clydesdale 40 and Over0DNS
649Mace ROCKWOODLogan UT USA03 M 25 - 290DNS
526Nichole ROLFESurprise AZ USA15 F 30 - 340DNS
205Joshua ROMNEYSalt Lake City UT USA04 M 30 - 340DNS
552Stephanie SANTIAGOEagle ID USA15 F 30 - 340DNS
801Scott SCHAEFERSalt Lake City UT USA05 M 35 - 390DNS
1307Bill SCHMIDBountiful UT USA08 M 50 - 540DNS
1199Shon SCOVILLEOgden UT USA35 Clydesdale Under 400DNS
5Russell SEARLEFort Worth TX USAElite Men0DNS
834Chris SEEGMILLERRiverton UT USA05 M 35 - 390DNS
489Marci SEEGMILLERRiverton UT USA15 F 30 - 340DNS
348Mike SERIOBountiful UT USA04 M 30 - 340DNS
1018Paul SHIRLEYBountiful UT USA06 M 40 - 440DNS
1158Todd SKOUSENDraper UT USA35 Clydesdale Under 400DNS
498Dani SLAUGHDraper UT USA15 F 30 - 340DNS00:47:48.69000:12:44.670
461Polly SMEDLEYsalt lake city UT USA14 F 25 - 290DNS
772Donna SMITHSt. George UT USA17 F 40 - 440DNS
850Eric SMITHLindon UT USA05 M 35 - 390DNS
626Lane SMITHSyracuse UT USA03 M 25 - 290DNS
365Larry SMITHSandy UT USA10 M 60 - 640DNS
605Lori SMITHDraper UT USA16 F 35 - 390DNS
339Paul SMITHSandy UT USA04 M 30 - 340DNS
1165Ryan SMITHHerriman UT USA35 Clydesdale Under 400DNS
1175Chris SORENSENDraper UT USA35 Clydesdale Under 400DNS
1030Thierry SORHAITZLindon UT USA06 M 40 - 440DNS
784Corinne STARLEYTwin Falls ID USA17 F 40 - 440DNS
96Suzanne STEELEProvo UT USA13 F 19 - 240DNS
21Mitchell STEVENSslc UT USA01 M 15 - 180DNS
1Monte STILLUSAElite Men0DNS
12Kevin STOCKBurley ID USAElite Men0DNS
735Gavin STODDARDChaska MN USA03 M 25 - 290DNS
1051David TAYLORSalt Lake City UT USA06 M 40 - 440DNS
410Janessa TAYLORSalt Lake City UT USA14 F 25 - 290DNS
51Jordan TAYLORMidvale UT USA02 M 19 - 240DNS
865Roger TAYLORLehi UT USA05 M 35 - 390DNS
202 TEAM BARNUM-REECEUSA34 Mixed 138 and Over0DNS
56 TEAM ECKERTMark Eckert, Denny Eckert, Mark Eckert28 M Team 75 - 1060DNS00:19:06.47000:01:27.72001:17:37.38000:00:55.800
368Gary THAYNESt. George UT USA10 M 60 - 640DNS
106Jannalyn THIERBACHSandy UT USA13 F 19 - 240DNS
861Scott THOMASCottonwoods Heights UT USA05 M 35 - 390DNS
755Cindy THOMPSONSandy UT USA17 F 40 - 440DNS
985Kim THOMPSONKing Hill ID USA19 F 50 - 540DNS
775Sandra TOOLSONsan diego CA USA17 F 40 - 440DNS
1212Reuban TORRESSLC UT USA35 Clydesdale Under 400DNS
158 TRI HARDERLinda Blanksma Callie Thomsen Cori Park24 W Team 75 - 1060DNS
1120Don TROPDraper UT USA07 M 45 - 490DNS
443Shannon TUDDENHAMSalt Lake City UT USA14 F 25 - 290DNS
448Amy UBOLDIkaysville UT USA14 F 25 - 290DNS
956Vicki VALENTINEFarmington UT USA18 F 45 -490DNS
931Karin VANDENBERGSalt Lake City UT USA18 F 45 -490DNS
1033Ron VANWAGENENEagle ID USA06 M 40 - 440DNS
20Kevin VICKHighland UT USAElite Men0DNS
651Caleb VOGELIdaho Fall ID USA03 M 25 - 290DNS
345Cy WALDRONDraper UT USA04 M 30 - 340DNS
654David WALKERPerry UT USA03 M 25 - 290DNS00:22:17.58000:03:07.240
876James WALKERhighland UT USA05 M 35 - 390DNS00:15:47.68000:01:41.630
82John WALLSpringville UT USA09 M 55 - 590DNS
373Leland WALSEROgden UT USA11 M 65 and Over0DNS
350Christopher WARDTooele UT USA04 M 30 - 340DNS
791Donna WARDTooele UT USA17 F 40 - 440DNS
740Matthew WARDWEST JORDAN UT USA03 M 25 - 290DNS
94Sarah WARDStansbury Park UT USA12 F 15 - 180DNS
235Bryan WATABEOrem UT USA04 M 30 - 340DNS
726Marcus WATKINSLehi UT USA03 M 25 - 290DNS
837Rob WEAVERSLC UT USA05 M 35 - 390DNS
140Emily WEBBERSalt lake City UT USA13 F 19 - 240DNS
691Armond WERRETTSalt Lake City UT USA03 M 25 - 290DNS
1310Larry WERTSCHPark City UT USA08 M 50 - 540DNS
236Aaron WHITAKERSalt Lake City UT USA04 M 30 - 340DNS
760Missy WHITELander WY USA17 F 40 - 440DNS
1086James WOODSalt Lake City UT USA07 M 45 - 490DNS
579Teresa WORTHINGTONBurley ID USA16 F 35 - 390DNS
1288Barney ZAUSSWellington UT USA08 M 50 - 540DNS
399Camille ZAUSSOrem UT USA14 F 25 - 290DNS
1143Boo BENDINGERSalt Lake City UT USA03 M 25 - 290DQ01:167:2006600:01:19.350
993Christopher CARDINETTwin Falls ID USA06 M 40 - 440DQ00:19:53.77000:02:49.12000:41:30.40000:59:06.590
324Kevin GEORGEHeyburn ID USA04 M 30 - 340DQ00:20:55.70000:04:57.64001:14:25.54000:02:16.92000:11:18.010
1097Brent REDDEKOPPCedar Hills UT USA07 M 45 - 490DQ01:150:18038